Darstellungsparameter: Aktuell verwendete Einstellungen:
Skalierung der Graphiken ... ?
xyx+y,   Skalierungsfaktor:      Skalierung: Modus: x, Faktor: 1
Darstellungszeitraum ... ?
Vom - - bis: - -   Zeitraum: 12.09.2010 - 11.09.2020
Min/Max/Avg-Anzeige ... ?
Zeige MMA aktuell
Zeige MMA Monat
Zeige MMA alles
Zeige --A aktuell
Zeige --A Monat
Zeige --A alles
Keine MMA-Anzeige
MMA:
Average (ber die Originaldaten)
MMA-Basis: 12.09.2010 - 11.09.2020
Quicknavigation für Darstellung... ?
Tage:      1T, 2T, 3T, 5T -1T -2T -3T -5T +1T +2T +3T +5T
Wochen: 1W, 2W, 3W -1W -2W -3W +1W +2W +3W
Monate: 1M, 3M, 6M -1M -3M -6M +1M +3M +6M
Jahre:    1J, 3J, 5J, 10J -1J -3J -5J -10J +1J +3J +5J +10J
Nutze für die Darstellung ... ?
Originaldaten oder ...
Mittelwerte Minima Maxima auf...
Stundenbasis Tagesbasis Wochenbasis
Monatsbasis Jahresbasis      Datenbasis: Mittelwerte auf Stundenbasis
Darstellen als:
Statistik (Auto) Statistik J:M      Darstellung:
Zur Graphik,    zurück zur Übersicht aller Sensoren.
 
Tabellarische Datenbersicht: ?
 
Sensor: Nr:Datum:Temp:Abs-Feuchte:Windchill:Wind:
Aussen-T/F 1 12-09-2010 00:00:00 16.06 C 10.42 g/m*3 16.06 C 0 km/h
2 12-09-2010 01:00:00 15.34 C 10.34 g/m*3 15.34 C 0 km/h
3 12-09-2010 02:00:00 14.88 C 10.39 g/m*3 14.88 C 0 km/h
4 12-09-2010 03:00:00 14.46 C 10.2 g/m*3 14.46 C 0 km/h
5 12-09-2010 04:00:00 14.1 C 10.07 g/m*3 14.1 C 0 km/h
6 12-09-2010 05:00:00 13.76 C 9.98 g/m*3 13.76 C 0 km/h
7 12-09-2010 06:00:00 13.52 C 9.93 g/m*3 13.52 C 0 km/h
8 12-09-2010 07:00:00 13.7 C 10.14 g/m*3 13.7 C 0 km/h
9 12-09-2010 08:00:00 14.26 C 10.3 g/m*3 14.26 C 0 km/h
10 12-09-2010 09:00:00 14.84 C 10.51 g/m*3 14.84 C 0 km/h
11 12-09-2010 10:00:00 16.94 C 11.16 g/m*3 16.94 C 0 km/h
12 12-09-2010 11:00:00 20.02 C 10.69 g/m*3 20.02 C 0 km/h
13 12-09-2010 12:00:00 21.62 C 10.75 g/m*3 21.62 C 0 km/h
14 12-09-2010 13:00:00 24.4 C 9.84 g/m*3 24.4 C 0 km/h
15 12-09-2010 14:00:00 23.86 C 9.2 g/m*3 23.86 C 0 km/h
16 12-09-2010 15:00:00 19.32 C 8.87 g/m*3 19.32 C 0 km/h
17 12-09-2010 16:00:00 17.78 C 9.19 g/m*3 17.78 C 0 km/h
18 12-09-2010 17:00:00 16.2 C 9.68 g/m*3 16.2 C 0 km/h
19 12-09-2010 18:00:00 14.92 C 10.59 g/m*3 14.92 C 0 km/h
20 12-09-2010 19:00:00 14.26 C 10.79 g/m*3 14.26 C 0 km/h
21 12-09-2010 20:00:00 13.82 C 10.81 g/m*3 13.82 C 0 km/h
22 12-09-2010 21:00:00 13.78 C 10.97 g/m*3 13.78 C 0 km/h
23 12-09-2010 22:00:00 13.78 C 11.07 g/m*3 13.78 C 0 km/h
24 12-09-2010 23:00:00 13.58 C 10.93 g/m*3 13.58 C 0 km/h
25 13-09-2010 00:00:00 13.68 C 11 g/m*3 13.68 C 0 km/h
Sensor: Nr:Datum:Temp:Abs-Feuchte:Windchill:Wind:
Aussen-T/F 26 13-09-2010 01:00:00 13.7 C 11.01 g/m*3 13.7 C 0 km/h
27 13-09-2010 02:00:00 13.52 C 10.89 g/m*3 13.52 C 0 km/h
28 13-09-2010 03:00:00 13.26 C 10.58 g/m*3 13.26 C 0 km/h
29 13-09-2010 04:00:00 13 C 10.21 g/m*3 13 C 0 km/h
30 13-09-2010 05:00:00 13.26 C 9.77 g/m*3 13.26 C 0 km/h
31 13-09-2010 06:00:00 13.3 C 9.57 g/m*3 13.3 C 0 km/h
32 13-09-2010 07:00:00 12.72 C 9.18 g/m*3 12.72 C 0 km/h
33 13-09-2010 08:00:00 13.04 C 9.62 g/m*3 13.04 C 0 km/h
34 13-09-2010 09:00:00 13.98 C 9.47 g/m*3 13.98 C 0 km/h
35 13-09-2010 10:00:00 15.32 C 9.05 g/m*3 15.32 C 0 km/h
36 13-09-2010 11:00:00 16.5 C 8.57 g/m*3 16.5 C 0 km/h
37 13-09-2010 12:00:00 17.24 C 7.93 g/m*3 17.24 C 0 km/h
38 13-09-2010 13:00:00 18.94 C 7.53 g/m*3 18.94 C 0 km/h
39 13-09-2010 14:00:00 20.18 C 6.95 g/m*3 20.18 C 0 km/h
40 13-09-2010 15:00:00 20.8 C 7.1 g/m*3 20.8 C 0 km/h
41 13-09-2010 16:00:00 21.56 C 6.93 g/m*3 21.56 C 0 km/h
42 13-09-2010 17:00:00 20.48 C 7.96 g/m*3 20.48 C 0 km/h
43 13-09-2010 18:00:00 18.22 C 8.62 g/m*3 18.22 C 0 km/h
44 13-09-2010 19:00:00 16.92 C 8.55 g/m*3 16.92 C 0 km/h
45 13-09-2010 20:00:00 15.24 C 8.9 g/m*3 15.24 C 0 km/h
46 13-09-2010 21:00:00 14.52 C 8.97 g/m*3 14.52 C 0 km/h
47 13-09-2010 22:00:00 13.7 C 8.86 g/m*3 13.7 C 0 km/h
48 13-09-2010 23:00:00 13.14 C 8.85 g/m*3 13.14 C 0 km/h
49 14-09-2010 00:00:00 12.82 C 9.2 g/m*3 12.82 C 0 km/h
50 14-09-2010 01:00:00 12.8 C 9.27 g/m*3 12.8 C 0 km/h
Sensor: Nr:Datum:Temp:Abs-Feuchte:Windchill:Wind:
Aussen-T/F 51 14-09-2010 02:00:00 13.1 C 9.33 g/m*3 13.1 C 0 km/h
52 14-09-2010 03:00:00 13.36 C 9.23 g/m*3 13.36 C 0 km/h
53 14-09-2010 04:00:00 12.94 C 9.42 g/m*3 12.94 C 0 km/h
54 14-09-2010 05:00:00 12.96 C 9.84 g/m*3 12.96 C 0 km/h
55 14-09-2010 06:00:00 13.9 C 9.28 g/m*3 13.9 C 0 km/h
56 14-09-2010 07:00:00 14.06 C 8.93 g/m*3 14.06 C 0 km/h
57 14-09-2010 08:00:00 14.1 C 9.32 g/m*3 14.1 C 0 km/h
58 14-09-2010 09:00:00 15.16 C 9.06 g/m*3 15.16 C 0 km/h
59 14-09-2010 10:00:00 16.1 C 9.07 g/m*3 16.1 C 0 km/h
60 14-09-2010 11:00:00 17.06 C 9.15 g/m*3 17.06 C 0 km/h
61 14-09-2010 12:00:00 18.44 C 9.18 g/m*3 18.44 C 0 km/h
62 14-09-2010 13:00:00 19.98 C 9.22 g/m*3 19.98 C 0 km/h
63 14-09-2010 14:00:00 19.66 C 8.84 g/m*3 19.66 C 0 km/h
64 14-09-2010 15:00:00 20.4 C 8.63 g/m*3 20.4 C 0 km/h
65 14-09-2010 16:00:00 20.68 C 7.88 g/m*3 20.68 C 0 km/h
66 14-09-2010 17:00:00 20.14 C 7.46 g/m*3 20.14 C 0 km/h
67 14-09-2010 18:00:00 19.34 C 7.81 g/m*3 19.34 C 0 km/h
68 14-09-2010 19:00:00 18.8 C 7.73 g/m*3 18.8 C 0 km/h
69 14-09-2010 20:00:00 18.6 C 7.7 g/m*3 18.6 C 0 km/h
70 14-09-2010 21:00:00 18.54 C 7.77 g/m*3 18.54 C 0 km/h
71 14-09-2010 22:00:00 18.5 C 7.83 g/m*3 18.5 C 0 km/h
72 14-09-2010 23:00:00 18.22 C 7.91 g/m*3 18.22 C 0 km/h
73 15-09-2010 00:00:00 18.02 C 7.87 g/m*3 18.02 C 0 km/h
74 15-09-2010 01:00:00 18.18 C 7.67 g/m*3 18.18 C 0 km/h
75 15-09-2010 02:00:00 18.32 C 7.64 g/m*3 18.32 C 0 km/h
Sensor: Nr:Datum:Temp:Abs-Feuchte:Windchill:Wind:
Aussen-T/F 76 15-09-2010 03:00:00 18.06 C 8.23 g/m*3 18.06 C 0 km/h
77 15-09-2010 04:00:00 17.7 C 9.11 g/m*3 17.7 C 0 km/h
78 15-09-2010 05:00:00 15 C 9.75 g/m*3 15 C 0 km/h
79 15-09-2010 06:00:00 12.78 C 10.09 g/m*3 12.78 C 0 km/h
80 15-09-2010 07:00:00 12.74 C 10.29 g/m*3 12.74 C 0 km/h
81 15-09-2010 08:00:00 12.7 C 10.35 g/m*3 12.7 C 0 km/h
82 15-09-2010 09:00:00 12.92 C 10.36 g/m*3 12.92 C 0 km/h
83 15-09-2010 10:00:00 14.06 C 9.95 g/m*3 14.06 C 0 km/h
84 15-09-2010 11:00:00 15.02 C 8.86 g/m*3 15.02 C 0 km/h
85 15-09-2010 12:00:00 16.5 C 7.02 g/m*3 16.5 C 0 km/h
86 15-09-2010 13:00:00 17.24 C 6.31 g/m*3 17.24 C 0 km/h
87 15-09-2010 14:00:00 18.38 C 5.66 g/m*3 18.38 C 0 km/h
88 15-09-2010 15:00:00 19.52 C 5.75 g/m*3 19.52 C 0 km/h
89 15-09-2010 16:00:00 19.52 C 5.98 g/m*3 19.52 C 0 km/h
90 15-09-2010 17:00:00 19.68 C 5.8 g/m*3 19.68 C 0 km/h
91 15-09-2010 18:00:00 17.84 C 5.32 g/m*3 17.84 C 0 km/h
92 15-09-2010 19:00:00 16.6 C 5.65 g/m*3 16.6 C 0 km/h
93 15-09-2010 20:00:00 15.84 C 6.26 g/m*3 15.84 C 0 km/h
94 15-09-2010 21:00:00 15.18 C 6.38 g/m*3 15.18 C 0 km/h
95 15-09-2010 22:00:00 14.96 C 5.96 g/m*3 14.96 C 0 km/h
96 15-09-2010 23:00:00 14.86 C 5.64 g/m*3 14.86 C 0 km/h
97 16-09-2010 00:00:00 14.18 C 5.9 g/m*3 14.18 C 0 km/h
98 16-09-2010 01:00:00 14.1 C 5.41 g/m*3 14.1 C 0 km/h
99 16-09-2010 02:00:00 13.94 C 5.79 g/m*3 13.94 C 0 km/h
100 16-09-2010 03:00:00 13.84 C 6.71 g/m*3 13.84 C 0 km/h
Sensor: Nr:Datum:Temp:Abs-Feuchte:Windchill:Wind:
Aussen-T/F 101 16-09-2010 04:00:00 13.58 C 6.98 g/m*3 13.58 C 0 km/h
102 16-09-2010 05:00:00 13.36 C 7.26 g/m*3 13.36 C 0 km/h
103 16-09-2010 06:00:00 12.44 C 8.08 g/m*3 12.44 C 0 km/h
104 16-09-2010 07:00:00 11.78 C 8.68 g/m*3 11.78 C 0 km/h
105 16-09-2010 08:00:00 11.86 C 8.83 g/m*3 11.86 C 0 km/h
106 16-09-2010 09:00:00 12.64 C 9.25 g/m*3 12.64 C 0 km/h
107 16-09-2010 10:00:00 14.12 C 8.65 g/m*3 14.12 C 0 km/h
108 16-09-2010 11:00:00 15.26 C 8.23 g/m*3 15.26 C 0 km/h
109 16-09-2010 12:00:00 17.02 C 7.68 g/m*3 17.02 C 0 km/h
110 16-09-2010 13:00:00 17.32 C 7.17 g/m*3 17.32 C 0 km/h
111 16-09-2010 14:00:00 15.28 C 8.71 g/m*3 15.28 C 0 km/h
112 16-09-2010 15:00:00 17.22 C 9.15 g/m*3 17.22 C 0 km/h
113 16-09-2010 16:00:00 16.36 C 8.49 g/m*3 16.36 C 0 km/h
114 16-09-2010 17:00:00 15.3 C 9.51 g/m*3 15.3 C 0 km/h
115 16-09-2010 18:00:00 14.9 C 8.95 g/m*3 14.9 C 0 km/h
116 16-09-2010 19:00:00 13.42 C 9.68 g/m*3 13.42 C 0 km/h
117 16-09-2010 20:00:00 12.84 C 10.02 g/m*3 12.84 C 0 km/h
118 16-09-2010 21:00:00 12.62 C 10.08 g/m*3 12.62 C 0 km/h
119 16-09-2010 22:00:00 12.2 C 9.58 g/m*3 12.2 C 0 km/h
120 16-09-2010 23:00:00 12.1 C 9.29 g/m*3 12.1 C 0 km/h
121 17-09-2010 00:00:00 12.16 C 9.24 g/m*3 12.16 C 0 km/h
122 17-09-2010 01:00:00 12.06 C 9.26 g/m*3 12.06 C 0 km/h
123 17-09-2010 02:00:00 11.96 C 9.29 g/m*3 11.96 C 0 km/h
124 17-09-2010 03:00:00 12.06 C 8.94 g/m*3 12.06 C 0 km/h
125 17-09-2010 04:00:00 11.94 C 8.73 g/m*3 11.94 C 0 km/h
Sensor: Nr:Datum:Temp:Abs-Feuchte:Windchill:Wind:
Aussen-T/F 126 17-09-2010 05:00:00 11.2 C 8.23 g/m*3 11.2 C 0 km/h
127 17-09-2010 06:00:00 10.6 C 8.59 g/m*3 10.6 C 0 km/h
128 17-09-2010 07:00:00 10.02 C 8.15 g/m*3 10.02 C 0 km/h
129 17-09-2010 08:00:00 10.22 C 7.66 g/m*3 10.22 C 0 km/h
130 17-09-2010 09:00:00 10.86 C 7.28 g/m*3 10.86 C 0 km/h
131 17-09-2010 10:00:00 12.06 C 7.55 g/m*3 12.06 C 0 km/h
132 17-09-2010 11:00:00 13.72 C 7.56 g/m*3 13.72 C 0 km/h
133 17-09-2010 12:00:00 15.7 C 6.58 g/m*3 15.7 C 0 km/h
134 17-09-2010 13:00:00 16.66 C 5.9 g/m*3 16.66 C 0 km/h
135 17-09-2010 14:00:00 17.62 C 5.29 g/m*3 17.62 C 0 km/h
136 17-09-2010 15:00:00 17.48 C 5.06 g/m*3 17.48 C 0 km/h
137 17-09-2010 16:00:00 19.06 C 4.94 g/m*3 19.06 C 0 km/h
138 17-09-2010 17:00:00 19.46 C 4.45 g/m*3 19.46 C 0 km/h
139 17-09-2010 18:00:00 16.66 C 6.1 g/m*3 16.66 C 0 km/h
140 17-09-2010 19:00:00 15.24 C 6.69 g/m*3 15.24 C 0 km/h
141 17-09-2010 20:00:00 14.26 C 7.06 g/m*3 14.26 C 0 km/h
142 17-09-2010 21:00:00 13.48 C 7.15 g/m*3 13.48 C 0 km/h
143 17-09-2010 22:00:00 13.34 C 6.72 g/m*3 13.34 C 0 km/h
144 17-09-2010 23:00:00 12.58 C 6.81 g/m*3 12.58 C 0 km/h
145 18-09-2010 00:00:00 12.12 C 6.94 g/m*3 12.12 C 0 km/h
146 18-09-2010 01:00:00 10.9 C 7 g/m*3 10.9 C 0 km/h
147 18-09-2010 02:00:00 10 C 7.2 g/m*3 10 C 0 km/h
148 18-09-2010 03:00:00 9.38 C 7.3 g/m*3 9.38 C 0 km/h
149 18-09-2010 04:00:00 8.54 C 7.19 g/m*3 8.54 C 0 km/h
150 18-09-2010 05:00:00 7.94 C 7.18 g/m*3 7.94 C 0 km/h
Sensor: Nr:Datum:Temp:Abs-Feuchte:Windchill:Wind:
Aussen-T/F 151 18-09-2010 06:00:00 7.62 C 7.36 g/m*3 7.62 C 0 km/h
152 18-09-2010 07:00:00 7.5 C 7.3 g/m*3 7.5 C 0 km/h
153 18-09-2010 08:00:00 7.46 C 7.23 g/m*3 7.46 C 0 km/h
154 18-09-2010 09:00:00 8.12 C 7.55 g/m*3 8.12 C 0 km/h
155 18-09-2010 10:00:00 10.2 C 8.18 g/m*3 10.2 C 0 km/h
156 18-09-2010 11:00:00 13.46 C 6.65 g/m*3 13.46 C 0 km/h
157 18-09-2010 12:00:00 15.14 C 5.92 g/m*3 15.14 C 0 km/h
158 18-09-2010 13:00:00 15.6 C 5.43 g/m*3 15.6 C 0 km/h
159 18-09-2010 14:00:00 15.26 C 4.77 g/m*3 15.26 C 0 km/h
160 18-09-2010 15:00:00 16.3 C 4.58 g/m*3 16.3 C 0 km/h
161 18-09-2010 16:00:00 16.22 C 4.86 g/m*3 16.22 C 0 km/h
162 18-09-2010 17:00:00 15.86 C 5.73 g/m*3 15.86 C 0 km/h
163 18-09-2010 18:00:00 15.66 C 6.06 g/m*3 15.66 C 0 km/h
164 18-09-2010 19:00:00 13.26 C 6.08 g/m*3 13.26 C 0 km/h
165 18-09-2010 20:00:00 11.08 C 6.6 g/m*3 11.08 C 0 km/h
166 18-09-2010 21:00:00 10.02 C 6.62 g/m*3 10.02 C 0 km/h
167 18-09-2010 22:00:00 8.98 C 6.69 g/m*3 8.98 C 0 km/h
168 18-09-2010 23:00:00 8.2 C 6.77 g/m*3 8.2 C 0 km/h
169 19-09-2010 00:00:00 7.56 C 6.72 g/m*3 7.56 C 0 km/h
170 19-09-2010 01:00:00 6.92 C 6.54 g/m*3 6.92 C 0 km/h
171 19-09-2010 02:00:00 6.44 C 6.53 g/m*3 6.44 C 0 km/h
172 19-09-2010 03:00:00 6.42 C 6.57 g/m*3 6.42 C 0 km/h
173 19-09-2010 04:00:00 6.2 C 6.5 g/m*3 6.2 C 0 km/h
174 19-09-2010 05:00:00 6.04 C 6.42 g/m*3 6.04 C 0 km/h
175 19-09-2010 06:00:00 5.76 C 6.33 g/m*3 5.76 C 0 km/h
Sensor: Nr:Datum:Temp:Abs-Feuchte:Windchill:Wind:
Aussen-T/F 176 19-09-2010 07:00:00 6 C 6.46 g/m*3 6 C 0 km/h
177 19-09-2010 08:00:00 6.96 C 6.79 g/m*3 6.96 C 0 km/h
178 19-09-2010 09:00:00 8.12 C 6.98 g/m*3 8.12 C 0 km/h
179 19-09-2010 10:00:00 10.72 C 6.69 g/m*3 10.72 C 0 km/h
180 19-09-2010 11:00:00 12.92 C 6.27 g/m*3 12.92 C 0 km/h
181 19-09-2010 12:00:00 14.94 C 5.67 g/m*3 14.94 C 0 km/h
182 19-09-2010 13:00:00 16.12 C 5.54 g/m*3 16.12 C 0 km/h
183 19-09-2010 14:00:00 17.38 C 5.68 g/m*3 17.38 C 0 km/h
184 19-09-2010 15:00:00 18.62 C 5.45 g/m*3 18.62 C 0 km/h
185 19-09-2010 16:00:00 19.04 C 5.29 g/m*3 19.04 C 0 km/h
186 19-09-2010 17:00:00 18.78 C 5.69 g/m*3 18.78 C 0 km/h
187 19-09-2010 18:00:00 17.08 C 5.99 g/m*3 17.08 C 0 km/h
188 19-09-2010 19:00:00 15.78 C 5.97 g/m*3 15.78 C 0 km/h
189 19-09-2010 20:00:00 14.46 C 6.3 g/m*3 14.46 C 0 km/h
190 19-09-2010 21:00:00 13.96 C 6.62 g/m*3 13.96 C 0 km/h
191 19-09-2010 22:00:00 13.32 C 6.78 g/m*3 13.32 C 0 km/h
192 19-09-2010 23:00:00 12.28 C 6.77 g/m*3 12.28 C 0 km/h
193 20-09-2010 00:00:00 11.68 C 6.87 g/m*3 11.68 C 0 km/h
194 20-09-2010 01:00:00 10.44 C 6.78 g/m*3 10.44 C 0 km/h
195 20-09-2010 02:00:00 9.84 C 6.88 g/m*3 9.84 C 0 km/h
196 20-09-2010 03:00:00 9.64 C 7.02 g/m*3 9.64 C 0 km/h
197 20-09-2010 04:00:00 8.98 C 6.89 g/m*3 8.98 C 0 km/h
198 20-09-2010 05:00:00 8.32 C 6.89 g/m*3 8.32 C 0 km/h
199 20-09-2010 06:00:00 8.48 C 7.03 g/m*3 8.48 C 0 km/h
200 20-09-2010 07:00:00 8.52 C 7.1 g/m*3 8.52 C 0 km/h
Sensor: Nr:Datum:Temp:Abs-Feuchte:Windchill:Wind:
Aussen-T/F 201 20-09-2010 08:00:00 9.18 C 6.87 g/m*3 9.18 C 0 km/h
202 20-09-2010 09:00:00 9.84 C 6.92 g/m*3 9.84 C 0 km/h
203 20-09-2010 10:00:00 12.4 C 7.21 g/m*3 12.4 C 0 km/h
204 20-09-2010 11:00:00 14.62 C 6.99 g/m*3 14.62 C 0 km/h
205 20-09-2010 12:00:00 16.26 C 6.34 g/m*3 16.26 C 0 km/h
206 20-09-2010 13:00:00 18.02 C 6.12 g/m*3 18.02 C 0 km/h
207 20-09-2010 14:00:00 20.02 C 5.81 g/m*3 20.02 C 0 km/h
208 20-09-2010 15:00:00 21.42 C 5.86 g/m*3 21.42 C 0 km/h
209 20-09-2010 16:00:00 22.46 C 6.22 g/m*3 22.46 C 0 km/h
210 20-09-2010 17:00:00 22.28 C 6.11 g/m*3 22.28 C 0 km/h
211 20-09-2010 18:00:00 21.3 C 6.67 g/m*3 21.3 C 0 km/h
212 20-09-2010 19:00:00 17.5 C 7.19 g/m*3 17.5 C 0 km/h
213 20-09-2010 20:00:00 15.34 C 7.54 g/m*3 15.34 C 0 km/h
214 20-09-2010 21:00:00 14.2 C 7.72 g/m*3 14.2 C 0 km/h
215 20-09-2010 22:00:00 13.22 C 8.07 g/m*3 13.22 C 0 km/h
216 20-09-2010 23:00:00 12.28 C 8.05 g/m*3 12.28 C 0 km/h
217 21-09-2010 00:00:00 11.52 C 7.88 g/m*3 11.52 C 0 km/h
218 21-09-2010 01:00:00 10.9 C 7.8 g/m*3 10.9 C 0 km/h
219 21-09-2010 02:00:00 10.24 C 7.69 g/m*3 10.24 C 0 km/h
220 21-09-2010 03:00:00 9.74 C 7.71 g/m*3 9.74 C 0 km/h
221 21-09-2010 04:00:00 9.22 C 7.51 g/m*3 9.22 C 0 km/h
222 21-09-2010 05:00:00 8.78 C 7.46 g/m*3 8.78 C 0 km/h
223 21-09-2010 06:00:00 8.34 C 7.37 g/m*3 8.34 C 0 km/h
224 21-09-2010 07:00:00 8.14 C 7.34 g/m*3 8.14 C 0 km/h
225 21-09-2010 08:00:00 8.26 C 7.53 g/m*3 8.26 C 0 km/h
Sensor: Nr:Datum:Temp:Abs-Feuchte:Windchill:Wind:
Aussen-T/F 226 21-09-2010 09:00:00 9.18 C 7.97 g/m*3 9.18 C 0 km/h
227 21-09-2010 10:00:00 11.12 C 8.71 g/m*3 11.12 C 0 km/h
228 21-09-2010 11:00:00 14.12 C 8.65 g/m*3 14.12 C 0 km/h
229 21-09-2010 12:00:00 16.14 C 8.99 g/m*3 16.14 C 0 km/h
230 21-09-2010 13:00:00 17.02 C 9.65 g/m*3 17.02 C 0 km/h
231 21-09-2010 14:00:00 17.82 C 9.48 g/m*3 17.82 C 0 km/h
232 21-09-2010 15:00:00 23.12 C 8.2 g/m*3 23.12 C 0 km/h
233 21-09-2010 16:00:00 25.16 C 7.62 g/m*3 25.16 C 0 km/h
234 21-09-2010 17:00:00 24.6 C 7.56 g/m*3 24.6 C 0 km/h
235 21-09-2010 18:00:00 22.18 C 7.88 g/m*3 22.18 C 0 km/h
236 21-09-2010 19:00:00 18.64 C 8.36 g/m*3 18.64 C 0 km/h
237 21-09-2010 20:00:00 16.3 C 8.52 g/m*3 16.3 C 0 km/h
238 21-09-2010 21:00:00 15.06 C 8.49 g/m*3 15.06 C 0 km/h
239 21-09-2010 22:00:00 13.9 C 8.51 g/m*3 13.9 C 0 km/h
240 21-09-2010 23:00:00 12.98 C 8.54 g/m*3 12.98 C 0 km/h
241 22-09-2010 00:00:00 12.2 C 8.55 g/m*3 12.2 C 0 km/h
242 22-09-2010 01:00:00 11.5 C 8.41 g/m*3 11.5 C 0 km/h
243 22-09-2010 02:00:00 10.78 C 8.15 g/m*3 10.78 C 0 km/h
244 22-09-2010 03:00:00 10.22 C 8 g/m*3 10.22 C 0 km/h
245 22-09-2010 04:00:00 9.72 C 7.94 g/m*3 9.72 C 0 km/h
246 22-09-2010 05:00:00 9.84 C 8.15 g/m*3 9.84 C 0 km/h
247 22-09-2010 06:00:00 9.78 C 8.15 g/m*3 9.78 C 0 km/h
248 22-09-2010 07:00:00 9.56 C 8.04 g/m*3 9.56 C 0 km/h
249 22-09-2010 08:00:00 9.36 C 7.96 g/m*3 9.36 C 0 km/h
250 22-09-2010 09:00:00 10.18 C 8.15 g/m*3 10.18 C 0 km/h
Sensor: Nr:Datum:Temp:Abs-Feuchte:Windchill:Wind:
Aussen-T/F 251 22-09-2010 10:00:00 12.42 C 8.64 g/m*3 12.42 C 0 km/h
252 22-09-2010 11:00:00 13.78 C 9.19 g/m*3 13.78 C 0 km/h
253 22-09-2010 12:00:00 16.54 C 9.97 g/m*3 16.54 C 0 km/h
254 22-09-2010 13:00:00 19.76 C 10.09 g/m*3 19.76 C 0 km/h
255 22-09-2010 14:00:00 22.86 C 10.07 g/m*3 22.86 C 0 km/h
256 22-09-2010 15:00:00 25.06 C 9.29 g/m*3 25.06 C 0 km/h
257 22-09-2010 16:00:00 27.32 C 8.59 g/m*3 27.32 C 0 km/h
258 22-09-2010 17:00:00 27.06 C 8.16 g/m*3 27.06 C 0 km/h
259 22-09-2010 18:00:00 24.88 C 9.1 g/m*3 24.88 C 0 km/h
260 22-09-2010 19:00:00 20.88 C 9.2 g/m*3 20.88 C 0 km/h
261 22-09-2010 20:00:00 18.54 C 9.1 g/m*3 18.54 C 0 km/h
262 22-09-2010 21:00:00 17.46 C 9.31 g/m*3 17.46 C 0 km/h
263 22-09-2010 22:00:00 16.18 C 9.26 g/m*3 16.18 C 0 km/h
264 22-09-2010 23:00:00 14.92 C 8.78 g/m*3 14.92 C 0 km/h
265 23-09-2010 00:00:00 14.02 C 8.65 g/m*3 14.02 C 0 km/h
266 23-09-2010 01:00:00 13.22 C 8.71 g/m*3 13.22 C 0 km/h
267 23-09-2010 02:00:00 12.44 C 8.7 g/m*3 12.44 C 0 km/h
268 23-09-2010 03:00:00 11.8 C 8.57 g/m*3 11.8 C 0 km/h
269 23-09-2010 04:00:00 11.16 C 8.39 g/m*3 11.16 C 0 km/h
270 23-09-2010 05:00:00 10.64 C 8.22 g/m*3 10.64 C 0 km/h
271 23-09-2010 06:00:00 10.46 C 8.2 g/m*3 10.46 C 0 km/h
272 23-09-2010 07:00:00 10.52 C 8.25 g/m*3 10.52 C 0 km/h
273 23-09-2010 08:00:00 10.88 C 8.42 g/m*3 10.88 C 0 km/h
274 23-09-2010 09:00:00 11.64 C 8.65 g/m*3 11.64 C 0 km/h
275 23-09-2010 10:00:00 12.98 C 9.24 g/m*3 12.98 C 0 km/h
Sensor: Nr:Datum:Temp:Abs-Feuchte:Windchill:Wind:
Aussen-T/F 276 23-09-2010 11:00:00 15.64 C 10.08 g/m*3 15.64 C 0 km/h
277 23-09-2010 12:00:00 18.66 C 10.61 g/m*3 18.66 C 0 km/h
278 23-09-2010 13:00:00 22.3 C 10.7 g/m*3 22.3 C 0 km/h
279 23-09-2010 14:00:00 24.06 C 10.22 g/m*3 24.06 C 0 km/h
280 23-09-2010 15:00:00 25.04 C 9.37 g/m*3 25.04 C 0 km/h
281 23-09-2010 16:00:00 25.14 C 9.88 g/m*3 25.14 C 0 km/h
282 23-09-2010 17:00:00 23.48 C 10.73 g/m*3 23.48 C 0 km/h
283 23-09-2010 18:00:00 22.12 C 10.63 g/m*3 22.12 C 0 km/h
284 23-09-2010 19:00:00 19.9 C 11.06 g/m*3 19.9 C 0 km/h
285 23-09-2010 20:00:00 18.5 C 11.3 g/m*3 18.5 C 0 km/h
286 23-09-2010 21:00:00 18.5 C 11.49 g/m*3 18.5 C 0 km/h
287 23-09-2010 22:00:00 17.94 C 11.82 g/m*3 17.94 C 0 km/h
288 23-09-2010 23:00:00 16.44 C 12.26 g/m*3 16.44 C 0 km/h
289 24-09-2010 00:00:00 15.7 C 12.18 g/m*3 15.7 C 0 km/h
290 24-09-2010 01:00:00 15.54 C 12.3 g/m*3 15.54 C 0 km/h
291 24-09-2010 02:00:00 15.38 C 12.15 g/m*3 15.38 C 0 km/h
292 24-09-2010 03:00:00 14.94 C 11.91 g/m*3 14.94 C 0 km/h
293 24-09-2010 04:00:00 14.78 C 11.89 g/m*3 14.78 C 0 km/h
294 24-09-2010 05:00:00 14.54 C 11.72 g/m*3 14.54 C 0 km/h
295 24-09-2010 06:00:00 14.7 C 11.83 g/m*3 14.7 C 0 km/h
296 24-09-2010 07:00:00 14.4 C 11.62 g/m*3 14.4 C 0 km/h
297 24-09-2010 08:00:00 14.58 C 11.82 g/m*3 14.58 C 0 km/h
298 24-09-2010 09:00:00 14.88 C 12.07 g/m*3 14.88 C 0 km/h
299 24-09-2010 10:00:00 14.98 C 12.06 g/m*3 14.98 C 0 km/h
300 24-09-2010 11:00:00 15.22 C 12.22 g/m*3 15.22 C 0 km/h
Sensor: Nr:Datum:Temp:Abs-Feuchte:Windchill:Wind:
Aussen-T/F 301 24-09-2010 12:00:00 15.14 C 12.18 g/m*3 15.14 C 0 km/h
302 24-09-2010 13:00:00 14.56 C 11.73 g/m*3 14.56 C 0 km/h
303 24-09-2010 14:00:00 13.54 C 11.02 g/m*3 13.54 C 0 km/h
304 24-09-2010 15:00:00 13.08 C 10.8 g/m*3 13.08 C 0 km/h
305 24-09-2010 16:00:00 13.8 C 11.32 g/m*3 13.8 C 0 km/h
306 24-09-2010 17:00:00 13.48 C 11.03 g/m*3 13.48 C 0 km/h
307 24-09-2010 18:00:00 13.26 C 10.83 g/m*3 13.26 C 0 km/h
308 24-09-2010 19:00:00 12.84 C 10.64 g/m*3 12.84 C 0 km/h
309 24-09-2010 20:00:00 12.7 C 10.58 g/m*3 12.7 C 0 km/h
310 24-09-2010 21:00:00 12.82 C 10.65 g/m*3 12.82 C 0 km/h
311 24-09-2010 22:00:00 12.7 C 10.58 g/m*3 12.7 C 0 km/h
312 24-09-2010 23:00:00 12.4 C 10.38 g/m*3 12.4 C 0 km/h
313 25-09-2010 00:00:00 12.48 C 10.43 g/m*3 12.48 C 0 km/h
314 25-09-2010 01:00:00 12.52 C 10.46 g/m*3 12.52 C 0 km/h
315 25-09-2010 02:00:00 12.6 C 10.51 g/m*3 12.6 C 0 km/h
316 25-09-2010 03:00:00 12.62 C 10.52 g/m*3 12.62 C 0 km/h
317 25-09-2010 04:00:00 12.54 C 10.47 g/m*3 12.54 C 0 km/h
318 25-09-2010 05:00:00 12.38 C 10.35 g/m*3 12.38 C 0 km/h
319 25-09-2010 06:00:00 12.06 C 10.06 g/m*3 12.06 C 0 km/h
320 25-09-2010 07:00:00 11.88 C 9.94 g/m*3 11.88 C 0 km/h
321 25-09-2010 08:00:00 11.26 C 9.5 g/m*3 11.26 C 0 km/h
322 25-09-2010 09:00:00 10.48 C 8.81 g/m*3 10.48 C 0 km/h
323 25-09-2010 10:00:00 11.04 C 8.25 g/m*3 11.04 C 0 km/h
324 25-09-2010 11:00:00 12.3 C 7.45 g/m*3 12.3 C 0 km/h
325 25-09-2010 12:00:00 12.44 C 6.9 g/m*3 12.44 C 0 km/h
Sensor: Nr:Datum:Temp:Abs-Feuchte:Windchill:Wind:
Aussen-T/F 326 25-09-2010 13:00:00 13.26 C 6.04 g/m*3 13.26 C 0 km/h
327 25-09-2010 14:00:00 14.24 C 5.36 g/m*3 14.24 C 0 km/h
328 25-09-2010 15:00:00 15.04 C 4.68 g/m*3 15.04 C 0 km/h
329 25-09-2010 16:00:00 14.72 C 4.97 g/m*3 14.72 C 0 km/h
330 25-09-2010 17:00:00 15.6 C 5.08 g/m*3 15.6 C 0 km/h
331 25-09-2010 18:00:00 14.22 C 5.06 g/m*3 14.22 C 0 km/h
332 25-09-2010 19:00:00 12.98 C 5.75 g/m*3 12.98 C 0 km/h
333 25-09-2010 20:00:00 11.7 C 5.88 g/m*3 11.7 C 0 km/h
334 25-09-2010 21:00:00 10.12 C 6.31 g/m*3 10.12 C 0 km/h
335 25-09-2010 22:00:00 10.28 C 6.68 g/m*3 10.28 C 0 km/h
336 25-09-2010 23:00:00 9.28 C 7.4 g/m*3 9.28 C 0 km/h
337 26-09-2010 00:00:00 9.44 C 7.76 g/m*3 9.44 C 0 km/h
338 26-09-2010 01:00:00 9.48 C 7.24 g/m*3 9.48 C 0 km/h
339 26-09-2010 02:00:00 9.42 C 7.05 g/m*3 9.42 C 0 km/h
340 26-09-2010 03:00:00 9.2 C 7.07 g/m*3 9.2 C 0 km/h
341 26-09-2010 04:00:00 8.88 C 7.28 g/m*3 8.88 C 0 km/h
342 26-09-2010 05:00:00 9.02 C 7.33 g/m*3 9.02 C 0 km/h
343 26-09-2010 06:00:00 8.9 C 7.38 g/m*3 8.9 C 0 km/h
344 26-09-2010 07:00:00 8.8 C 7.45 g/m*3 8.8 C 0 km/h
345 26-09-2010 08:00:00 9.62 C 7.3 g/m*3 9.62 C 0 km/h
346 26-09-2010 09:00:00 10.26 C 7.18 g/m*3 10.26 C 0 km/h
347 26-09-2010 10:00:00 11.84 C 6.75 g/m*3 11.84 C 0 km/h
348 26-09-2010 11:00:00 13.22 C 6.44 g/m*3 13.22 C 0 km/h
349 26-09-2010 12:00:00 14.48 C 6.39 g/m*3 14.48 C 0 km/h
350 26-09-2010 13:00:00 13 C 7.58 g/m*3 13 C 0 km/h
Sensor: Nr:Datum:Temp:Abs-Feuchte:Windchill:Wind:
Aussen-T/F 351 26-09-2010 14:00:00 13.3 C 8.3 g/m*3 13.3 C 0 km/h
352 26-09-2010 15:00:00 14.18 C 8.12 g/m*3 14.18 C 0 km/h
353 26-09-2010 16:00:00 14.92 C 7.04 g/m*3 14.92 C 0 km/h
354 26-09-2010 17:00:00 15.18 C 6.61 g/m*3 15.18 C 0 km/h
355 26-09-2010 18:00:00 12.96 C 6.95 g/m*3 12.96 C 0 km/h
356 26-09-2010 19:00:00 12.24 C 7.1 g/m*3 12.24 C 0 km/h
357 26-09-2010 20:00:00 11.78 C 7.21 g/m*3 11.78 C 0 km/h
358 26-09-2010 21:00:00 11.16 C 7.12 g/m*3 11.16 C 0 km/h
359 26-09-2010 22:00:00 9.7 C 7.06 g/m*3 9.7 C 0 km/h
360 26-09-2010 23:00:00 8.84 C 7.17 g/m*3 8.84 C 0 km/h
361 27-09-2010 00:00:00 8.12 C 7.07 g/m*3 8.12 C 0 km/h
362 27-09-2010 01:00:00 7.46 C 7.04 g/m*3 7.46 C 0 km/h
363 27-09-2010 02:00:00 6.84 C 6.86 g/m*3 6.84 C 0 km/h
364 27-09-2010 03:00:00 6.46 C 6.75 g/m*3 6.46 C 0 km/h
365 27-09-2010 04:00:00 6.24 C 6.8 g/m*3 6.24 C 0 km/h
366 27-09-2010 05:00:00 6.24 C 6.83 g/m*3 6.24 C 0 km/h
367 27-09-2010 06:00:00 6.32 C 6.89 g/m*3 6.32 C 0 km/h
368 27-09-2010 07:00:00 6.74 C 7.13 g/m*3 6.74 C 0 km/h
369 27-09-2010 08:00:00 7.7 C 7.61 g/m*3 7.7 C 0 km/h
370 27-09-2010 09:00:00 9.24 C 8.2 g/m*3 9.24 C 0 km/h
371 27-09-2010 10:00:00 10.76 C 7.57 g/m*3 10.76 C 0 km/h
372 27-09-2010 11:00:00 11.98 C 6.79 g/m*3 11.98 C 0 km/h
373 27-09-2010 12:00:00 12.78 C 6.82 g/m*3 12.78 C 0 km/h
374 27-09-2010 13:00:00 13.48 C 6.73 g/m*3 13.48 C 0 km/h
375 27-09-2010 14:00:00 13.26 C 6.66 g/m*3 13.26 C 0 km/h
Sensor: Nr:Datum:Temp:Abs-Feuchte:Windchill:Wind:
Aussen-T/F 376 27-09-2010 15:00:00 13.4 C 6.65 g/m*3 13.4 C 0 km/h
377 27-09-2010 16:00:00 13.38 C 7.2 g/m*3 13.38 C 0 km/h
378 27-09-2010 17:00:00 12.9 C 7.69 g/m*3 12.9 C 0 km/h
379 27-09-2010 18:00:00 11.94 C 7.73 g/m*3 11.94 C 0 km/h
380 27-09-2010 19:00:00 10.58 C 8.13 g/m*3 10.58 C 0 km/h
381 27-09-2010 20:00:00 10.3 C 8.39 g/m*3 10.3 C 0 km/h
382 27-09-2010 21:00:00 10.34 C 8.55 g/m*3 10.34 C 0 km/h
383 27-09-2010 22:00:00 10.3 C 8.6 g/m*3 10.3 C 0 km/h
384 27-09-2010 23:00:00 10.16 C 8.64 g/m*3 10.16 C 0 km/h
385 28-09-2010 00:00:00 10 C 8.68 g/m*3 10 C 0 km/h
386 28-09-2010 01:00:00 9.98 C 8.75 g/m*3 9.98 C 0 km/h
387 28-09-2010 02:00:00 9.9 C 8.78 g/m*3 9.9 C 0 km/h
388 28-09-2010 03:00:00 9.9 C 8.87 g/m*3 9.9 C 0 km/h
389 28-09-2010 04:00:00 9.92 C 8.86 g/m*3 9.92 C 0 km/h
390 28-09-2010 05:00:00 10 C 8.93 g/m*3 10 C 0 km/h
391 28-09-2010 06:00:00 10.08 C 8.97 g/m*3 10.08 C 0 km/h
392 28-09-2010 07:00:00 10 C 8.93 g/m*3 10 C 0 km/h
393 28-09-2010 08:00:00 10.04 C 8.95 g/m*3 10.04 C 0 km/h
394 28-09-2010 09:00:00 10.24 C 9.06 g/m*3 10.24 C 0 km/h
395 28-09-2010 10:00:00 10.58 C 9.26 g/m*3 10.58 C 0 km/h
396 28-09-2010 11:00:00 11.18 C 9.62 g/m*3 11.18 C 0 km/h
397 28-09-2010 12:00:00 11.48 C 9.72 g/m*3 11.48 C 0 km/h
398 28-09-2010 13:00:00 11.74 C 9.71 g/m*3 11.74 C 0 km/h
399 28-09-2010 14:00:00 11.76 C 9.66 g/m*3 11.76 C 0 km/h
400 28-09-2010 15:00:00 11.74 C 9.73 g/m*3 11.74 C 0 km/h
Sensor: Nr:Datum:Temp:Abs-Feuchte:Windchill:Wind:
Aussen-T/F 401 28-09-2010 16:00:00 11.84 C 9.85 g/m*3 11.84 C 0 km/h
402 28-09-2010 17:00:00 11.98 C 10.01 g/m*3 11.98 C 0 km/h
403 28-09-2010 18:00:00 11.86 C 9.99 g/m*3 11.86 C 0 km/h
404 28-09-2010 19:00:00 11.72 C 9.95 g/m*3 11.72 C 0 km/h
405 28-09-2010 20:00:00 11.6 C 9.87 g/m*3 11.6 C 0 km/h
406 28-09-2010 21:00:00 11.58 C 9.86 g/m*3 11.58 C 0 km/h
407 28-09-2010 22:00:00 11.62 C 9.89 g/m*3 11.62 C 0 km/h
408 28-09-2010 23:00:00 11.6 C 9.87 g/m*3 11.6 C 0 km/h
409 29-09-2010 00:00:00 11.64 C 9.9 g/m*3 11.64 C 0 km/h
410 29-09-2010 01:00:00 11.62 C 9.89 g/m*3 11.62 C 0 km/h
411 29-09-2010 02:00:00 11.56 C 9.85 g/m*3 11.56 C 0 km/h
412 29-09-2010 03:00:00 11.48 C 9.8 g/m*3 11.48 C 0 km/h
413 29-09-2010 04:00:00 11.48 C 9.8 g/m*3 11.48 C 0 km/h
414 29-09-2010 05:00:00 11.4 C 9.75 g/m*3 11.4 C 0 km/h
415 29-09-2010 06:00:00 11.52 C 9.82 g/m*3 11.52 C 0 km/h
416 29-09-2010 07:00:00 11.04 C 9.53 g/m*3 11.04 C 0 km/h
417 29-09-2010 08:00:00 11.18 C 9.62 g/m*3 11.18 C 0 km/h
418 29-09-2010 09:00:00 11.44 C 9.57 g/m*3 11.44 C 0 km/h
419 29-09-2010 10:00:00 12.92 C 8.98 g/m*3 12.92 C 0 km/h
420 29-09-2010 11:00:00 13.96 C 8.42 g/m*3 13.96 C 0 km/h
421 29-09-2010 12:00:00 14.4 C 8.03 g/m*3 14.4 C 0 km/h
422 29-09-2010 13:00:00 15.74 C 7.89 g/m*3 15.74 C 0 km/h
423 29-09-2010 14:00:00 16.82 C 7.64 g/m*3 16.82 C 0 km/h
424 29-09-2010 15:00:00 19.16 C 6.88 g/m*3 19.16 C 0 km/h
425 29-09-2010 16:00:00 18.14 C 7.62 g/m*3 18.14 C 0 km/h
Sensor: Nr:Datum:Temp:Abs-Feuchte:Windchill:Wind:
Aussen-T/F 426 29-09-2010 17:00:00 18.3 C 7.54 g/m*3 18.3 C 0 km/h
427 29-09-2010 18:00:00 14.62 C 7.84 g/m*3 14.62 C 0 km/h
428 29-09-2010 19:00:00 13.08 C 7.68 g/m*3 13.08 C 0 km/h
429 29-09-2010 20:00:00 13.12 C 7.7 g/m*3 13.12 C 0 km/h
430 29-09-2010 21:00:00 12.5 C 7.94 g/m*3 12.5 C 0 km/h
431 29-09-2010 22:00:00 12.38 C 8.36 g/m*3 12.38 C 0 km/h
432 29-09-2010 23:00:00 11.96 C 8.33 g/m*3 11.96 C 0 km/h
433 30-09-2010 00:00:00 12.16 C 8.44 g/m*3 12.16 C 0 km/h
434 30-09-2010 01:00:00 11.86 C 7.75 g/m*3 11.86 C 0 km/h
435 30-09-2010 02:00:00 11.46 C 7.62 g/m*3 11.46 C 0 km/h
436 30-09-2010 03:00:00 11.16 C 7.87 g/m*3 11.16 C 0 km/h
437 30-09-2010 04:00:00 11.02 C 7.88 g/m*3 11.02 C 0 km/h
438 30-09-2010 05:00:00 10.76 C 7.79 g/m*3 10.76 C 0 km/h
439 30-09-2010 06:00:00 10.7 C 7.33 g/m*3 10.7 C 0 km/h
440 30-09-2010 07:00:00 10.66 C 7.66 g/m*3 10.66 C 0 km/h
441 30-09-2010 08:00:00 10.9 C 7.76 g/m*3 10.9 C 0 km/h
442 30-09-2010 09:00:00 11.4 C 7.86 g/m*3 11.4 C 0 km/h
443 30-09-2010 10:00:00 11.64 C 8.27 g/m*3 11.64 C 0 km/h
444 30-09-2010 11:00:00 11.86 C 8.47 g/m*3 11.86 C 0 km/h
445 30-09-2010 12:00:00 11.98 C 8.94 g/m*3 11.98 C 0 km/h
446 30-09-2010 13:00:00 12.58 C 9.55 g/m*3 12.58 C 0 km/h
447 30-09-2010 14:00:00 12.94 C 9.9 g/m*3 12.94 C 0 km/h
448 30-09-2010 15:00:00 13.26 C 10.12 g/m*3 13.26 C 0 km/h
449 30-09-2010 16:00:00 13.4 C 10.16 g/m*3 13.4 C 0 km/h
450 30-09-2010 17:00:00 12.96 C 9.98 g/m*3 12.96 C 0 km/h
Sensor: Nr:Datum:Temp:Abs-Feuchte:Windchill:Wind:
Aussen-T/F 451 30-09-2010 18:00:00 12.48 C 9.82 g/m*3 12.48 C 0 km/h
452 30-09-2010 19:00:00 12.14 C 9.78 g/m*3 12.14 C 0 km/h
453 30-09-2010 20:00:00 12.16 C 9.92 g/m*3 12.16 C 0 km/h
454 30-09-2010 21:00:00 12.08 C 9.96 g/m*3 12.08 C 0 km/h
455 30-09-2010 22:00:00 11.96 C 9.93 g/m*3 11.96 C 0 km/h
456 30-09-2010 23:00:00 12 C 10 g/m*3 12 C 0 km/h
457 01-10-2010 00:00:00 12.02 C 10.05 g/m*3 12.02 C 0 km/h
458 01-10-2010 01:00:00 11.58 C 9.86 g/m*3 11.58 C 0 km/h
459 01-10-2010 02:00:00 11.44 C 9.78 g/m*3 11.44 C 0 km/h
460 01-10-2010 03:00:00 11.56 C 9.85 g/m*3 11.56 C 0 km/h
461 01-10-2010 04:00:00 11.7 C 9.94 g/m*3 11.7 C 0 km/h
462 01-10-2010 05:00:00 11.62 C 9.89 g/m*3 11.62 C 0 km/h
463 01-10-2010 06:00:00 11.4 C 9.75 g/m*3 11.4 C 0 km/h
464 01-10-2010 07:00:00 11 C 9.51 g/m*3 11 C 0 km/h
465 01-10-2010 08:00:00 10.3 C 9.1 g/m*3 10.3 C 0 km/h
466 01-10-2010 09:00:00 11.24 C 9.65 g/m*3 11.24 C 0 km/h
467 01-10-2010 10:00:00 11.72 C 9.63 g/m*3 11.72 C 0 km/h
468 01-10-2010 11:00:00 12.46 C 8.84 g/m*3 12.46 C 0 km/h
469 01-10-2010 12:00:00 12.68 C 8.49 g/m*3 12.68 C 0 km/h
470 01-10-2010 13:00:00 13.18 C 8.12 g/m*3 13.18 C 0 km/h
471 01-10-2010 14:00:00 13.32 C 7.94 g/m*3 13.32 C 0 km/h
472 01-10-2010 15:00:00 15.3 C 7.78 g/m*3 15.3 C 0 km/h
473 01-10-2010 16:00:00 16.74 C 7.61 g/m*3 16.74 C 0 km/h
474 01-10-2010 17:00:00 16.14 C 8.35 g/m*3 16.14 C 0 km/h
475 01-10-2010 18:00:00 14.34 C 8.79 g/m*3 14.34 C 0 km/h
Sensor: Nr:Datum:Temp:Abs-Feuchte:Windchill:Wind:
Aussen-T/F 476 01-10-2010 19:00:00 12.18 C 8.56 g/m*3 12.18 C 0 km/h
477 01-10-2010 20:00:00 11.26 C 8.51 g/m*3 11.26 C 0 km/h
478 01-10-2010 21:00:00 10.86 C 8.53 g/m*3 10.86 C 0 km/h
479 01-10-2010 22:00:00 10.98 C 8.76 g/m*3 10.98 C 0 km/h
480 01-10-2010 23:00:00 11.06 C 8.74 g/m*3 11.06 C 0 km/h
481 02-10-2010 00:00:00 11.12 C 8.71 g/m*3 11.12 C 0 km/h
482 02-10-2010 01:00:00 10.92 C 8.74 g/m*3 10.92 C 0 km/h
483 02-10-2010 02:00:00 10.96 C 8.97 g/m*3 10.96 C 0 km/h
484 02-10-2010 03:00:00 11.1 C 9.15 g/m*3 11.1 C 0 km/h
485 02-10-2010 04:00:00 11.08 C 9.26 g/m*3 11.08 C 0 km/h
486 02-10-2010 05:00:00 10.98 C 9.3 g/m*3 10.98 C 0 km/h
487 02-10-2010 06:00:00 11 C 9.39 g/m*3 11 C 0 km/h
488 02-10-2010 07:00:00 11.14 C 9.55 g/m*3 11.14 C 0 km/h
489 02-10-2010 08:00:00 11.46 C 9.79 g/m*3 11.46 C 0 km/h
490 02-10-2010 09:00:00 12 C 10.12 g/m*3 12 C 0 km/h
491 02-10-2010 10:00:00 13.14 C 10.75 g/m*3 13.14 C 0 km/h
492 02-10-2010 11:00:00 14.32 C 11.27 g/m*3 14.32 C 0 km/h
493 02-10-2010 12:00:00 15.04 C 11.52 g/m*3 15.04 C 0 km/h
494 02-10-2010 13:00:00 15.74 C 11.53 g/m*3 15.74 C 0 km/h
495 02-10-2010 14:00:00 15.64 C 11.41 g/m*3 15.64 C 0 km/h
496 02-10-2010 15:00:00 16 C 11.47 g/m*3 16 C 0 km/h
497 02-10-2010 16:00:00 16.24 C 11.09 g/m*3 16.24 C 0 km/h
498 02-10-2010 17:00:00 16.28 C 10.92 g/m*3 16.28 C 0 km/h
499 02-10-2010 18:00:00 15.42 C 10.92 g/m*3 15.42 C 0 km/h
500 02-10-2010 19:00:00 14.94 C 10.94 g/m*3 14.94 C 0 km/h
Sensor: Nr:Datum:Temp:Abs-Feuchte:Windchill:Wind:
Aussen-T/F 501 02-10-2010 20:00:00 14.8 C 11.1 g/m*3 14.8 C 0 km/h
502 02-10-2010 21:00:00 14.5 C 11.02 g/m*3 14.5 C 0 km/h
503 02-10-2010 22:00:00 14.48 C 11.16 g/m*3 14.48 C 0 km/h
504 02-10-2010 23:00:00 14.56 C 11.13 g/m*3 14.56 C 0 km/h
505 03-10-2010 00:00:00 14.44 C 11.08 g/m*3 14.44 C 0 km/h
506 03-10-2010 01:00:00 14.7 C 10.7 g/m*3 14.7 C 0 km/h
507 03-10-2010 02:00:00 14.58 C 10.32 g/m*3 14.58 C 0 km/h
508 03-10-2010 03:00:00 13.92 C 10.59 g/m*3 13.92 C 0 km/h
509 03-10-2010 04:00:00 14.08 C 10.62 g/m*3 14.08 C 0 km/h
510 03-10-2010 05:00:00 14.26 C 10.34 g/m*3 14.26 C 0 km/h
511 03-10-2010 06:00:00 13.46 C 10.24 g/m*3 13.46 C 0 km/h
512 03-10-2010 07:00:00 13.42 C 10.43 g/m*3 13.42 C 0 km/h
513 03-10-2010 08:00:00 13.98 C 10.41 g/m*3 13.98 C 0 km/h
514 03-10-2010 09:00:00 15.12 C 10.08 g/m*3 15.12 C 0 km/h
515 03-10-2010 10:00:00 16.78 C 9.91 g/m*3 16.78 C 0 km/h
516 03-10-2010 11:00:00 18.14 C 10.13 g/m*3 18.14 C 0 km/h
517 03-10-2010 12:00:00 19.68 C 9.74 g/m*3 19.68 C 0 km/h
518 03-10-2010 13:00:00 21.36 C 9.43 g/m*3 21.36 C 0 km/h
519 03-10-2010 14:00:00 23.34 C 9.09 g/m*3 23.34 C 0 km/h
520 03-10-2010 15:00:00 24.72 C 8.61 g/m*3 24.72 C 0 km/h
521 03-10-2010 16:00:00 25.12 C 8.67 g/m*3 25.12 C 0 km/h
522 03-10-2010 17:00:00 25.22 C 9.37 g/m*3 25.22 C 0 km/h
523 03-10-2010 18:00:00 21.54 C 10.55 g/m*3 21.54 C 0 km/h
524 03-10-2010 19:00:00 18.78 C 10.84 g/m*3 18.78 C 0 km/h
525 03-10-2010 20:00:00 18.34 C 10.88 g/m*3 18.34 C 0 km/h
Sensor: Nr:Datum:Temp:Abs-Feuchte:Windchill:Wind:
Aussen-T/F 526 03-10-2010 21:00:00 17.96 C 11.03 g/m*3 17.96 C 0 km/h
527 03-10-2010 22:00:00 17.56 C 10.86 g/m*3 17.56 C 0 km/h
528 03-10-2010 23:00:00 17.56 C 10.32 g/m*3 17.56 C 0 km/h
529 04-10-2010 00:00:00 17.28 C 9.86 g/m*3 17.28 C 0 km/h
530 04-10-2010 01:00:00 17.18 C 9.59 g/m*3 17.18 C 0 km/h
531 04-10-2010 02:00:00 16.82 C 9.65 g/m*3 16.82 C 0 km/h
532 04-10-2010 03:00:00 15.76 C 9.96 g/m*3 15.76 C 0 km/h
533 04-10-2010 04:00:00 15.1 C 9.99 g/m*3 15.1 C 0 km/h
534 04-10-2010 05:00:00 14.3 C 9.95 g/m*3 14.3 C 0 km/h
535 04-10-2010 06:00:00 13.92 C 9.94 g/m*3 13.92 C 0 km/h
536 04-10-2010 07:00:00 13.62 C 9.83 g/m*3 13.62 C 0 km/h
537 04-10-2010 08:00:00 14.26 C 9.8 g/m*3 14.26 C 0 km/h
538 04-10-2010 09:00:00 15 C 9.23 g/m*3 15 C 0 km/h
539 04-10-2010 10:00:00 15.66 C 8.97 g/m*3 15.66 C 0 km/h
540 04-10-2010 11:00:00 17.62 C 8.92 g/m*3 17.62 C 0 km/h
541 04-10-2010 12:00:00 17.84 C 8.76 g/m*3 17.84 C 0 km/h
542 04-10-2010 13:00:00 18.72 C 8.62 g/m*3 18.72 C 0 km/h
543 04-10-2010 14:00:00 19.76 C 8.72 g/m*3 19.76 C 0 km/h
544 04-10-2010 15:00:00 22.5 C 8.63 g/m*3 22.5 C 0 km/h
545 04-10-2010 16:00:00 23.64 C 8.23 g/m*3 23.64 C 0 km/h
546 04-10-2010 17:00:00 21.14 C 9.16 g/m*3 21.14 C 0 km/h
547 04-10-2010 18:00:00 18.68 C 9.66 g/m*3 18.68 C 0 km/h
548 04-10-2010 19:00:00 16.52 C 10.09 g/m*3 16.52 C 0 km/h
549 04-10-2010 20:00:00 16.22 C 10.02 g/m*3 16.22 C 0 km/h
550 04-10-2010 21:00:00 15.42 C 9.94 g/m*3 15.42 C 0 km/h
Sensor: Nr:Datum:Temp:Abs-Feuchte:Windchill:Wind:
Aussen-T/F 551 04-10-2010 22:00:00 14.56 C 9.91 g/m*3 14.56 C 0 km/h
552 04-10-2010 23:00:00 14.2 C 9.92 g/m*3 14.2 C 0 km/h
553 05-10-2010 00:00:00 14.2 C 10.01 g/m*3 14.2 C 0 km/h
554 05-10-2010 01:00:00 13.94 C 9.9 g/m*3 13.94 C 0 km/h
555 05-10-2010 02:00:00 13.52 C 9.84 g/m*3 13.52 C 0 km/h
556 05-10-2010 03:00:00 13.6 C 10 g/m*3 13.6 C 0 km/h
557 05-10-2010 04:00:00 13.6 C 10.1 g/m*3 13.6 C 0 km/h
558 05-10-2010 05:00:00 13.6 C 10.14 g/m*3 13.6 C 0 km/h
559 05-10-2010 06:00:00 13.42 C 10.38 g/m*3 13.42 C 0 km/h
560 05-10-2010 07:00:00 13.4 C 10.56 g/m*3 13.4 C 0 km/h
561 05-10-2010 08:00:00 13.14 C 10.41 g/m*3 13.14 C 0 km/h
562 05-10-2010 09:00:00 13.3 C 10.68 g/m*3 13.3 C 0 km/h
563 05-10-2010 10:00:00 14.8 C 11.81 g/m*3 14.8 C 0 km/h
564 05-10-2010 11:00:00 17.48 C 13.01 g/m*3 17.48 C 0 km/h
565 05-10-2010 12:00:00 18.1 C 11.43 g/m*3 18.1 C 0 km/h
566 05-10-2010 13:00:00 19.18 C 11.23 g/m*3 19.18 C 0 km/h
567 05-10-2010 14:00:00 19.26 C 10.95 g/m*3 19.26 C 0 km/h
568 05-10-2010 15:00:00 18.8 C 12.63 g/m*3 18.8 C 0 km/h
569 05-10-2010 16:00:00 18.5 C 12.47 g/m*3 18.5 C 0 km/h
570 05-10-2010 17:00:00 17.1 C 11.67 g/m*3 17.1 C 0 km/h
571 05-10-2010 18:00:00 17.02 C 11.44 g/m*3 17.02 C 0 km/h
572 05-10-2010 19:00:00 16.66 C 11.31 g/m*3 16.66 C 0 km/h
573 05-10-2010 20:00:00 16.36 C 10.94 g/m*3 16.36 C 0 km/h
574 05-10-2010 21:00:00 15.68 C 10.26 g/m*3 15.68 C 0 km/h
575 05-10-2010 22:00:00 15.3 C 9.98 g/m*3 15.3 C 0 km/h
Sensor: Nr:Datum:Temp:Abs-Feuchte:Windchill:Wind:
Aussen-T/F 576 05-10-2010 23:00:00 15.6 C 9.97 g/m*3 15.6 C 0 km/h
577 06-10-2010 00:00:00 15.6 C 9.97 g/m*3 15.6 C 0 km/h
578 06-10-2010 01:00:00 15.5 C 9.99 g/m*3 15.5 C 0 km/h
579 06-10-2010 02:00:00 15.44 C 10.17 g/m*3 15.44 C 0 km/h
580 06-10-2010 03:00:00 15.28 C 10.1 g/m*3 15.28 C 0 km/h
581 06-10-2010 04:00:00 15.1 C 10.09 g/m*3 15.1 C 0 km/h
582 06-10-2010 05:00:00 14.92 C 10.26 g/m*3 14.92 C 0 km/h
583 06-10-2010 06:00:00 14.82 C 10.1 g/m*3 14.82 C 0 km/h
584 06-10-2010 07:00:00 14.66 C 9.95 g/m*3 14.66 C 0 km/h
585 06-10-2010 08:00:00 14.52 C 10.19 g/m*3 14.52 C 0 km/h
586 06-10-2010 09:00:00 15.54 C 10.12 g/m*3 15.54 C 0 km/h
587 06-10-2010 10:00:00 16.24 C 9.93 g/m*3 16.24 C 0 km/h
588 06-10-2010 11:00:00 17.76 C 9.27 g/m*3 17.76 C 0 km/h
589 06-10-2010 12:00:00 19.04 C 8.69 g/m*3 19.04 C 0 km/h
590 06-10-2010 13:00:00 20.2 C 8.5 g/m*3 20.2 C 0 km/h
591 06-10-2010 14:00:00 21.62 C 8.24 g/m*3 21.62 C 0 km/h
592 06-10-2010 15:00:00 23.06 C 8.25 g/m*3 23.06 C 0 km/h
593 06-10-2010 16:00:00 22.84 C 8.96 g/m*3 22.84 C 0 km/h
594 06-10-2010 17:00:00 21.08 C 10.16 g/m*3 21.08 C 0 km/h
595 06-10-2010 18:00:00 18.94 C 10.23 g/m*3 18.94 C 0 km/h
596 06-10-2010 19:00:00 17.3 C 10.19 g/m*3 17.3 C 0 km/h
597 06-10-2010 20:00:00 16.9 C 10.13 g/m*3 16.9 C 0 km/h
598 06-10-2010 21:00:00 16.36 C 10.42 g/m*3 16.36 C 0 km/h
599 06-10-2010 22:00:00 15.74 C 10.52 g/m*3 15.74 C 0 km/h
600 06-10-2010 23:00:00 14.9 C 10.32 g/m*3 14.9 C 0 km/h
Sensor: Nr:Datum:Temp:Abs-Feuchte:Windchill:Wind:
Aussen-T/F 601 07-10-2010 00:00:00 14.22 C 10.17 g/m*3 14.22 C 0 km/h
602 07-10-2010 01:00:00 14.24 C 10.5 g/m*3 14.24 C 0 km/h
603 07-10-2010 02:00:00 14.24 C 10.43 g/m*3 14.24 C 0 km/h
604 07-10-2010 03:00:00 14.08 C 10.35 g/m*3 14.08 C 0 km/h
605 07-10-2010 04:00:00 13.82 C 10.31 g/m*3 13.82 C 0 km/h
606 07-10-2010 05:00:00 13.3 C 10.17 g/m*3 13.3 C 0 km/h
607 07-10-2010 06:00:00 13.84 C 10.51 g/m*3 13.84 C 0 km/h
608 07-10-2010 07:00:00 14.12 C 10.6 g/m*3 14.12 C 0 km/h
609 07-10-2010 08:00:00 14.66 C 10.9 g/m*3 14.66 C 0 km/h
610 07-10-2010 09:00:00 15.06 C 10.6 g/m*3 15.06 C 0 km/h
611 07-10-2010 10:00:00 16.18 C 10.33 g/m*3 16.18 C 0 km/h
612 07-10-2010 11:00:00 17.26 C 10.32 g/m*3 17.26 C 0 km/h
613 07-10-2010 12:00:00 18.4 C 9.97 g/m*3 18.4 C 0 km/h
614 07-10-2010 13:00:00 19.26 C 9.83 g/m*3 19.26 C 0 km/h
615 07-10-2010 14:00:00 19.88 C 9.78 g/m*3 19.88 C 0 km/h
616 07-10-2010 15:00:00 20.5 C 9.5 g/m*3 20.5 C 0 km/h
617 07-10-2010 16:00:00 19.94 C 9.47 g/m*3 19.94 C 0 km/h
618 07-10-2010 17:00:00 19.16 C 9.57 g/m*3 19.16 C 0 km/h
619 07-10-2010 18:00:00 17.88 C 10.22 g/m*3 17.88 C 0 km/h
620 07-10-2010 19:00:00 16.9 C 10.38 g/m*3 16.9 C 0 km/h
621 07-10-2010 20:00:00 16.3 C 10.35 g/m*3 16.3 C 0 km/h
622 07-10-2010 21:00:00 16.22 C 10.13 g/m*3 16.22 C 0 km/h
623 07-10-2010 22:00:00 16 C 9.86 g/m*3 16 C 0 km/h
624 07-10-2010 23:00:00 16.02 C 9.74 g/m*3 16.02 C 0 km/h
625 08-10-2010 00:00:00 15.82 C 9.89 g/m*3 15.82 C 0 km/h
Sensor: Nr:Datum:Temp:Abs-Feuchte:Windchill:Wind:
Aussen-T/F 626 08-10-2010 01:00:00 15.62 C 9.67 g/m*3 15.62 C 0 km/h
627 08-10-2010 02:00:00 15.44 C 9.35 g/m*3 15.44 C 0 km/h
628 08-10-2010 03:00:00 14.92 C 8.75 g/m*3 14.92 C 0 km/h
629 08-10-2010 04:00:00 14.52 C 8.57 g/m*3 14.52 C 0 km/h
630 08-10-2010 05:00:00 14.24 C 8.81 g/m*3 14.24 C 0 km/h
631 08-10-2010 06:00:00 13.98 C 8.96 g/m*3 13.98 C 0 km/h
632 08-10-2010 07:00:00 14.02 C 9.13 g/m*3 14.02 C 0 km/h
633 08-10-2010 08:00:00 14.2 C 9.23 g/m*3 14.2 C 0 km/h
634 08-10-2010 09:00:00 14.6 C 9.41 g/m*3 14.6 C 0 km/h
635 08-10-2010 10:00:00 15.28 C 9.47 g/m*3 15.28 C 0 km/h
636 08-10-2010 11:00:00 15.86 C 9.29 g/m*3 15.86 C 0 km/h
637 08-10-2010 12:00:00 16.54 C 9.09 g/m*3 16.54 C 0 km/h
638 08-10-2010 13:00:00 16.94 C 8.77 g/m*3 16.94 C 0 km/h
639 08-10-2010 14:00:00 18.76 C 8.77 g/m*3 18.76 C 0 km/h
640 08-10-2010 15:00:00 20.32 C 8.52 g/m*3 20.32 C 0 km/h
641 08-10-2010 16:00:00 22.2 C 8.95 g/m*3 22.2 C 0 km/h
642 08-10-2010 17:00:00 21.78 C 9.24 g/m*3 21.78 C 0 km/h
643 08-10-2010 18:00:00 19.06 C 9.68 g/m*3 19.06 C 0 km/h
644 08-10-2010 19:00:00 15.88 C 9.98 g/m*3 15.88 C 0 km/h
645 08-10-2010 20:00:00 14.78 C 9.79 g/m*3 14.78 C 0 km/h
646 08-10-2010 21:00:00 14.08 C 9.65 g/m*3 14.08 C 0 km/h
647 08-10-2010 22:00:00 13.28 C 9.51 g/m*3 13.28 C 0 km/h
648 08-10-2010 23:00:00 12.58 C 9.3 g/m*3 12.58 C 0 km/h
649 09-10-2010 00:00:00 11.9 C 9.11 g/m*3 11.9 C 0 km/h
650 09-10-2010 01:00:00 11.34 C 8.96 g/m*3 11.34 C 0 km/h
Sensor: Nr:Datum:Temp:Abs-Feuchte:Windchill:Wind:
Aussen-T/F 651 09-10-2010 02:00:00 10.74 C 8.68 g/m*3 10.74 C 0 km/h
652 09-10-2010 03:00:00 10.24 C 8.43 g/m*3 10.24 C 0 km/h
653 09-10-2010 04:00:00 9.78 C 8.32 g/m*3 9.78 C 0 km/h
654 09-10-2010 05:00:00 9.52 C 8.29 g/m*3 9.52 C 0 km/h
655 09-10-2010 06:00:00 9.42 C 8.31 g/m*3 9.42 C 0 km/h
656 09-10-2010 07:00:00 9.24 C 8.24 g/m*3 9.24 C 0 km/h
657 09-10-2010 08:00:00 9.2 C 8.22 g/m*3 9.2 C 0 km/h
658 09-10-2010 09:00:00 9.28 C 8.24 g/m*3 9.28 C 0 km/h
659 09-10-2010 10:00:00 10.44 C 8.87 g/m*3 10.44 C 0 km/h
660 09-10-2010 11:00:00 12.52 C 9.53 g/m*3 12.52 C 0 km/h
661 09-10-2010 12:00:00 14.68 C 8.2 g/m*3 14.68 C 0 km/h
662 09-10-2010 13:00:00 17.1 C 7.89 g/m*3 17.1 C 0 km/h
663 09-10-2010 14:00:00 19.96 C 7.03 g/m*3 19.96 C 0 km/h
664 09-10-2010 15:00:00 21.86 C 6.28 g/m*3 21.86 C 0 km/h
665 09-10-2010 16:00:00 22.16 C 6.23 g/m*3 22.16 C 0 km/h
666 09-10-2010 17:00:00 20.8 C 6.19 g/m*3 20.8 C 0 km/h
667 09-10-2010 18:00:00 17.02 C 6.26 g/m*3 17.02 C 0 km/h
668 09-10-2010 19:00:00 13.8 C 6.12 g/m*3 13.8 C 0 km/h
669 09-10-2010 20:00:00 12.84 C 6.58 g/m*3 12.84 C 0 km/h
670 09-10-2010 21:00:00 11.48 C 6.99 g/m*3 11.48 C 0 km/h
671 09-10-2010 22:00:00 10.6 C 7.03 g/m*3 10.6 C 0 km/h
672 09-10-2010 23:00:00 9.62 C 6.92 g/m*3 9.62 C 0 km/h
673 10-10-2010 00:00:00 8.94 C 6.99 g/m*3 8.94 C 0 km/h
674 10-10-2010 01:00:00 8.38 C 6.93 g/m*3 8.38 C 0 km/h
675 10-10-2010 02:00:00 7.76 C 6.82 g/m*3 7.76 C 0 km/h
Sensor: Nr:Datum:Temp:Abs-Feuchte:Windchill:Wind:
Aussen-T/F 676 10-10-2010 03:00:00 7.14 C 6.66 g/m*3 7.14 C 0 km/h
677 10-10-2010 04:00:00 6.76 C 6.61 g/m*3 6.76 C 0 km/h
678 10-10-2010 05:00:00 6.28 C 6.45 g/m*3 6.28 C 0 km/h
679 10-10-2010 06:00:00 5.86 C 6.36 g/m*3 5.86 C 0 km/h
680 10-10-2010 07:00:00 5.5 C 6.31 g/m*3 5.5 C 0 km/h
681 10-10-2010 08:00:00 6.36 C 6.69 g/m*3 6.36 C 0 km/h
682 10-10-2010 09:00:00 7.26 C 6.79 g/m*3 7.26 C 0 km/h
683 10-10-2010 10:00:00 8.92 C 6.6 g/m*3 8.92 C 0 km/h
684 10-10-2010 11:00:00 10.92 C 6.57 g/m*3 10.92 C 0 km/h
685 10-10-2010 12:00:00 12.8 C 6.47 g/m*3 12.8 C 0 km/h
686 10-10-2010 13:00:00 15.86 C 5.67 g/m*3 15.86 C 0 km/h
687 10-10-2010 14:00:00 18.62 C 5.45 g/m*3 18.62 C 0 km/h
688 10-10-2010 15:00:00 20.4 C 5.91 g/m*3 20.4 C 0 km/h
689 10-10-2010 16:00:00 21.28 C 5.7 g/m*3 21.28 C 0 km/h
690 10-10-2010 17:00:00 20.64 C 5.6 g/m*3 20.64 C 0 km/h
691 10-10-2010 18:00:00 17.2 C 5.45 g/m*3 17.2 C 0 km/h
692 10-10-2010 19:00:00 14.18 C 5.49 g/m*3 14.18 C 0 km/h
693 10-10-2010 20:00:00 13.02 C 4.91 g/m*3 13.02 C 0 km/h
694 10-10-2010 21:00:00 12.44 C 4.01 g/m*3 12.44 C 0 km/h
695 10-10-2010 22:00:00 11.46 C 4.12 g/m*3 11.46 C 0 km/h
696 10-10-2010 23:00:00 10.72 C 4.52 g/m*3 10.72 C 0 km/h
697 11-10-2010 00:00:00 9.98 C 4.88 g/m*3 9.98 C 0 km/h
698 11-10-2010 01:00:00 9.44 C 4.91 g/m*3 9.44 C 0 km/h
699 11-10-2010 02:00:00 9.08 C 4.87 g/m*3 9.08 C 0 km/h
700 11-10-2010 03:00:00 8.24 C 4.99 g/m*3 8.24 C 0 km/h
Sensor: Nr:Datum:Temp:Abs-Feuchte:Windchill:Wind:
Aussen-T/F 701 11-10-2010 04:00:00 7.58 C 5.1 g/m*3 7.58 C 0 km/h
702 11-10-2010 05:00:00 6.64 C 5.24 g/m*3 6.64 C 0 km/h
703 11-10-2010 06:00:00 5.72 C 5.32 g/m*3 5.72 C 0 km/h
704 11-10-2010 07:00:00 5.22 C 5.36 g/m*3 5.22 C 0 km/h
705 11-10-2010 08:00:00 4.96 C 5.39 g/m*3 4.96 C 0 km/h
706 11-10-2010 09:00:00 5.6 C 5.7 g/m*3 5.6 C 0 km/h
707 11-10-2010 10:00:00 7.12 C 6.11 g/m*3 7.12 C 0 km/h
708 11-10-2010 11:00:00 9.46 C 6.36 g/m*3 9.46 C 0 km/h
709 11-10-2010 12:00:00 11.62 C 6.45 g/m*3 11.62 C 0 km/h
710 11-10-2010 13:00:00 14.92 C 5.9 g/m*3 14.92 C 0 km/h
711 11-10-2010 14:00:00 17.48 C 5.45 g/m*3 17.48 C 0 km/h
712 11-10-2010 15:00:00 19.78 C 5.05 g/m*3 19.78 C 0 km/h
713 11-10-2010 16:00:00 20.96 C 4.61 g/m*3 20.96 C 0 km/h
714 11-10-2010 17:00:00 19.56 C 3.6 g/m*3 19.56 C 0 km/h
715 11-10-2010 18:00:00 16.12 C 3.98 g/m*3 16.12 C 0 km/h
716 11-10-2010 19:00:00 13.18 C 4.33 g/m*3 13.18 C 0 km/h
717 11-10-2010 20:00:00 11.32 C 4.82 g/m*3 11.32 C 0 km/h
718 11-10-2010 21:00:00 10.025 C 4.96 g/m*3 10.03 C 0 km/h
719 11-10-2010 22:00:00 9.2 C 4.84 g/m*3 9.2 C 0 km/h
720 11-10-2010 23:00:00 8.24 C 4.87 g/m*3 8.24 C 0 km/h
721 12-10-2010 00:00:00 7.16 C 5.01 g/m*3 7.16 C 0 km/h
722 12-10-2010 01:00:00 6.4 C 5.13 g/m*3 6.4 C 0 km/h
723 12-10-2010 02:00:00 5.74 C 5.24 g/m*3 5.74 C 0 km/h
724 12-10-2010 03:00:00 5.04 C 5.31 g/m*3 5.04 C 0 km/h
725 12-10-2010 04:00:00 4.42 C 5.34 g/m*3 4.42 C 0 km/h
Sensor: Nr:Datum:Temp:Abs-Feuchte:Windchill:Wind:
Aussen-T/F 726 12-10-2010 05:00:00 3.8 C 5.31 g/m*3 3.8 C 0 km/h
727 12-10-2010 06:00:00 3.46 C 5.26 g/m*3 3.46 C 0 km/h
728 12-10-2010 07:00:00 2.94 C 5.15 g/m*3 2.94 C 0 km/h
729 12-10-2010 08:00:00 3.56 C 5.52 g/m*3 3.56 C 0 km/h
730 12-10-2010 09:00:00 4.9 C 5.93 g/m*3 4.9 C 0 km/h
731 12-10-2010 10:00:00 5.82 C 6.07 g/m*3 5.82 C 0 km/h
732 12-10-2010 11:00:00 7.16 C 6.36 g/m*3 7.16 C 0 km/h
733 12-10-2010 12:00:00 9.56 C 6.18 g/m*3 9.56 C 0 km/h
734 12-10-2010 13:00:00 12.58 C 5.72 g/m*3 12.58 C 0 km/h
735 12-10-2010 14:00:00 15.26 C 5.65 g/m*3 15.26 C 0 km/h
736 12-10-2010 15:00:00 16.94 C 5.42 g/m*3 16.94 C 0 km/h
737 12-10-2010 16:00:00 17.66 C 5.42 g/m*3 17.66 C 0 km/h
738 12-10-2010 17:00:00 17.22 C 4.57 g/m*3 17.22 C 0 km/h
739 12-10-2010 18:00:00 14.5 C 5.65 g/m*3 14.5 C 0 km/h
740 12-10-2010 19:00:00 11.42 C 6.45 g/m*3 11.42 C 0 km/h
741 12-10-2010 20:00:00 9.84 C 6.47 g/m*3 9.84 C 0 km/h
742 12-10-2010 21:00:00 8.36 C 6.26 g/m*3 8.36 C 0 km/h
743 12-10-2010 22:00:00 7.74 C 6.15 g/m*3 7.74 C 0 km/h
744 12-10-2010 23:00:00 7.78 C 6 g/m*3 7.78 C 0 km/h
745 13-10-2010 00:00:00 7.6 C 5.86 g/m*3 7.6 C 0 km/h
746 13-10-2010 01:00:00 7.02 C 5.82 g/m*3 7.02 C 0 km/h
747 13-10-2010 02:00:00 6.8 C 5.83 g/m*3 6.8 C 0 km/h
748 13-10-2010 03:00:00 6.44 C 5.69 g/m*3 6.44 C 0 km/h
749 13-10-2010 04:00:00 6.2 C 5.59 g/m*3 6.2 C 0 km/h
750 13-10-2010 05:00:00 6.1 C 5.6 g/m*3 6.1 C 0 km/h
Sensor: Nr:Datum:Temp:Abs-Feuchte:Windchill:Wind:
Aussen-T/F 751 13-10-2010 06:00:00 5.84 C 5.6 g/m*3 5.84 C 0 km/h
752 13-10-2010 07:00:00 5.42 C 5.53 g/m*3 5.42 C 0 km/h
753 13-10-2010 08:00:00 5.62 C 5.49 g/m*3 5.62 C 0 km/h
754 13-10-2010 09:00:00 5.86 C 5.45 g/m*3 5.86 C 0 km/h
755 13-10-2010 10:00:00 6.66 C 5.3 g/m*3 6.66 C 0 km/h
756 13-10-2010 11:00:00 7.04 C 5.08 g/m*3 7.04 C 0 km/h
757 13-10-2010 12:00:00 8.14 C 5.06 g/m*3 8.14 C 0 km/h
758 13-10-2010 13:00:00 8.8 C 4.89 g/m*3 8.8 C 0 km/h
759 13-10-2010 14:00:00 9.8 C 4.95 g/m*3 9.8 C 0 km/h
760 13-10-2010 15:00:00 11.78 C 4.94 g/m*3 11.78 C 0 km/h
761 13-10-2010 16:00:00 12.06 C 5.01 g/m*3 12.06 C 0 km/h
762 13-10-2010 17:00:00 12.34 C 5.23 g/m*3 12.34 C 0 km/h
763 13-10-2010 18:00:00 9.94 C 5.5 g/m*3 9.94 C 0 km/h
764 13-10-2010 19:00:00 7.48 C 5.76 g/m*3 7.48 C 0 km/h
765 13-10-2010 20:00:00 6.96 C 5.81 g/m*3 6.96 C 0 km/h
766 13-10-2010 21:00:00 5.82 C 5.72 g/m*3 5.82 C 0 km/h
767 13-10-2010 22:00:00 5.16 C 5.73 g/m*3 5.16 C 0 km/h
768 13-10-2010 23:00:00 4.52 C 5.61 g/m*3 4.52 C 0 km/h
769 14-10-2010 00:00:00 3.88 C 5.51 g/m*3 3.88 C 0 km/h
770 14-10-2010 01:00:00 3.38 C 5.47 g/m*3 3.38 C 0 km/h
771 14-10-2010 02:00:00 3.62 C 5.65 g/m*3 3.62 C 0 km/h
772 14-10-2010 03:00:00 3.52 C 5.57 g/m*3 3.52 C 0 km/h
773 14-10-2010 04:00:00 3.54 C 5.55 g/m*3 3.54 C 0 km/h
774 14-10-2010 05:00:00 3.62 C 5.63 g/m*3 3.62 C 0 km/h
775 14-10-2010 06:00:00 3.92 C 5.7 g/m*3 3.92 C 0 km/h
Sensor: Nr:Datum:Temp:Abs-Feuchte:Windchill:Wind:
Aussen-T/F 776 14-10-2010 07:00:00 4.12 C 5.76 g/m*3 4.12 C 0 km/h
777 14-10-2010 08:00:00 4.44 C 5.84 g/m*3 4.44 C 0 km/h
778 14-10-2010 09:00:00 4.56 C 5.86 g/m*3 4.56 C 0 km/h
779 14-10-2010 10:00:00 5.16 C 5.88 g/m*3 5.16 C 0 km/h
780 14-10-2010 11:00:00 6.2 C 5.75 g/m*3 6.2 C 0 km/h
781 14-10-2010 12:00:00 7.86 C 5.59 g/m*3 7.86 C 0 km/h
782 14-10-2010 13:00:00 9.36 C 5.58 g/m*3 9.36 C 0 km/h
783 14-10-2010 14:00:00 11.86 C 5.85 g/m*3 11.86 C 0 km/h
784 14-10-2010 15:00:00 13.94 C 5.72 g/m*3 13.94 C 0 km/h
785 14-10-2010 16:00:00 14.4 C 5.83 g/m*3 14.4 C 0 km/h
786 14-10-2010 17:00:00 13.24 C 5.5 g/m*3 13.24 C 0 km/h
787 14-10-2010 18:00:00 11.04 C 5.96 g/m*3 11.04 C 0 km/h
788 14-10-2010 19:00:00 10.26 C 6.25 g/m*3 10.26 C 0 km/h
789 14-10-2010 20:00:00 10.2 C 6.24 g/m*3 10.2 C 0 km/h
790 14-10-2010 21:00:00 9.8 C 6.33 g/m*3 9.8 C 0 km/h
791 14-10-2010 22:00:00 9.74 C 6.51 g/m*3 9.74 C 0 km/h
792 14-10-2010 23:00:00 9.68 C 6.68 g/m*3 9.68 C 0 km/h
793 15-10-2010 00:00:00 9.5 C 6.75 g/m*3 9.5 C 0 km/h
794 15-10-2010 01:00:00 9.42 C 6.88 g/m*3 9.42 C 0 km/h
795 15-10-2010 02:00:00 9.24 C 7.13 g/m*3 9.24 C 0 km/h
796 15-10-2010 03:00:00 9.28 C 7.25 g/m*3 9.28 C 0 km/h
797 15-10-2010 04:00:00 9.28 C 7.36 g/m*3 9.28 C 0 km/h
798 15-10-2010 05:00:00 9.2 C 7.41 g/m*3 9.2 C 0 km/h
799 15-10-2010 06:00:00 9.3 C 7.66 g/m*3 9.3 C 0 km/h
800 15-10-2010 07:00:00 9.28 C 7.74 g/m*3 9.28 C 0 km/h
Sensor: Nr:Datum:Temp:Abs-Feuchte:Windchill:Wind:
Aussen-T/F 801 15-10-2010 08:00:00 9.24 C 7.86 g/m*3 9.24 C 0 km/h
802 15-10-2010 09:00:00 9.82 C 8.19 g/m*3 9.82 C 0 km/h
803 15-10-2010 10:00:00 10.72 C 8.06 g/m*3 10.72 C 0 km/h
804 15-10-2010 11:00:00 11.52 C 7.76 g/m*3 11.52 C 0 km/h
805 15-10-2010 12:00:00 12.42 C 7.33 g/m*3 12.42 C 0 km/h
806 15-10-2010 13:00:00 13.38 C 6.9 g/m*3 13.38 C 0 km/h
807 15-10-2010 14:00:00 12.78 C 6.76 g/m*3 12.78 C 0 km/h
808 15-10-2010 15:00:00 12.86 C 6.68 g/m*3 12.86 C 0 km/h
809 15-10-2010 16:00:00 12.24 C 6.79 g/m*3 12.24 C 0 km/h
810 15-10-2010 17:00:00 11.56 C 7.07 g/m*3 11.56 C 0 km/h
811 15-10-2010 18:00:00 10.88 C 7.03 g/m*3 10.88 C 0 km/h
812 15-10-2010 19:00:00 10.52 C 7.01 g/m*3 10.52 C 0 km/h
813 15-10-2010 20:00:00 10.36 C 7.02 g/m*3 10.36 C 0 km/h
814 15-10-2010 21:00:00 10.1 C 7.19 g/m*3 10.1 C 0 km/h
815 15-10-2010 22:00:00 9.3 C 7.67 g/m*3 9.3 C 0 km/h
816 15-10-2010 23:00:00 9.2 C 8.04 g/m*3 9.2 C 0 km/h
817 16-10-2010 00:00:00 9.02 C 8.16 g/m*3 9.02 C 0 km/h
818 16-10-2010 01:00:00 8.82 C 8.19 g/m*3 8.82 C 0 km/h
819 16-10-2010 02:00:00 8.78 C 8.22 g/m*3 8.78 C 0 km/h
820 16-10-2010 03:00:00 8.68 C 8.21 g/m*3 8.68 C 0 km/h
821 16-10-2010 04:00:00 8.54 C 8.13 g/m*3 8.54 C 0 km/h
822 16-10-2010 05:00:00 8.36 C 8.04 g/m*3 8.36 C 0 km/h
823 16-10-2010 06:00:00 8.3 C 8.01 g/m*3 8.3 C 0 km/h
824 16-10-2010 07:00:00 8.12 C 7.88 g/m*3 8.12 C 0 km/h
825 16-10-2010 08:00:00 8.1 C 7.77 g/m*3 8.1 C 0 km/h
Sensor: Nr:Datum:Temp:Abs-Feuchte:Windchill:Wind:
Aussen-T/F 826 16-10-2010 09:00:00 8.24 C 7.81 g/m*3 8.24 C 0 km/h
827 16-10-2010 10:00:00 8.64 C 8.03 g/m*3 8.64 C 0 km/h
828 16-10-2010 11:00:00 8.96 C 8.11 g/m*3 8.96 C 0 km/h
829 16-10-2010 12:00:00 9.38 C 8.11 g/m*3 9.38 C 0 km/h
830 16-10-2010 13:00:00 9.72 C 8.16 g/m*3 9.72 C 0 km/h
831 16-10-2010 14:00:00 9.96 C 7.89 g/m*3 9.96 C 0 km/h
832 16-10-2010 15:00:00 10.08 C 7.82 g/m*3 10.08 C 0 km/h
833 16-10-2010 16:00:00 9.9 C 7.84 g/m*3 9.9 C 0 km/h
834 16-10-2010 17:00:00 9.36 C 7.9 g/m*3 9.36 C 0 km/h
835 16-10-2010 18:00:00 8.38 C 6.98 g/m*3 8.38 C 0 km/h
836 16-10-2010 19:00:00 6.96 C 6.55 g/m*3 6.96 C 0 km/h
837 16-10-2010 20:00:00 6.56 C 6.31 g/m*3 6.56 C 0 km/h
838 16-10-2010 21:00:00 6.28 C 6.21 g/m*3 6.28 C 0 km/h
839 16-10-2010 22:00:00 5.9 C 6.37 g/m*3 5.9 C 0 km/h
840 16-10-2010 23:00:00 5.96 C 6.56 g/m*3 5.96 C 0 km/h
841 17-10-2010 00:00:00 6.14 C 6.7 g/m*3 6.14 C 0 km/h
842 17-10-2010 01:00:00 6.24 C 6.71 g/m*3 6.24 C 0 km/h
843 17-10-2010 02:00:00 6.22 C 6.61 g/m*3 6.22 C 0 km/h
844 17-10-2010 03:00:00 6.24 C 6.49 g/m*3 6.24 C 0 km/h
845 17-10-2010 04:00:00 6.22 C 6.33 g/m*3 6.22 C 0 km/h
846 17-10-2010 05:00:00 6.3 C 6.43 g/m*3 6.3 C 0 km/h
847 17-10-2010 06:00:00 6.34 C 6.46 g/m*3 6.34 C 0 km/h
848 17-10-2010 07:00:00 6.34 C 6.29 g/m*3 6.34 C 0 km/h
849 17-10-2010 08:00:00 6.58 C 6.17 g/m*3 6.58 C 0 km/h
850 17-10-2010 09:00:00 6.88 C 6.15 g/m*3 6.88 C 0 km/h
Sensor: Nr:Datum:Temp:Abs-Feuchte:Windchill:Wind:
Aussen-T/F 851 17-10-2010 10:00:00 7.32 C 6.14 g/m*3 7.32 C 0 km/h
852 17-10-2010 11:00:00 7.7 C 5.98 g/m*3 7.7 C 0 km/h
853 17-10-2010 12:00:00 7.88 C 5.97 g/m*3 7.88 C 0 km/h
854 17-10-2010 13:00:00 8.1 C 5.96 g/m*3 8.1 C 0 km/h
855 17-10-2010 14:00:00 8.36 C 6.14 g/m*3 8.36 C 0 km/h
856 17-10-2010 15:00:00 8.52 C 6.12 g/m*3 8.52 C 0 km/h
857 17-10-2010 16:00:00 8.46 C 6.28 g/m*3 8.46 C 0 km/h
858 17-10-2010 17:00:00 8.3 C 6.32 g/m*3 8.3 C 0 km/h
859 17-10-2010 18:00:00 7.9 C 6.32 g/m*3 7.9 C 0 km/h
860 17-10-2010 19:00:00 7.68 C 6.38 g/m*3 7.68 C 0 km/h
861 17-10-2010 20:00:00 7.68 C 6.43 g/m*3 7.68 C 0 km/h
862 17-10-2010 21:00:00 7.62 C 6.44 g/m*3 7.62 C 0 km/h
863 17-10-2010 22:00:00 7.38 C 6.43 g/m*3 7.38 C 0 km/h
864 17-10-2010 23:00:00 7.04 C 6.31 g/m*3 7.04 C 0 km/h
865 18-10-2010 00:00:00 6.48 C 6.19 g/m*3 6.48 C 0 km/h
866 18-10-2010 01:00:00 5.18 C 5.97 g/m*3 5.18 C 0 km/h
867 18-10-2010 02:00:00 5.8 C 6.35 g/m*3 5.8 C 0 km/h
868 18-10-2010 03:00:00 6 C 6.3 g/m*3 6 C 0 km/h
869 18-10-2010 04:00:00 6.02 C 6.25 g/m*3 6.02 C 0 km/h
870 18-10-2010 05:00:00 5.84 C 6.1 g/m*3 5.84 C 0 km/h
871 18-10-2010 06:00:00 5.8 C 6.16 g/m*3 5.8 C 0 km/h
872 18-10-2010 07:00:00 5.76 C 6.14 g/m*3 5.76 C 0 km/h
873 18-10-2010 08:00:00 5.78 C 6.2 g/m*3 5.78 C 0 km/h
874 18-10-2010 09:00:00 6.66 C 6.44 g/m*3 6.66 C 0 km/h
875 18-10-2010 10:00:00 7.56 C 5.99 g/m*3 7.56 C 0 km/h
Sensor: Nr:Datum:Temp:Abs-Feuchte:Windchill:Wind:
Aussen-T/F 876 18-10-2010 11:00:00 7.76 C 5.06 g/m*3 7.76 C 0 km/h
877 18-10-2010 12:00:00 8.26 C 4.98 g/m*3 8.26 C 0 km/h
878 18-10-2010 13:00:00 8.82 C 4.85 g/m*3 8.82 C 0 km/h
879 18-10-2010 14:00:00 8.88 C 4.86 g/m*3 8.88 C 0 km/h
880 18-10-2010 15:00:00 8.74 C 4.86 g/m*3 8.74 C 0 km/h
881 18-10-2010 16:00:00 8.74 C 4.91 g/m*3 8.74 C 0 km/h
882 18-10-2010 17:00:00 8.52 C 4.86 g/m*3 8.52 C 0 km/h
883 18-10-2010 18:00:00 7.76 C 4.97 g/m*3 7.76 C 0 km/h
884 18-10-2010 19:00:00 6.32 C 4.89 g/m*3 6.32 C 0 km/h
885 18-10-2010 20:00:00 5.6 C 5.05 g/m*3 5.6 C 0 km/h
886 18-10-2010 21:00:00 5.18 C 5.03 g/m*3 5.18 C 0 km/h
887 18-10-2010 22:00:00 4.92 C 5.06 g/m*3 4.92 C 0 km/h
888 18-10-2010 23:00:00 4.86 C 5.17 g/m*3 4.86 C 0 km/h
889 19-10-2010 00:00:00 5.14 C 5.24 g/m*3 5.14 C 0 km/h
890 19-10-2010 01:00:00 5.42 C 5.27 g/m*3 5.42 C 0 km/h
891 19-10-2010 02:00:00 5.5 C 5.32 g/m*3 5.5 C 0 km/h
892 19-10-2010 03:00:00 4.96 C 5.75 g/m*3 4.96 C 0 km/h
893 19-10-2010 04:00:00 5.04 C 6.04 g/m*3 5.04 C 0 km/h
894 19-10-2010 05:00:00 5.42 C 6.06 g/m*3 5.42 C 0 km/h
895 19-10-2010 06:00:00 5.6 C 6.31 g/m*3 5.6 C 0 km/h
896 19-10-2010 07:00:00 5.98 C 6.38 g/m*3 5.98 C 0 km/h
897 19-10-2010 08:00:00 5.98 C 6.42 g/m*3 5.98 C 0 km/h
898 19-10-2010 09:00:00 6.54 C 6.62 g/m*3 6.54 C 0 km/h
899 19-10-2010 10:00:00 7.34 C 6.65 g/m*3 7.34 C 0 km/h
900 19-10-2010 11:00:00 7.5 C 6.93 g/m*3 7.5 C 0 km/h
Sensor: Nr:Datum:Temp:Abs-Feuchte:Windchill:Wind:
Aussen-T/F 901 19-10-2010 12:00:00 7.98 C 7.08 g/m*3 7.98 C 0 km/h
902 19-10-2010 13:00:00 9.08 C 7.48 g/m*3 9.08 C 0 km/h
903 19-10-2010 14:00:00 9.8 C 7.42 g/m*3 9.8 C 0 km/h
904 19-10-2010 15:00:00 10.34 C 7.37 g/m*3 10.34 C 0 km/h
905 19-10-2010 16:00:00 12.46 C 7 g/m*3 12.46 C 0 km/h
906 19-10-2010 17:00:00 10.3 C 7.22 g/m*3 10.3 C 0 km/h
907 19-10-2010 18:00:00 9.04 C 6.96 g/m*3 9.04 C 0 km/h
908 19-10-2010 19:00:00 7.98 C 6.85 g/m*3 7.98 C 0 km/h
909 19-10-2010 20:00:00 7.36 C 6.46 g/m*3 7.36 C 0 km/h
910 19-10-2010 21:00:00 6.94 C 6.22 g/m*3 6.94 C 0 km/h
911 19-10-2010 22:00:00 6.52 C 6.16 g/m*3 6.52 C 0 km/h
912 19-10-2010 23:00:00 6.54 C 6.2 g/m*3 6.54 C 0 km/h
913 20-10-2010 00:00:00 6.34 C 6.16 g/m*3 6.34 C 0 km/h
914 20-10-2010 01:00:00 6.38 C 6.16 g/m*3 6.38 C 0 km/h
915 20-10-2010 02:00:00 5.94 C 6.39 g/m*3 5.94 C 0 km/h
916 20-10-2010 03:00:00 5.76 C 6.53 g/m*3 5.76 C 0 km/h
917 20-10-2010 04:00:00 5.84 C 6.51 g/m*3 5.84 C 0 km/h
918 20-10-2010 05:00:00 5.62 C 6.56 g/m*3 5.62 C 0 km/h
919 20-10-2010 06:00:00 5.52 C 6.61 g/m*3 5.52 C 0 km/h
920 20-10-2010 07:00:00 5.5 C 6.64 g/m*3 5.5 C 0 km/h
921 20-10-2010 08:00:00 5.6 C 6.66 g/m*3 5.6 C 0 km/h
922 20-10-2010 09:00:00 6 C 6.84 g/m*3 6 C 0 km/h
923 20-10-2010 10:00:00 6.92 C 6.95 g/m*3 6.92 C 0 km/h
924 20-10-2010 11:00:00 6.84 C 6.44 g/m*3 6.84 C 0 km/h
925 20-10-2010 12:00:00 6.92 C 6.38 g/m*3 6.92 C 0 km/h
Sensor: Nr:Datum:Temp:Abs-Feuchte:Windchill:Wind:
Aussen-T/F 926 20-10-2010 13:00:00 7.92 C 6.2 g/m*3 7.92 C 0 km/h
927 20-10-2010 14:00:00 9.48 C 5.67 g/m*3 9.48 C 0 km/h
928 20-10-2010 15:00:00 7.68 C 5.56 g/m*3 7.68 C 0 km/h
929 20-10-2010 16:00:00 7.36 C 5.06 g/m*3 7.36 C 0 km/h
930 20-10-2010 17:00:00 7.02 C 4.92 g/m*3 7.02 C 0 km/h
931 20-10-2010 18:00:00 6.32 C 5.04 g/m*3 6.32 C 0 km/h
932 20-10-2010 19:00:00 4.64 C 5.24 g/m*3 4.64 C 0 km/h
933 20-10-2010 20:00:00 4.54 C 5.25 g/m*3 4.54 C 0 km/h
934 20-10-2010 21:00:00 4.46 C 5.11 g/m*3 4.46 C 0 km/h
935 20-10-2010 22:00:00 4.48 C 5.07 g/m*3 4.48 C 0 km/h
936 20-10-2010 23:00:00 4.32 C 5.05 g/m*3 4.32 C 0 km/h
937 21-10-2010 00:00:00 4.6 C 5.11 g/m*3 4.6 C 0 km/h
938 21-10-2010 01:00:00 4.44 C 5.04 g/m*3 4.44 C 0 km/h
939 21-10-2010 02:00:00 3.74 C 4.97 g/m*3 3.74 C 0 km/h
940 21-10-2010 03:00:00 3.32 C 4.98 g/m*3 3.32 C 0 km/h
941 21-10-2010 04:00:00 2.64 C 4.9 g/m*3 2.64 C 0 km/h
942 21-10-2010 05:00:00 1.92 C 4.82 g/m*3 1.92 C 0 km/h
943 21-10-2010 06:00:00 1.7 C 4.9 g/m*3 1.7 C 0 km/h
944 21-10-2010 07:00:00 1.66 C 5 g/m*3 1.66 C 0 km/h
945 21-10-2010 08:00:00 2.1 C 5.14 g/m*3 2.1 C 0 km/h
946 21-10-2010 09:00:00 3 C 5.24 g/m*3 3 C 0 km/h
947 21-10-2010 10:00:00 4.16 C 5.06 g/m*3 4.16 C 0 km/h
948 21-10-2010 11:00:00 5.64 C 4.99 g/m*3 5.64 C 0 km/h
949 21-10-2010 12:00:00 6.98 C 4.63 g/m*3 6.98 C 0 km/h
950 21-10-2010 13:00:00 8.7 C 4.13 g/m*3 8.7 C 0 km/h
Sensor: Nr:Datum:Temp:Abs-Feuchte:Windchill:Wind:
Aussen-T/F 951 21-10-2010 14:00:00 10.38 C 3.87 g/m*3 10.38 C 0 km/h
952 21-10-2010 15:00:00 10.66 C 3.63 g/m*3 10.66 C 0 km/h
953 21-10-2010 16:00:00 10.4 C 3.64 g/m*3 10.4 C 0 km/h
954 21-10-2010 17:00:00 10.96 C 3.55 g/m*3 10.96 C 0 km/h
955 21-10-2010 18:00:00 7.38 C 3.99 g/m*3 7.38 C 0 km/h
956 21-10-2010 19:00:00 5.64 C 4.05 g/m*3 5.64 C 0 km/h
957 21-10-2010 20:00:00 4.86 C 3.96 g/m*3 4.86 C 0 km/h
958 21-10-2010 21:00:00 4.62 C 3.74 g/m*3 4.62 C 0 km/h
959 21-10-2010 22:00:00 3.84 C 3.84 g/m*3 3.84 C 0 km/h
960 21-10-2010 23:00:00 3.14 C 3.89 g/m*3 3.14 C 0 km/h
961 22-10-2010 00:00:00 2.38 C 4.06 g/m*3 2.38 C 0 km/h
962 22-10-2010 01:00:00 1.74 C 4.11 g/m*3 1.74 C 0 km/h
963 22-10-2010 02:00:00 2.12 C 4.09 g/m*3 2.12 C 0 km/h
964 22-10-2010 03:00:00 2.16 C 4.08 g/m*3 2.16 C 0 km/h
965 22-10-2010 04:00:00 1.48 C 4.09 g/m*3 1.48 C 0 km/h
966 22-10-2010 05:00:00 1.38 C 4.11 g/m*3 1.38 C 0 km/h
967 22-10-2010 06:00:00 1.66 C 4.06 g/m*3 1.66 C 0 km/h
968 22-10-2010 07:00:00 0.94 C 3.98 g/m*3 0.94 C 0 km/h
969 22-10-2010 08:00:00 1.28 C 4.04 g/m*3 1.28 C 0 km/h
970 22-10-2010 09:00:00 2.06 C 4.3 g/m*3 2.06 C 0 km/h
971 22-10-2010 10:00:00 4.3 C 4.23 g/m*3 4.3 C 0 km/h
972 22-10-2010 11:00:00 5.36 C 3.94 g/m*3 5.36 C 0 km/h
973 22-10-2010 12:00:00 6.56 C 3.9 g/m*3 6.56 C 0 km/h
974 22-10-2010 13:00:00 7.18 C 3.89 g/m*3 7.18 C 0 km/h
975 22-10-2010 14:00:00 7.36 C 3.87 g/m*3 7.36 C 0 km/h
Sensor: Nr:Datum:Temp:Abs-Feuchte:Windchill:Wind:
Aussen-T/F 976 22-10-2010 15:00:00 7.22 C 3.82 g/m*3 7.22 C 0 km/h
977 22-10-2010 16:00:00 7.42 C 4.33 g/m*3 7.42 C 0 km/h
978 22-10-2010 17:00:00 7.22 C 4.28 g/m*3 7.22 C 0 km/h
979 22-10-2010 18:00:00 6.18 C 4.1 g/m*3 6.18 C 0 km/h
980 22-10-2010 19:00:00 6.2 C 3.69 g/m*3 6.2 C 0 km/h
981 22-10-2010 20:00:00 6.02 C 3.82 g/m*3 6.02 C 0 km/h
982 22-10-2010 21:00:00 5.72 C 3.9 g/m*3 5.72 C 0 km/h
983 22-10-2010 22:00:00 4.14 C 4.09 g/m*3 4.14 C 0 km/h
984 22-10-2010 23:00:00 2.76 C 4.31 g/m*3 2.76 C 0 km/h
985 23-10-2010 00:00:00 1.7 C 4.3 g/m*3 1.7 C 0 km/h
986 23-10-2010 01:00:00 1.08 C 4.29 g/m*3 1.08 C 0 km/h
987 23-10-2010 02:00:00 0.54 C 4.24 g/m*3 0.54 C 0 km/h
988 23-10-2010 03:00:00 0.1 C 4.19 g/m*3 0.1 C 0 km/h
989 23-10-2010 04:00:00 -0.34 C 4.14 g/m*3 -0.34 C 0 km/h
990 23-10-2010 05:00:00 -0.82 C 4.03 g/m*3 -0.82 C 0 km/h
991 23-10-2010 06:00:00 -1.04 C 4 g/m*3 -1.04 C 0 km/h
992 23-10-2010 07:00:00 -0.86 C 4.09 g/m*3 -0.86 C 0 km/h
993 23-10-2010 08:00:00 -0.78 C 4.18 g/m*3 -0.78 C 0 km/h
994 23-10-2010 09:00:00 -0.82 C 4.14 g/m*3 -0.82 C 0 km/h
995 23-10-2010 10:00:00 1.06 C 4.78 g/m*3 1.06 C 0 km/h
996 23-10-2010 11:00:00 4.08 C 5.33 g/m*3 4.08 C 0 km/h
997 23-10-2010 12:00:00 6.64 C 5.16 g/m*3 6.64 C 0 km/h
998 23-10-2010 13:00:00 8.56 C 4.97 g/m*3 8.56 C 0 km/h
999 23-10-2010 14:00:00 9.08 C 4.25 g/m*3 9.08 C 0 km/h
1000 23-10-2010 15:00:00 8.42 C 4.64 g/m*3 8.42 C 0 km/h
Sensor: Nr:Datum:Temp:Abs-Feuchte:Windchill:Wind:
Aussen-T/F 1001 23-10-2010 16:00:00 7.92 C 4.93 g/m*3 7.92 C 0 km/h
1002 23-10-2010 17:00:00 7.88 C 5.35 g/m*3 7.88 C 0 km/h
1003 23-10-2010 18:00:00 8.04 C 5.49 g/m*3 8.04 C 0 km/h
1004 23-10-2010 19:00:00 8.56 C 5.16 g/m*3 8.56 C 0 km/h
1005 23-10-2010 20:00:00 9.14 C 5.27 g/m*3 9.14 C 0 km/h
1006 23-10-2010 21:00:00 9.26 C 5.77 g/m*3 9.26 C 0 km/h
1007 23-10-2010 22:00:00 9.375 C 5.85 g/m*3 9.38 C 0 km/h
1008 23-10-2010 23:00:00 9.32 C 5.67 g/m*3 9.32 C 0 km/h
1009 24-10-2010 00:00:00 9.02 C 5.74 g/m*3 9.02 C 0 km/h
1010 24-10-2010 01:00:00 8.98 C 5.85 g/m*3 8.98 C 0 km/h
1011 24-10-2010 02:00:00 8.46 C 6.28 g/m*3 8.46 C 0 km/h
1012 24-10-2010 03:00:00 8.46 C 6.3 g/m*3 8.46 C 0 km/h
1013 24-10-2010 04:00:00 8.66 C 6.02 g/m*3 8.66 C 0 km/h
1014 24-10-2010 05:00:00 8.5 C 5.98 g/m*3 8.5 C 0 km/h
1015 24-10-2010 06:00:00 7.98 C 6.24 g/m*3 7.98 C 0 km/h
1016 24-10-2010 07:00:00 7.06 C 6.72 g/m*3 7.06 C 0 km/h
1017 24-10-2010 08:00:00 6.96 C 6.91 g/m*3 6.96 C 0 km/h
1018 24-10-2010 09:00:00 7.14 C 7.02 g/m*3 7.14 C 0 km/h
1019 24-10-2010 10:00:00 7 C 6.65 g/m*3 7 C 0 km/h
1020 24-10-2010 11:00:00 8.3 C 5.85 g/m*3 8.3 C 0 km/h
1021 24-10-2010 12:00:00 9.36 C 4.75 g/m*3 9.36 C 0 km/h
1022 24-10-2010 13:00:00 10.46 C 4.6 g/m*3 10.46 C 0 km/h
1023 24-10-2010 14:00:00 11.62 C 4.29 g/m*3 11.62 C 0 km/h
1024 24-10-2010 15:00:00 12.3 C 4.23 g/m*3 12.3 C 0 km/h
1025 24-10-2010 16:00:00 13.04 C 3.75 g/m*3 13.04 C 0 km/h
Sensor: Nr:Datum:Temp:Abs-Feuchte:Windchill:Wind:
Aussen-T/F 1026 24-10-2010 17:00:00 12.02 C 4.01 g/m*3 12.02 C 0 km/h
1027 24-10-2010 18:00:00 9.56 C 4.75 g/m*3 9.56 C 0 km/h
1028 24-10-2010 19:00:00 7.42 C 5.14 g/m*3 7.42 C 0 km/h
1029 24-10-2010 20:00:00 6.48 C 5.18 g/m*3 6.48 C 0 km/h
1030 24-10-2010 21:00:00 6.12 C 5.38 g/m*3 6.12 C 0 km/h
1031 24-10-2010 22:00:00 5.62 C 5.56 g/m*3 5.62 C 0 km/h
1032 24-10-2010 23:00:00 4.84 C 5.49 g/m*3 4.84 C 0 km/h
1033 25-10-2010 00:00:00 4.8 C 5.7 g/m*3 4.8 C 0 km/h
1034 25-10-2010 01:00:00 4.5 C 5.65 g/m*3 4.5 C 0 km/h
1035 25-10-2010 02:00:00 4.42 C 5.69 g/m*3 4.42 C 0 km/h
1036 25-10-2010 03:00:00 4.62 C 5.76 g/m*3 4.62 C 0 km/h
1037 25-10-2010 04:00:00 5.1 C 5.73 g/m*3 5.1 C 0 km/h
1038 25-10-2010 05:00:00 5.1 C 5.62 g/m*3 5.1 C 0 km/h
1039 25-10-2010 06:00:00 5.04 C 5.55 g/m*3 5.04 C 0 km/h
1040 25-10-2010 07:00:00 4.86 C 5.51 g/m*3 4.86 C 0 km/h
1041 25-10-2010 08:00:00 4.9 C 5.52 g/m*3 4.9 C 0 km/h
1042 25-10-2010 09:00:00 5.06 C 5.47 g/m*3 5.06 C 0 km/h
1043 25-10-2010 10:00:00 5.8 C 5.5 g/m*3 5.8 C 0 km/h
1044 25-10-2010 11:00:00 6.54 C 5.44 g/m*3 6.54 C 0 km/h
1045 25-10-2010 12:00:00 7.84 C 5.3 g/m*3 7.84 C 0 km/h
1046 25-10-2010 13:00:00 8.74 C 5.12 g/m*3 8.74 C 0 km/h
1047 25-10-2010 14:00:00 10.1 C 4.63 g/m*3 10.1 C 0 km/h
1048 25-10-2010 15:00:00 10.4 C 3.91 g/m*3 10.4 C 0 km/h
1049 25-10-2010 16:00:00 10.72 C 3.91 g/m*3 10.72 C 0 km/h
1050 25-10-2010 17:00:00 10.68 C 4.06 g/m*3 10.68 C 0 km/h
Sensor: Nr:Datum:Temp:Abs-Feuchte:Windchill:Wind:
Aussen-T/F 1051 25-10-2010 18:00:00 8.36 C 4.25 g/m*3 8.36 C 0 km/h
1052 25-10-2010 19:00:00 6.22 C 4.68 g/m*3 6.22 C 0 km/h
1053 25-10-2010 20:00:00 4.66 C 4.77 g/m*3 4.66 C 0 km/h
1054 25-10-2010 21:00:00 3.92 C 4.92 g/m*3 3.92 C 0 km/h
1055 25-10-2010 22:00:00 3 C 4.83 g/m*3 3 C 0 km/h
1056 25-10-2010 23:00:00 2.28 C 4.79 g/m*3 2.28 C 0 km/h
1057 26-10-2010 00:00:00 1.88 C 4.78 g/m*3 1.88 C 0 km/h
1058 26-10-2010 01:00:00 1.48 C 4.76 g/m*3 1.48 C 0 km/h
1059 26-10-2010 02:00:00 0.82 C 4.64 g/m*3 0.82 C 0 km/h
1060 26-10-2010 03:00:00 0.3 C 4.5 g/m*3 0.3 C 0 km/h
1061 26-10-2010 04:00:00 0.12 C 4.51 g/m*3 0.12 C 0 km/h
1062 26-10-2010 05:00:00 0.08 C 4.56 g/m*3 0.08 C 0 km/h
1063 26-10-2010 06:00:00 0.14 C 4.6 g/m*3 0.14 C 0 km/h
1064 26-10-2010 07:00:00 -0.32 C 4.45 g/m*3 -0.32 C 0 km/h
1065 26-10-2010 08:00:00 -0.42 C 4.42 g/m*3 -0.42 C 0 km/h
1066 26-10-2010 09:00:00 -0.36 C 4.44 g/m*3 -0.36 C 0 km/h
1067 26-10-2010 10:00:00 0.1 C 4.58 g/m*3 0.1 C 0 km/h
1068 26-10-2010 11:00:00 1.22 C 4.82 g/m*3 1.22 C 0 km/h
1069 26-10-2010 12:00:00 3.16 C 5.19 g/m*3 3.16 C 0 km/h
1070 26-10-2010 13:00:00 5.54 C 5.61 g/m*3 5.54 C 0 km/h
1071 26-10-2010 14:00:00 8.88 C 5.51 g/m*3 8.88 C 0 km/h
1072 26-10-2010 15:00:00 9.72 C 5.28 g/m*3 9.72 C 0 km/h
1073 26-10-2010 16:00:00 9.24 C 5.41 g/m*3 9.24 C 0 km/h
1074 26-10-2010 17:00:00 8.04 C 5.69 g/m*3 8.04 C 0 km/h
1075 26-10-2010 18:00:00 7.08 C 5.64 g/m*3 7.08 C 0 km/h
Sensor: Nr:Datum:Temp:Abs-Feuchte:Windchill:Wind:
Aussen-T/F 1076 26-10-2010 19:00:00 6.58 C 5.68 g/m*3 6.58 C 0 km/h
1077 26-10-2010 20:00:00 6.34 C 5.66 g/m*3 6.34 C 0 km/h
1078 26-10-2010 21:00:00 6.06 C 5.58 g/m*3 6.06 C 0 km/h
1079 26-10-2010 22:00:00 5.7 C 5.71 g/m*3 5.7 C 0 km/h
1080 26-10-2010 23:00:00 5.6 C 5.73 g/m*3 5.6 C 0 km/h
1081 27-10-2010 00:00:00 5.16 C 5.6 g/m*3 5.16 C 0 km/h
1082 27-10-2010 01:00:00 5.36 C 5.14 g/m*3 5.36 C 0 km/h
1083 27-10-2010 02:00:00 5.54 C 5.11 g/m*3 5.54 C 0 km/h
1084 27-10-2010 03:00:00 5.48 C 5.26 g/m*3 5.48 C 0 km/h
1085 27-10-2010 04:00:00 5.42 C 5.24 g/m*3 5.42 C 0 km/h
1086 27-10-2010 05:00:00 5.64 C 5.16 g/m*3 5.64 C 0 km/h
1087 27-10-2010 06:00:00 5.68 C 5.22 g/m*3 5.68 C 0 km/h
1088 27-10-2010 07:00:00 5.76 C 5.16 g/m*3 5.76 C 0 km/h
1089 27-10-2010 08:00:00 5.68 C 5.09 g/m*3 5.68 C 0 km/h
1090 27-10-2010 09:00:00 5.84 C 5.65 g/m*3 5.84 C 0 km/h
1091 27-10-2010 10:00:00 7 C 5.8 g/m*3 7 C 0 km/h
1092 27-10-2010 11:00:00 8.22 C 5.45 g/m*3 8.22 C 0 km/h
1093 27-10-2010 12:00:00 9.62 C 4.46 g/m*3 9.62 C 0 km/h
1094 27-10-2010 13:00:00 10.92 C 3.84 g/m*3 10.92 C 0 km/h
1095 27-10-2010 14:00:00 11.06 C 3.64 g/m*3 11.06 C 0 km/h
1096 27-10-2010 15:00:00 11.56 C 3.55 g/m*3 11.56 C 0 km/h
1097 27-10-2010 16:00:00 11.98 C 3.43 g/m*3 11.98 C 0 km/h
1098 27-10-2010 17:00:00 11.6 C 3.55 g/m*3 11.6 C 0 km/h
1099 27-10-2010 18:00:00 10.44 C 4.27 g/m*3 10.44 C 0 km/h
1100 27-10-2010 19:00:00 10.04 C 4.41 g/m*3 10.04 C 0 km/h
Sensor: Nr:Datum:Temp:Abs-Feuchte:Windchill:Wind:
Aussen-T/F 1101 27-10-2010 20:00:00 9.8 C 4.42 g/m*3 9.8 C 0 km/h
1102 27-10-2010 21:00:00 9.56 C 4.71 g/m*3 9.56 C 0 km/h
1103 27-10-2010 22:00:00 9.2 C 4.89 g/m*3 9.2 C 0 km/h
1104 27-10-2010 23:00:00 9.02 C 4.86 g/m*3 9.02 C 0 km/h
1105 28-10-2010 00:00:00 8.66 C 4.87 g/m*3 8.66 C 0 km/h
1106 28-10-2010 01:00:00 8.46 C 4.91 g/m*3 8.46 C 0 km/h
1107 28-10-2010 02:00:00 8.06 C 5.05 g/m*3 8.06 C 0 km/h
1108 28-10-2010 03:00:00 7.62 C 4.86 g/m*3 7.62 C 0 km/h
1109 28-10-2010 04:00:00 7.66 C 5.06 g/m*3 7.66 C 0 km/h
1110 28-10-2010 05:00:00 7.52 C 5.05 g/m*3 7.52 C 0 km/h
1111 28-10-2010 06:00:00 7.98 C 4.41 g/m*3 7.98 C 0 km/h
1112 28-10-2010 07:00:00 8.48 C 4.31 g/m*3 8.48 C 0 km/h
1113 28-10-2010 08:00:00 8.7 C 4.67 g/m*3 8.7 C 0 km/h
1114 28-10-2010 09:00:00 8.86 C 4.91 g/m*3 8.86 C 0 km/h
1115 28-10-2010 10:00:00 7.9 C 6.09 g/m*3 7.9 C 0 km/h
1116 28-10-2010 11:00:00 9.7 C 5.97 g/m*3 9.7 C 0 km/h
1117 28-10-2010 12:00:00 10.72 C 5.78 g/m*3 10.72 C 0 km/h
1118 28-10-2010 13:00:00 11.34 C 5.69 g/m*3 11.34 C 0 km/h
1119 28-10-2010 14:00:00 12.3 C 5.67 g/m*3 12.3 C 0 km/h
1120 28-10-2010 15:00:00 12.72 C 5.66 g/m*3 12.72 C 0 km/h
1121 28-10-2010 16:00:00 11.62 C 6.12 g/m*3 11.62 C 0 km/h
1122 28-10-2010 17:00:00 11.08 C 6.14 g/m*3 11.08 C 0 km/h
1123 28-10-2010 18:00:00 9.86 C 6.13 g/m*3 9.86 C 0 km/h
1124 28-10-2010 19:00:00 9.18 C 6.22 g/m*3 9.18 C 0 km/h
1125 28-10-2010 20:00:00 9 C 6.24 g/m*3 9 C 0 km/h
Sensor: Nr:Datum:Temp:Abs-Feuchte:Windchill:Wind:
Aussen-T/F 1126 28-10-2010 21:00:00 8.38 C 6.3 g/m*3 8.38 C 0 km/h
1127 28-10-2010 22:00:00 7.56 C 6.36 g/m*3 7.56 C 0 km/h
1128 28-10-2010 23:00:00 6.78 C 6.32 g/m*3 6.78 C 0 km/h
1129 29-10-2010 00:00:00 6.26 C 6.26 g/m*3 6.26 C 0 km/h
1130 29-10-2010 01:00:00 6.28 C 6.4 g/m*3 6.28 C 0 km/h
1131 29-10-2010 02:00:00 6.46 C 6.57 g/m*3 6.46 C 0 km/h
1132 29-10-2010 03:00:00 7.23333 C 6.82 g/m*3 7.23 C 0 km/h
1133 02-11-2010 08:00:00 8.77778 C 6.98 g/m*3 8.78 C 0 km/h
1134 02-11-2010 09:00:00 9.9 C 6.85 g/m*3 9.9 C 0 km/h
1135 02-11-2010 10:00:00 11.04 C 6.74 g/m*3 11.04 C 0 km/h
1136 02-11-2010 11:00:00 11.88 C 6.43 g/m*3 11.88 C 0 km/h
1137 02-11-2010 12:00:00 12.52 C 6.49 g/m*3 12.52 C 0 km/h
1138 02-11-2010 13:00:00 12.72 C 6.33 g/m*3 12.72 C 0 km/h
1139 02-11-2010 14:00:00 12.8 C 6.36 g/m*3 12.8 C 0 km/h
1140 02-11-2010 15:00:00 12.92 C 6.39 g/m*3 12.92 C 0 km/h
1141 02-11-2010 16:00:00 12.34 C 6.44 g/m*3 12.34 C 0 km/h
1142 02-11-2010 17:00:00 11.34 C 6.61 g/m*3 11.34 C 0 km/h
1143 02-11-2010 18:00:00 11.22 C 6.66 g/m*3 11.22 C 0 km/h
1144 02-11-2010 19:00:00 11.46 C 6.66 g/m*3 11.46 C 0 km/h
1145 02-11-2010 20:00:00 11 C 7.01 g/m*3 11 C 0 km/h
1146 02-11-2010 21:00:00 10.94 C 7.18 g/m*3 10.94 C 0 km/h
1147 02-11-2010 22:00:00 11.08 C 7.42 g/m*3 11.08 C 0 km/h
1148 02-11-2010 23:00:00 11.14 C 7.57 g/m*3 11.14 C 0 km/h
1149 03-11-2010 00:00:00 11.32 C 7.66 g/m*3 11.32 C 0 km/h
1150 03-11-2010 01:00:00 10.88 C 7.49 g/m*3 10.88 C 0 km/h
Sensor: Nr:Datum:Temp:Abs-Feuchte:Windchill:Wind:
Aussen-T/F 1151 03-11-2010 02:00:00 11.68 C 7.56 g/m*3 11.68 C 0 km/h
1152 03-11-2010 03:00:00 12.06 C 7.34 g/m*3 12.06 C 0 km/h
1153 03-11-2010 04:00:00 12.44 C 7.47 g/m*3 12.44 C 0 km/h
1154 03-11-2010 05:00:00 12.72 C 7.49 g/m*3 12.72 C 0 km/h
1155 03-11-2010 06:00:00 12.66 C 7.62 g/m*3 12.66 C 0 km/h
1156 03-11-2010 07:00:00 12.76 C 7.66 g/m*3 12.76 C 0 km/h
1157 03-11-2010 08:00:00 13.28 C 7.57 g/m*3 13.28 C 0 km/h
1158 03-11-2010 09:00:00 13.78 C 7.64 g/m*3 13.78 C 0 km/h
1159 03-11-2010 10:00:00 14.2 C 7.55 g/m*3 14.2 C 0 km/h
1160 03-11-2010 11:00:00 14.42 C 7.65 g/m*3 14.42 C 0 km/h
1161 03-11-2010 12:00:00 13.94 C 7.74 g/m*3 13.94 C 0 km/h
1162 03-11-2010 13:00:00 13.54 C 7.83 g/m*3 13.54 C 0 km/h
1163 03-11-2010 14:00:00 13.66 C 7.94 g/m*3 13.66 C 0 km/h
1164 03-11-2010 15:00:00 13.78 C 8.07 g/m*3 13.78 C 0 km/h
1165 03-11-2010 16:00:00 13.46 C 8.1 g/m*3 13.46 C 0 km/h
1166 03-11-2010 17:00:00 13.06 C 8.2 g/m*3 13.06 C 0 km/h
1167 03-11-2010 18:00:00 12.66 C 8.31 g/m*3 12.66 C 0 km/h
1168 03-11-2010 19:00:00 12.96 C 8.26 g/m*3 12.96 C 0 km/h
1169 03-11-2010 20:00:00 13.38 C 8.2 g/m*3 13.38 C 0 km/h
1170 03-11-2010 21:00:00 13.54 C 8.16 g/m*3 13.54 C 0 km/h
1171 03-11-2010 22:00:00 14.1 C 8.16 g/m*3 14.1 C 0 km/h
1172 03-11-2010 23:00:00 14.2 C 8.4 g/m*3 14.2 C 0 km/h
1173 04-11-2010 00:00:00 14.3 C 8.77 g/m*3 14.3 C 0 km/h
1174 04-11-2010 01:00:00 14.74 C 9.06 g/m*3 14.74 C 0 km/h
1175 04-11-2010 02:00:00 14.96 C 9.06 g/m*3 14.96 C 0 km/h
Sensor: Nr:Datum:Temp:Abs-Feuchte:Windchill:Wind:
Aussen-T/F 1176 04-11-2010 03:00:00 15.16 C 9.12 g/m*3 15.16 C 0 km/h
1177 04-11-2010 04:00:00 15.22 C 9.3 g/m*3 15.22 C 0 km/h
1178 04-11-2010 05:00:00 15.54 C 9.41 g/m*3 15.54 C 0 km/h
1179 04-11-2010 06:00:00 15.7 C 9.61 g/m*3 15.7 C 0 km/h
1180 04-11-2010 07:00:00 15.92 C 9.52 g/m*3 15.92 C 0 km/h
1181 04-11-2010 08:00:00 16.2 C 9.43 g/m*3 16.2 C 0 km/h
1182 04-11-2010 09:00:00 16.64 C 9.06 g/m*3 16.64 C 0 km/h
1183 04-11-2010 10:00:00 17.24 C 8.84 g/m*3 17.24 C 0 km/h
1184 04-11-2010 11:00:00 17.82 C 8.45 g/m*3 17.82 C 0 km/h
1185 04-11-2010 12:00:00 18.44 C 8.17 g/m*3 18.44 C 0 km/h
1186 04-11-2010 13:00:00 18.54 C 8.18 g/m*3 18.54 C 0 km/h
1187 04-11-2010 14:00:00 18.44 C 8.01 g/m*3 18.44 C 0 km/h
1188 04-11-2010 15:00:00 18.24 C 8.13 g/m*3 18.24 C 0 km/h
1189 04-11-2010 16:00:00 17.52 C 8.42 g/m*3 17.52 C 0 km/h
1190 04-11-2010 17:00:00 16.92 C 8.44 g/m*3 16.92 C 0 km/h
1191 04-11-2010 18:00:00 16.78 C 8.43 g/m*3 16.78 C 0 km/h
1192 04-11-2010 19:00:00 16.92 C 8.47 g/m*3 16.92 C 0 km/h
1193 04-11-2010 20:00:00 16.12 C 8.12 g/m*3 16.12 C 0 km/h
1194 04-11-2010 21:00:00 15.74 C 8.05 g/m*3 15.74 C 0 km/h
1195 04-11-2010 22:00:00 15.38 C 7.87 g/m*3 15.38 C 0 km/h
1196 04-11-2010 23:00:00 15.4 C 7.88 g/m*3 15.4 C 0 km/h
1197 05-11-2010 00:00:00 15.34 C 7.88 g/m*3 15.34 C 0 km/h
1198 05-11-2010 01:00:00 15.14 C 7.53 g/m*3 15.14 C 0 km/h
1199 05-11-2010 02:00:00 14.74 C 7.45 g/m*3 14.74 C 0 km/h
1200 05-11-2010 03:00:00 14.46 C 7.37 g/m*3 14.46 C 0 km/h
Sensor: Nr:Datum:Temp:Abs-Feuchte:Windchill:Wind:
Aussen-T/F 1201 05-11-2010 04:00:00 14.2 C 7.38 g/m*3 14.2 C 0 km/h
1202 05-11-2010 05:00:00 14.14 C 7.18 g/m*3 14.14 C 0 km/h
1203 05-11-2010 06:00:00 13.82 C 7.13 g/m*3 13.82 C 0 km/h
1204 05-11-2010 07:00:00 13.46 C 6.95 g/m*3 13.46 C 0 km/h
1205 05-11-2010 08:00:00 13.88 C 6.61 g/m*3 13.88 C 0 km/h
1206 05-11-2010 09:00:00 14.52 C 6.72 g/m*3 14.52 C 0 km/h
1207 05-11-2010 10:00:00 14.9 C 6.88 g/m*3 14.9 C 0 km/h
1208 05-11-2010 11:00:00 15.22 C 6.99 g/m*3 15.22 C 0 km/h
1209 05-11-2010 12:00:00 15.14 C 7.09 g/m*3 15.14 C 0 km/h
1210 05-11-2010 13:00:00 15.1 C 7.1 g/m*3 15.1 C 0 km/h
1211 05-11-2010 14:00:00 14.8 C 7.4 g/m*3 14.8 C 0 km/h
1212 05-11-2010 15:00:00 14.6 C 7.48 g/m*3 14.6 C 0 km/h
1213 05-11-2010 16:00:00 14.56 C 7.49 g/m*3 14.56 C 0 km/h
1214 05-11-2010 17:00:00 14.64 C 7.55 g/m*3 14.64 C 0 km/h
1215 05-11-2010 18:00:00 14.76 C 7.58 g/m*3 14.76 C 0 km/h
1216 05-11-2010 19:00:00 14.36 C 7.57 g/m*3 14.36 C 0 km/h
1217 05-11-2010 20:00:00 14.44 C 7.58 g/m*3 14.44 C 0 km/h
1218 05-11-2010 21:00:00 14.28 C 7.61 g/m*3 14.28 C 0 km/h
1219 05-11-2010 22:00:00 14.02 C 7.58 g/m*3 14.02 C 0 km/h
1220 05-11-2010 23:00:00 13.94 C 7.57 g/m*3 13.94 C 0 km/h
1221 06-11-2010 00:00:00 14.04 C 7.57 g/m*3 14.04 C 0 km/h
1222 06-11-2010 01:00:00 14.02 C 7.61 g/m*3 14.02 C 0 km/h
1223 06-11-2010 02:00:00 13.38 C 7.69 g/m*3 13.38 C 0 km/h
1224 06-11-2010 03:00:00 12.9 C 7.98 g/m*3 12.9 C 0 km/h
1225 06-11-2010 04:00:00 12.78 C 8.12 g/m*3 12.78 C 0 km/h
Sensor: Nr:Datum:Temp:Abs-Feuchte:Windchill:Wind:
Aussen-T/F 1226 06-11-2010 05:00:00 13.12 C 8 g/m*3 13.12 C 0 km/h
1227 06-11-2010 06:00:00 13.46 C 7.86 g/m*3 13.46 C 0 km/h
1228 06-11-2010 07:00:00 13.48 C 7.57 g/m*3 13.48 C 0 km/h
1229 06-11-2010 08:00:00 13.34 C 7.5 g/m*3 13.34 C 0 km/h
1230 06-11-2010 09:00:00 11.92 C 7.55 g/m*3 11.92 C 0 km/h
1231 06-11-2010 10:00:00 10.18 C 7.93 g/m*3 10.18 C 0 km/h
1232 06-11-2010 11:00:00 10.58 C 8.19 g/m*3 10.58 C 0 km/h
1233 06-11-2010 12:00:00 9.78 C 7.67 g/m*3 9.78 C 0 km/h
1234 06-11-2010 13:00:00 9.08 C 7.46 g/m*3 9.08 C 0 km/h
1235 06-11-2010 14:00:00 8.92 C 7.67 g/m*3 8.92 C 0 km/h
1236 06-11-2010 15:00:00 8.64 C 7.67 g/m*3 8.64 C 0 km/h
1237 06-11-2010 16:00:00 8.2 C 7.54 g/m*3 8.2 C 0 km/h
1238 06-11-2010 17:00:00 7.84 C 7.49 g/m*3 7.84 C 0 km/h
1239 06-11-2010 18:00:00 7.44 C 7.34 g/m*3 7.44 C 0 km/h
1240 06-11-2010 19:00:00 7.42 C 7.41 g/m*3 7.42 C 0 km/h
1241 06-11-2010 20:00:00 7.2 C 7.3 g/m*3 7.2 C 0 km/h
1242 06-11-2010 21:00:00 7.26 C 7.33 g/m*3 7.26 C 0 km/h
1243 06-11-2010 22:00:00 7.48 C 7.43 g/m*3 7.48 C 0 km/h
1244 06-11-2010 23:00:00 7.36 C 7.38 g/m*3 7.36 C 0 km/h
1245 07-11-2010 00:00:00 7.22 C 7.31 g/m*3 7.22 C 0 km/h
1246 07-11-2010 01:00:00 7.18 C 7.29 g/m*3 7.18 C 0 km/h
1247 07-11-2010 02:00:00 6.98 C 7.24 g/m*3 6.98 C 0 km/h
1248 07-11-2010 03:00:00 7.3 C 7.4 g/m*3 7.3 C 0 km/h
1249 07-11-2010 04:00:00 7.18 C 7.34 g/m*3 7.18 C 0 km/h
1250 07-11-2010 05:00:00 6.8 C 7.19 g/m*3 6.8 C 0 km/h
Sensor: Nr:Datum:Temp:Abs-Feuchte:Windchill:Wind:
Aussen-T/F 1251 07-11-2010 06:00:00 6.48 C 7.04 g/m*3 6.48 C 0 km/h
1252 07-11-2010 07:00:00 6.7 C 7.14 g/m*3 6.7 C 0 km/h
1253 07-11-2010 08:00:00 7.16 C 7.28 g/m*3 7.16 C 0 km/h
1254 07-11-2010 09:00:00 7.46 C 7.47 g/m*3 7.46 C 0 km/h
1255 07-11-2010 10:00:00 7.82 C 7.68 g/m*3 7.82 C 0 km/h
1256 07-11-2010 11:00:00 8.06 C 7.67 g/m*3 8.06 C 0 km/h
1257 07-11-2010 12:00:00 8.74 C 7.87 g/m*3 8.74 C 0 km/h
1258 07-11-2010 13:00:00 8.48 C 7.5 g/m*3 8.48 C 0 km/h
1259 07-11-2010 14:00:00 8.22 C 7.43 g/m*3 8.22 C 0 km/h
1260 07-11-2010 15:00:00 7.5 C 7.17 g/m*3 7.5 C 0 km/h
1261 07-11-2010 16:00:00 6.82 C 6.97 g/m*3 6.82 C 0 km/h
1262 07-11-2010 17:00:00 6.76 C 7.02 g/m*3 6.76 C 0 km/h
1263 07-11-2010 18:00:00 6.58 C 6.94 g/m*3 6.58 C 0 km/h
1264 07-11-2010 19:00:00 5.72 C 6.61 g/m*3 5.72 C 0 km/h
1265 07-11-2010 20:00:00 5.18 C 6.4 g/m*3 5.18 C 0 km/h
1266 07-11-2010 21:00:00 4.98 C 6.32 g/m*3 4.98 C 0 km/h
1267 07-11-2010 22:00:00 4.9 C 6.32 g/m*3 4.9 C 0 km/h
1268 07-11-2010 23:00:00 4.64 C 6.22 g/m*3 4.64 C 0 km/h
1269 08-11-2010 00:00:00 4.04 C 5.95 g/m*3 4.04 C 0 km/h
1270 08-11-2010 01:00:00 4.12 C 5.97 g/m*3 4.12 C 0 km/h
1271 08-11-2010 02:00:00 4.04 C 5.97 g/m*3 4.04 C 0 km/h
1272 08-11-2010 03:00:00 4.46 C 6.16 g/m*3 4.46 C 0 km/h
1273 08-11-2010 04:00:00 4.4 C 6.14 g/m*3 4.4 C 0 km/h
1274 08-11-2010 05:00:00 4.6 C 6.22 g/m*3 4.6 C 0 km/h
1275 08-11-2010 06:00:00 4.86 C 6.33 g/m*3 4.86 C 0 km/h
Sensor: Nr:Datum:Temp:Abs-Feuchte:Windchill:Wind:
Aussen-T/F 1276 08-11-2010 07:00:00 4.74 C 6.26 g/m*3 4.74 C 0 km/h
1277 08-11-2010 08:00:00 4.96 C 6.34 g/m*3 4.96 C 0 km/h
1278 08-11-2010 09:00:00 5.84 C 6.58 g/m*3 5.84 C 0 km/h
1279 08-11-2010 10:00:00 7.08 C 6.5 g/m*3 7.08 C 0 km/h
1280 08-11-2010 11:00:00 7.26 C 5.75 g/m*3 7.26 C 0 km/h
1281 08-11-2010 12:00:00 6.78 C 5.3 g/m*3 6.78 C 0 km/h
1282 08-11-2010 13:00:00 7.24 C 5.15 g/m*3 7.24 C 0 km/h
1283 08-11-2010 14:00:00 6.88 C 4.74 g/m*3 6.88 C 0 km/h
1284 08-11-2010 15:00:00 5.6 C 4.67 g/m*3 5.6 C 0 km/h
1285 08-11-2010 16:00:00 2.98 C 4.87 g/m*3 2.98 C 0 km/h
1286 08-11-2010 17:00:00 2.08 C 4.85 g/m*3 2.08 C 0 km/h
1287 08-11-2010 18:00:00 1.46 C 4.79 g/m*3 1.46 C 0 km/h
1288 08-11-2010 19:00:00 2.26 C 5.11 g/m*3 2.26 C 0 km/h
1289 08-11-2010 20:00:00 3.5 C 5.42 g/m*3 3.5 C 0 km/h
1290 08-11-2010 21:00:00 3.9 C 5.56 g/m*3 3.9 C 0 km/h
1291 08-11-2010 22:00:00 4.22 C 5.72 g/m*3 4.22 C 0 km/h
1292 08-11-2010 23:00:00 4.44 C 5.62 g/m*3 4.44 C 0 km/h
1293 09-11-2010 00:00:00 4.24 C 5.65 g/m*3 4.24 C 0 km/h
1294 09-11-2010 01:00:00 4.2 C 5.73 g/m*3 4.2 C 0 km/h
1295 09-11-2010 02:00:00 4.2 C 5.79 g/m*3 4.2 C 0 km/h
1296 09-11-2010 03:00:00 4.46 C 5.97 g/m*3 4.46 C 0 km/h
1297 09-11-2010 04:00:00 4.44 C 5.96 g/m*3 4.44 C 0 km/h
1298 09-11-2010 05:00:00 4.74 C 6.08 g/m*3 4.74 C 0 km/h
1299 09-11-2010 06:00:00 5.1 C 6.16 g/m*3 5.1 C 0 km/h
1300 09-11-2010 07:00:00 5.58 C 6.24 g/m*3 5.58 C 0 km/h
Sensor: Nr:Datum:Temp:Abs-Feuchte:Windchill:Wind:
Aussen-T/F 1301 09-11-2010 08:00:00 6.42 C 6.09 g/m*3 6.42 C 0 km/h
1302 09-11-2010 09:00:00 6.9 C 6.1 g/m*3 6.9 C 0 km/h
1303 09-11-2010 10:00:00 7.9 C 6.26 g/m*3 7.9 C 0 km/h
1304 09-11-2010 11:00:00 9.16 C 6.29 g/m*3 9.16 C 0 km/h
1305 09-11-2010 12:00:00 9.52 C 6.43 g/m*3 9.52 C 0 km/h
1306 09-11-2010 13:00:00 9.66 C 6.47 g/m*3 9.66 C 0 km/h
1307 09-11-2010 14:00:00 8.86 C 6.85 g/m*3 8.86 C 0 km/h
1308 09-11-2010 15:00:00 8.42 C 7.07 g/m*3 8.42 C 0 km/h
1309 09-11-2010 16:00:00 7.92 C 7.19 g/m*3 7.92 C 0 km/h
1310 09-11-2010 17:00:00 7.3 C 7.05 g/m*3 7.3 C 0 km/h
1311 09-11-2010 18:00:00 6.64 C 6.83 g/m*3 6.64 C 0 km/h
1312 09-11-2010 19:00:00 6.86 C 7.02 g/m*3 6.86 C 0 km/h
1313 09-11-2010 20:00:00 6.78 C 7.03 g/m*3 6.78 C 0 km/h
1314 09-11-2010 21:00:00 6.84 C 7.05 g/m*3 6.84 C 0 km/h
1315 09-11-2010 22:00:00 6.78 C 7.03 g/m*3 6.78 C 0 km/h
1316 09-11-2010 23:00:00 6.84 C 7.05 g/m*3 6.84 C 0 km/h
1317 10-11-2010 00:00:00 6.56 C 6.93 g/m*3 6.56 C 0 km/h
1318 10-11-2010 01:00:00 6.92 C 7.14 g/m*3 6.92 C 0 km/h
1319 10-11-2010 02:00:00 6.9 C 7.14 g/m*3 6.9 C 0 km/h
1320 10-11-2010 03:00:00 7.1 C 7.18 g/m*3 7.1 C 0 km/h
1321 10-11-2010 04:00:00 6.88 C 7.12 g/m*3 6.88 C 0 km/h
1322 10-11-2010 05:00:00 6.9 C 7.13 g/m*3 6.9 C 0 km/h
1323 10-11-2010 06:00:00 6.82 C 7.09 g/m*3 6.82 C 0 km/h
1324 10-11-2010 07:00:00 6.34 C 6.87 g/m*3 6.34 C 0 km/h
1325 10-11-2010 08:00:00 6.72 C 7.05 g/m*3 6.72 C 0 km/h
Sensor: Nr:Datum:Temp:Abs-Feuchte:Windchill:Wind:
Aussen-T/F 1326 10-11-2010 09:00:00 8.22 C 7.56 g/m*3 8.22 C 0 km/h
1327 10-11-2010 10:00:00 9.6 C 6.93 g/m*3 9.6 C 0 km/h
1328 10-11-2010 11:00:00 9.64 C 6.48 g/m*3 9.64 C 0 km/h
1329 10-11-2010 12:00:00 10.18 C 6.48 g/m*3 10.18 C 0 km/h
1330 10-11-2010 13:00:00 11.08 C 6.16 g/m*3 11.08 C 0 km/h
1331 10-11-2010 14:00:00 10.52 C 6.02 g/m*3 10.52 C 0 km/h
1332 10-11-2010 15:00:00 7.86 C 6.41 g/m*3 7.86 C 0 km/h
1333 10-11-2010 16:00:00 6.24 C 6.18 g/m*3 6.24 C 0 km/h
1334 10-11-2010 17:00:00 5.94 C 5.81 g/m*3 5.94 C 0 km/h
1335 10-11-2010 18:00:00 5.22 C 5.67 g/m*3 5.22 C 0 km/h
1336 10-11-2010 19:00:00 5.2 C 5.63 g/m*3 5.2 C 0 km/h
1337 10-11-2010 20:00:00 5.34 C 5.5 g/m*3 5.34 C 0 km/h
1338 10-11-2010 21:00:00 4.46 C 5.52 g/m*3 4.46 C 0 km/h
1339 10-11-2010 22:00:00 4.55 C 5.59 g/m*3 4.55 C 0 km/h
1340 10-11-2010 23:00:00 4.3 C 5.34 g/m*3 4.3 C 0 km/h
1341 11-11-2010 00:00:00 4.6 C 5.29 g/m*3 4.6 C 0 km/h
1342 11-11-2010 01:00:00 4.5 C 5.44 g/m*3 4.5 C 0 km/h
1343 11-11-2010 02:00:00 5.02 C 5.42 g/m*3 5.02 C 0 km/h
1344 11-11-2010 03:00:00 4.84 C 5.23 g/m*3 4.84 C 0 km/h
1345 11-11-2010 04:00:00 4.3 C 5.24 g/m*3 4.3 C 0 km/h
1346 11-11-2010 05:00:00 4.12 C 5.2 g/m*3 4.12 C 0 km/h
1347 11-11-2010 06:00:00 3.7 C 5.01 g/m*3 3.7 C 0 km/h
1348 11-11-2010 07:00:00 3.56 C 4.98 g/m*3 3.56 C 0 km/h
1349 11-11-2010 08:00:00 2.32 C 4.71 g/m*3 2.32 C 0 km/h
1350 11-11-2010 09:00:00 3.66 C 5.28 g/m*3 3.66 C 0 km/h
Sensor: Nr:Datum:Temp:Abs-Feuchte:Windchill:Wind:
Aussen-T/F 1351 11-11-2010 10:00:00 5.58 C 4.59 g/m*3 5.58 C 0 km/h
1352 11-11-2010 11:00:00 6.94 C 3.78 g/m*3 6.94 C 0 km/h
1353 11-11-2010 12:00:00 7.46 C 3.98 g/m*3 7.46 C 0 km/h
1354 11-11-2010 13:00:00 7.7 C 4.15 g/m*3 7.7 C 0 km/h
1355 11-11-2010 14:00:00 7.36 C 4.24 g/m*3 7.36 C 0 km/h
1356 11-11-2010 15:00:00 6.8 C 4.45 g/m*3 6.8 C 0 km/h
1357 11-11-2010 16:00:00 5.54 C 5.08 g/m*3 5.54 C 0 km/h
1358 11-11-2010 17:00:00 5.28 C 5.48 g/m*3 5.28 C 0 km/h
1359 11-11-2010 18:00:00 5.64 C 5.87 g/m*3 5.64 C 0 km/h
1360 11-11-2010 19:00:00 6.22 C 6.27 g/m*3 6.22 C 0 km/h
1361 11-11-2010 20:00:00 7.5 C 6.34 g/m*3 7.5 C 0 km/h
1362 11-11-2010 21:00:00 8.44 C 6.57 g/m*3 8.44 C 0 km/h
1363 11-11-2010 22:00:00 9.34 C 7.23 g/m*3 9.34 C 0 km/h
1364 11-11-2010 23:00:00 9.78 C 7.69 g/m*3 9.78 C 0 km/h
1365 12-11-2010 00:00:00 9.74 C 6.82 g/m*3 9.74 C 0 km/h
1366 12-11-2010 01:00:00 9.84 C 5.93 g/m*3 9.84 C 0 km/h
1367 12-11-2010 02:00:00 9.88 C 5.63 g/m*3 9.88 C 0 km/h
1368 12-11-2010 03:00:00 9.6 C 5.81 g/m*3 9.6 C 0 km/h
1369 12-11-2010 04:00:00 9.8 C 5.6 g/m*3 9.8 C 0 km/h
1370 12-11-2010 05:00:00 9.94 C 5.77 g/m*3 9.94 C 0 km/h
1371 12-11-2010 06:00:00 10.62 C 5.77 g/m*3 10.62 C 0 km/h
1372 12-11-2010 07:00:00 10.62 C 5.8 g/m*3 10.62 C 0 km/h
1373 12-11-2010 08:00:00 10.7 C 5.81 g/m*3 10.7 C 0 km/h
1374 12-11-2010 09:00:00 10.84 C 5.85 g/m*3 10.84 C 0 km/h
1375 12-11-2010 10:00:00 10.7 C 6.11 g/m*3 10.7 C 0 km/h
Sensor: Nr:Datum:Temp:Abs-Feuchte:Windchill:Wind:
Aussen-T/F 1376 12-11-2010 11:00:00 11.42 C 6.08 g/m*3 11.42 C 0 km/h
1377 12-11-2010 12:00:00 11.88 C 5.99 g/m*3 11.88 C 0 km/h
1378 12-11-2010 13:00:00 11.64 C 6.29 g/m*3 11.64 C 0 km/h
1379 12-11-2010 14:00:00 11.6 C 6.55 g/m*3 11.6 C 0 km/h
1380 12-11-2010 15:00:00 11.6 C 6.57 g/m*3 11.6 C 0 km/h
1381 12-11-2010 16:00:00 11.54 C 6.73 g/m*3 11.54 C 0 km/h
1382 12-11-2010 17:00:00 11.16 C 7.2 g/m*3 11.16 C 0 km/h
1383 12-11-2010 18:00:00 10.48 C 7.73 g/m*3 10.48 C 0 km/h
1384 12-11-2010 19:00:00 10.52 C 8.29 g/m*3 10.52 C 0 km/h
1385 12-11-2010 20:00:00 11.52 C 8.77 g/m*3 11.52 C 0 km/h
1386 12-11-2010 21:00:00 12.16 C 9.28 g/m*3 12.16 C 0 km/h
1387 12-11-2010 22:00:00 13.3 C 9.22 g/m*3 13.3 C 0 km/h
1388 12-11-2010 23:00:00 13.88 C 8.69 g/m*3 13.88 C 0 km/h
1389 13-11-2010 00:00:00 13.82 C 8.85 g/m*3 13.82 C 0 km/h
1390 13-11-2010 01:00:00 13.86 C 9.06 g/m*3 13.86 C 0 km/h
1391 13-11-2010 02:00:00 13.78 C 9.28 g/m*3 13.78 C 0 km/h
1392 13-11-2010 03:00:00 14.2 C 9.33 g/m*3 14.2 C 0 km/h
1393 13-11-2010 04:00:00 14.14 C 9.25 g/m*3 14.14 C 0 km/h
1394 13-11-2010 05:00:00 14.5 C 9.1 g/m*3 14.5 C 0 km/h
1395 13-11-2010 06:00:00 14.62 C 9.05 g/m*3 14.62 C 0 km/h
1396 13-11-2010 07:00:00 14.72 C 9 g/m*3 14.72 C 0 km/h
1397 13-11-2010 08:00:00 14.72 C 9 g/m*3 14.72 C 0 km/h
1398 13-11-2010 09:00:00 14.18 C 9.15 g/m*3 14.18 C 0 km/h
1399 13-11-2010 10:00:00 14.32 C 9.23 g/m*3 14.32 C 0 km/h
1400 13-11-2010 11:00:00 14.76 C 9 g/m*3 14.76 C 0 km/h
Sensor: Nr:Datum:Temp:Abs-Feuchte:Windchill:Wind:
Aussen-T/F 1401 13-11-2010 12:00:00 14.8 C 8.84 g/m*3 14.8 C 0 km/h
1402 13-11-2010 13:00:00 14.76 C 8.85 g/m*3 14.76 C 0 km/h
1403 13-11-2010 14:00:00 14.78 C 8.68 g/m*3 14.78 C 0 km/h
1404 13-11-2010 15:00:00 14.82 C 8.55 g/m*3 14.82 C 0 km/h
1405 13-11-2010 16:00:00 14.68 C 8.68 g/m*3 14.68 C 0 km/h
1406 13-11-2010 17:00:00 14.26 C 8.75 g/m*3 14.26 C 0 km/h
1407 13-11-2010 18:00:00 14.68 C 8.7 g/m*3 14.68 C 0 km/h
1408 13-11-2010 19:00:00 14.94 C 8.51 g/m*3 14.94 C 0 km/h
1409 13-11-2010 20:00:00 15 C 8.28 g/m*3 15 C 0 km/h
1410 13-11-2010 21:00:00 14.52 C 8.39 g/m*3 14.52 C 0 km/h
1411 13-11-2010 22:00:00 14.86 C 8.11 g/m*3 14.86 C 0 km/h
1412 13-11-2010 23:00:00 14.74 C 8.05 g/m*3 14.74 C 0 km/h
1413 14-11-2010 00:00:00 15.08 C 8.07 g/m*3 15.08 C 0 km/h
1414 14-11-2010 01:00:00 14.24 C 8.27 g/m*3 14.24 C 0 km/h
1415 14-11-2010 02:00:00 13.58 C 8.7 g/m*3 13.58 C 0 km/h
1416 14-11-2010 03:00:00 14.36 C 8.39 g/m*3 14.36 C 0 km/h
1417 14-11-2010 04:00:00 14.02 C 8.38 g/m*3 14.02 C 0 km/h
1418 14-11-2010 05:00:00 13.9 C 8.46 g/m*3 13.9 C 0 km/h
1419 14-11-2010 06:00:00 13.42 C 8.36 g/m*3 13.42 C 0 km/h
1420 14-11-2010 07:00:00 11.92 C 8 g/m*3 11.92 C 0 km/h
1421 14-11-2010 08:00:00 12.66 C 7.53 g/m*3 12.66 C 0 km/h
1422 14-11-2010 09:00:00 14.28 C 7.24 g/m*3 14.28 C 0 km/h
1423 14-11-2010 10:00:00 15.02 C 7.22 g/m*3 15.02 C 0 km/h
1424 14-11-2010 11:00:00 15.44 C 7.22 g/m*3 15.44 C 0 km/h
1425 14-11-2010 12:00:00 16.16 C 7.4 g/m*3 16.16 C 0 km/h
Sensor: Nr:Datum:Temp:Abs-Feuchte:Windchill:Wind:
Aussen-T/F 1426 14-11-2010 13:00:00 17.46 C 7.44 g/m*3 17.46 C 0 km/h
1427 14-11-2010 14:00:00 17.64 C 7.25 g/m*3 17.64 C 0 km/h
1428 14-11-2010 15:00:00 17.7 C 7.12 g/m*3 17.7 C 0 km/h
1429 14-11-2010 16:00:00 15.72 C 7.64 g/m*3 15.72 C 0 km/h
1430 14-11-2010 17:00:00 14.74 C 8.13 g/m*3 14.74 C 0 km/h
1431 14-11-2010 18:00:00 14.16 C 8.02 g/m*3 14.16 C 0 km/h
1432 14-11-2010 19:00:00 13.96 C 7.89 g/m*3 13.96 C 0 km/h
1433 14-11-2010 20:00:00 14.02 C 7.68 g/m*3 14.02 C 0 km/h
1434 14-11-2010 21:00:00 13.92 C 7.27 g/m*3 13.92 C 0 km/h
1435 14-11-2010 22:00:00 13.78 C 7.09 g/m*3 13.78 C 0 km/h
1436 14-11-2010 23:00:00 13.42 C 6.94 g/m*3 13.42 C 0 km/h
1437 15-11-2010 00:00:00 12.88 C 6.98 g/m*3 12.88 C 0 km/h
1438 15-11-2010 01:00:00 12.22 C 6.91 g/m*3 12.22 C 0 km/h
1439 15-11-2010 02:00:00 11.78 C 6.92 g/m*3 11.78 C 0 km/h
1440 15-11-2010 03:00:00 10.9 C 7.02 g/m*3 10.9 C 0 km/h
1441 15-11-2010 04:00:00 10.24 C 6.95 g/m*3 10.24 C 0 km/h
1442 15-11-2010 05:00:00 9.92 C 6.53 g/m*3 9.92 C 0 km/h
1443 15-11-2010 06:00:00 9.34 C 6.27 g/m*3 9.34 C 0 km/h
1444 15-11-2010 07:00:00 8.96 C 6.42 g/m*3 8.96 C 0 km/h
1445 15-11-2010 08:00:00 9.1 C 6.28 g/m*3 9.1 C 0 km/h
1446 15-11-2010 09:00:00 9.16 C 6.07 g/m*3 9.16 C 0 km/h
1447 15-11-2010 10:00:00 9.82 C 5.87 g/m*3 9.82 C 0 km/h
1448 15-11-2010 11:00:00 10.3 C 5.75 g/m*3 10.3 C 0 km/h
1449 15-11-2010 12:00:00 10.84 C 5.57 g/m*3 10.84 C 0 km/h
1450 15-11-2010 13:00:00 10.48 C 5.62 g/m*3 10.48 C 0 km/h
Sensor: Nr:Datum:Temp:Abs-Feuchte:Windchill:Wind:
Aussen-T/F 1451 15-11-2010 14:00:00 10.24 C 5.5 g/m*3 10.24 C 0 km/h
1452 15-11-2010 15:00:00 9.68 C 5.54 g/m*3 9.68 C 0 km/h
1453 15-11-2010 16:00:00 8.96 C 5.7 g/m*3 8.96 C 0 km/h
1454 15-11-2010 17:00:00 8.16 C 5.81 g/m*3 8.16 C 0 km/h
1455 15-11-2010 18:00:00 8.14 C 5.89 g/m*3 8.14 C 0 km/h
1456 15-11-2010 19:00:00 7.98 C 5.88 g/m*3 7.98 C 0 km/h
1457 15-11-2010 20:00:00 7.6 C 5.95 g/m*3 7.6 C 0 km/h
1458 15-11-2010 21:00:00 7.16 C 5.93 g/m*3 7.16 C 0 km/h
1459 15-11-2010 22:00:00 6.94 C 5.97 g/m*3 6.94 C 0 km/h
1460 15-11-2010 23:00:00 6.68 C 5.99 g/m*3 6.68 C 0 km/h
1461 16-11-2010 00:00:00 5.88 C 5.95 g/m*3 5.88 C 0 km/h
1462 16-11-2010 01:00:00 5.2 C 5.87 g/m*3 5.2 C 0 km/h
1463 16-11-2010 02:00:00 5.48 C 6.1 g/m*3 5.48 C 0 km/h
1464 16-11-2010 03:00:00 5.86 C 6.21 g/m*3 5.86 C 0 km/h
1465 16-11-2010 04:00:00 5.22 C 5.97 g/m*3 5.22 C 0 km/h
1466 16-11-2010 05:00:00 5.5 C 6.07 g/m*3 5.5 C 0 km/h
1467 16-11-2010 06:00:00 5.22 C 5.83 g/m*3 5.22 C 0 km/h
1468 16-11-2010 07:00:00 5.18 C 5.79 g/m*3 5.18 C 0 km/h
1469 16-11-2010 08:00:00 5.42 C 5.83 g/m*3 5.42 C 0 km/h
1470 16-11-2010 09:00:00 5.88 C 5.82 g/m*3 5.88 C 0 km/h
1471 16-11-2010 10:00:00 6.26 C 5.74 g/m*3 6.26 C 0 km/h
1472 16-11-2010 11:00:00 6.56 C 5.65 g/m*3 6.56 C 0 km/h
1473 16-11-2010 12:00:00 7.34 C 5.53 g/m*3 7.34 C 0 km/h
1474 16-11-2010 13:00:00 7.54 C 5.59 g/m*3 7.54 C 0 km/h
1475 16-11-2010 14:00:00 7.68 C 5.52 g/m*3 7.68 C 0 km/h
Sensor: Nr:Datum:Temp:Abs-Feuchte:Windchill:Wind:
Aussen-T/F 1476 16-11-2010 15:00:00 7.24 C 5.51 g/m*3 7.24 C 0 km/h
1477 16-11-2010 16:00:00 7.08 C 5.53 g/m*3 7.08 C 0 km/h
1478 16-11-2010 17:00:00 6.8 C 5.64 g/m*3 6.8 C 0 km/h
1479 16-11-2010 18:00:00 6.22 C 5.67 g/m*3 6.22 C 0 km/h
1480 16-11-2010 19:00:00 5.92 C 5.75 g/m*3 5.92 C 0 km/h
1481 16-11-2010 20:00:00 5.56 C 5.71 g/m*3 5.56 C 0 km/h
1482 16-11-2010 21:00:00 5.42 C 5.66 g/m*3 5.42 C 0 km/h
1483 16-11-2010 22:00:00 5.24 C 5.61 g/m*3 5.24 C 0 km/h
1484 16-11-2010 23:00:00 4.6 C 5.58 g/m*3 4.6 C 0 km/h
1485 17-11-2010 00:00:00 4.78 C 5.72 g/m*3 4.78 C 0 km/h
1486 17-11-2010 01:00:00 5.08 C 5.62 g/m*3 5.08 C 0 km/h
1487 17-11-2010 02:00:00 5 C 5.59 g/m*3 5 C 0 km/h
1488 17-11-2010 03:00:00 4.92 C 5.66 g/m*3 4.92 C 0 km/h
1489 17-11-2010 04:00:00 4.8 C 5.65 g/m*3 4.8 C 0 km/h
1490 17-11-2010 05:00:00 4.74 C 5.72 g/m*3 4.74 C 0 km/h
1491 17-11-2010 06:00:00 4.7 C 5.73 g/m*3 4.7 C 0 km/h
1492 17-11-2010 07:00:00 4.72 C 5.67 g/m*3 4.72 C 0 km/h
1493 17-11-2010 08:00:00 5.1 C 4.98 g/m*3 5.1 C 0 km/h
1494 17-11-2010 09:00:00 5.56 C 4.64 g/m*3 5.56 C 0 km/h
1495 17-11-2010 10:00:00 5.78 C 4.66 g/m*3 5.78 C 0 km/h
1496 17-11-2010 11:00:00 6.04 C 4.6 g/m*3 6.04 C 0 km/h
1497 17-11-2010 12:00:00 6.28 C 4.6 g/m*3 6.28 C 0 km/h
1498 17-11-2010 13:00:00 6.54 C 4.63 g/m*3 6.54 C 0 km/h
1499 17-11-2010 14:00:00 6.18 C 4.55 g/m*3 6.18 C 0 km/h
1500 17-11-2010 15:00:00 5.86 C 4.67 g/m*3 5.86 C 0 km/h
Sensor: Nr:Datum:Temp:Abs-Feuchte:Windchill:Wind:
Aussen-T/F 1501 17-11-2010 16:00:00 5.54 C 4.8 g/m*3 5.54 C 0 km/h
1502 17-11-2010 17:00:00 5.26 C 4.91 g/m*3 5.26 C 0 km/h
1503 17-11-2010 18:00:00 5.2 C 4.97 g/m*3 5.2 C 0 km/h
1504 17-11-2010 19:00:00 5.3 C 4.99 g/m*3 5.3 C 0 km/h
1505 17-11-2010 20:00:00 5.3 C 5.12 g/m*3 5.3 C 0 km/h
1506 17-11-2010 21:00:00 5.26 C 5.21 g/m*3 5.26 C 0 km/h
1507 17-11-2010 22:00:00 5.04 C 5.34 g/m*3 5.04 C 0 km/h
1508 17-11-2010 23:00:00 4.52 C 5.58 g/m*3 4.52 C 0 km/h
1509 18-11-2010 00:00:00 4.56 C 5.74 g/m*3 4.56 C 0 km/h
1510 18-11-2010 01:00:00 4.28 C 5.71 g/m*3 4.28 C 0 km/h
1511 18-11-2010 02:00:00 4.28 C 5.77 g/m*3 4.28 C 0 km/h
1512 18-11-2010 03:00:00 4.06 C 5.75 g/m*3 4.06 C 0 km/h
1513 18-11-2010 04:00:00 4.28 C 5.88 g/m*3 4.28 C 0 km/h
1514 18-11-2010 05:00:00 4.28 C 5.89 g/m*3 4.28 C 0 km/h
1515 18-11-2010 06:00:00 3.92 C 5.81 g/m*3 3.92 C 0 km/h
1516 18-11-2010 07:00:00 3.98 C 5.84 g/m*3 3.98 C 0 km/h
1517 18-11-2010 08:00:00 4.22 C 5.94 g/m*3 4.22 C 0 km/h
1518 18-11-2010 09:00:00 4.94 C 6.2 g/m*3 4.94 C 0 km/h
1519 18-11-2010 10:00:00 5.96 C 6.24 g/m*3 5.96 C 0 km/h
1520 18-11-2010 11:00:00 6.9 C 6.02 g/m*3 6.9 C 0 km/h
1521 18-11-2010 12:00:00 7.54 C 5.92 g/m*3 7.54 C 0 km/h
1522 18-11-2010 13:00:00 8.36 C 5.7 g/m*3 8.36 C 0 km/h
1523 18-11-2010 14:00:00 8.14 C 5.32 g/m*3 8.14 C 0 km/h
1524 18-11-2010 15:00:00 7.76 C 5.39 g/m*3 7.76 C 0 km/h
1525 18-11-2010 16:00:00 6.9 C 5.77 g/m*3 6.9 C 0 km/h
Sensor: Nr:Datum:Temp:Abs-Feuchte:Windchill:Wind:
Aussen-T/F 1526 18-11-2010 17:00:00 6.12 C 5.87 g/m*3 6.12 C 0 km/h
1527 18-11-2010 18:00:00 6.2 C 6.02 g/m*3 6.2 C 0 km/h
1528 18-11-2010 19:00:00 5.94 C 6.01 g/m*3 5.94 C 0 km/h
1529 18-11-2010 20:00:00 5.58 C 6.23 g/m*3 5.58 C 0 km/h
1530 18-11-2010 21:00:00 5.52 C 6.27 g/m*3 5.52 C 0 km/h
1531 18-11-2010 22:00:00 5.5 C 6.32 g/m*3 5.5 C 0 km/h
1532 18-11-2010 23:00:00 5.64 C 6.42 g/m*3 5.64 C 0 km/h
1533 19-11-2010 00:00:00 5.66 C 6.26 g/m*3 5.66 C 0 km/h
1534 19-11-2010 01:00:00 5.58 C 6.11 g/m*3 5.58 C 0 km/h
1535 19-11-2010 02:00:00 5.34 C 6.17 g/m*3 5.34 C 0 km/h
1536 19-11-2010 03:00:00 5.12 C 6.08 g/m*3 5.12 C 0 km/h
1537 19-11-2010 04:00:00 5.04 C 6.05 g/m*3 5.04 C 0 km/h
1538 19-11-2010 05:00:00 4.94 C 6.04 g/m*3 4.94 C 0 km/h
1539 19-11-2010 06:00:00 4.9 C 6.02 g/m*3 4.9 C 0 km/h
1540 19-11-2010 07:00:00 5.14 C 6.1 g/m*3 5.14 C 0 km/h
1541 19-11-2010 08:00:00 5.44 C 6.23 g/m*3 5.44 C 0 km/h
1542 19-11-2010 09:00:00 6.32 C 6.26 g/m*3 6.32 C 0 km/h
1543 19-11-2010 10:00:00 7.62 C 6.28 g/m*3 7.62 C 0 km/h
1544 19-11-2010 11:00:00 8.84 C 6.06 g/m*3 8.84 C 0 km/h
1545 19-11-2010 12:00:00 9.52 C 5.85 g/m*3 9.52 C 0 km/h
1546 19-11-2010 13:00:00 9.74 C 5.82 g/m*3 9.74 C 0 km/h
1547 19-11-2010 14:00:00 9.94 C 5.69 g/m*3 9.94 C 0 km/h
1548 19-11-2010 15:00:00 8.5 C 5.93 g/m*3 8.5 C 0 km/h
1549 19-11-2010 16:00:00 7.04 C 6.23 g/m*3 7.04 C 0 km/h
1550 19-11-2010 17:00:00 7.58 C 6.31 g/m*3 7.58 C 0 km/h
Sensor: Nr:Datum:Temp:Abs-Feuchte:Windchill:Wind:
Aussen-T/F 1551 19-11-2010 18:00:00 7.62 C 6.32 g/m*3 7.62 C 0 km/h
1552 19-11-2010 19:00:00 6.96 C 6.23 g/m*3 6.96 C 0 km/h
1553 19-11-2010 20:00:00 5.1 C 5.91 g/m*3 5.1 C 0 km/h
1554 19-11-2010 21:00:00 3.86 C 5.62 g/m*3 3.86 C 0 km/h
1555 19-11-2010 22:00:00 3.92 C 5.74 g/m*3 3.92 C 0 km/h
1556 19-11-2010 23:00:00 4.54 C 6.02 g/m*3 4.54 C 0 km/h
1557 20-11-2010 00:00:00 4.04 C 5.86 g/m*3 4.04 C 0 km/h
1558 20-11-2010 01:00:00 4.18 C 5.92 g/m*3 4.18 C 0 km/h
1559 20-11-2010 02:00:00 1.94 C 5.11 g/m*3 1.94 C 0 km/h
1560 20-11-2010 03:00:00 1.34 C 4.91 g/m*3 1.34 C 0 km/h
1561 20-11-2010 04:00:00 2.64 C 5.37 g/m*3 2.64 C 0 km/h
1562 20-11-2010 05:00:00 3.34 C 5.65 g/m*3 3.34 C 0 km/h
1563 20-11-2010 06:00:00 3.76 C 5.82 g/m*3 3.76 C 0 km/h
1564 20-11-2010 07:00:00 4.06 C 5.94 g/m*3 4.06 C 0 km/h
1565 20-11-2010 08:00:00 4.4 C 6.07 g/m*3 4.4 C 0 km/h
1566 20-11-2010 09:00:00 5.04 C 6.32 g/m*3 5.04 C 0 km/h
1567 20-11-2010 10:00:00 6.02 C 6.63 g/m*3 6.02 C 0 km/h
1568 20-11-2010 11:00:00 7.46 C 6.75 g/m*3 7.46 C 0 km/h
1569 20-11-2010 12:00:00 9.1 C 6.67 g/m*3 9.1 C 0 km/h
1570 20-11-2010 13:00:00 8.88 C 6.37 g/m*3 8.88 C 0 km/h
1571 20-11-2010 14:00:00 8.78 C 6.29 g/m*3 8.78 C 0 km/h
1572 20-11-2010 15:00:00 7.76 C 6.19 g/m*3 7.76 C 0 km/h
1573 20-11-2010 16:00:00 5.34 C 5.87 g/m*3 5.34 C 0 km/h
1574 20-11-2010 17:00:00 4.6 C 5.9 g/m*3 4.6 C 0 km/h
1575 20-11-2010 18:00:00 4.4 C 5.9 g/m*3 4.4 C 0 km/h
Sensor: Nr:Datum:Temp:Abs-Feuchte:Windchill:Wind:
Aussen-T/F 1576 20-11-2010 19:00:00 3.92 C 5.75 g/m*3 3.92 C 0 km/h
1577 20-11-2010 20:00:00 3.28 C 5.55 g/m*3 3.28 C 0 km/h
1578 20-11-2010 21:00:00 3.26 C 5.57 g/m*3 3.26 C 0 km/h
1579 20-11-2010 22:00:00 4.32 C 5.98 g/m*3 4.32 C 0 km/h
1580 20-11-2010 23:00:00 4.12 C 5.92 g/m*3 4.12 C 0 km/h
1581 21-11-2010 00:00:00 4.32 C 5.96 g/m*3 4.32 C 0 km/h
1582 21-11-2010 01:00:00 4.48 C 5.75 g/m*3 4.48 C 0 km/h
1583 21-11-2010 02:00:00 4.44 C 5.43 g/m*3 4.44 C 0 km/h
1584 21-11-2010 03:00:00 4.5 C 5.28 g/m*3 4.5 C 0 km/h
1585 21-11-2010 04:00:00 4.56 C 5.06 g/m*3 4.56 C 0 km/h
1586 21-11-2010 05:00:00 4.5 C 4.94 g/m*3 4.5 C 0 km/h
1587 21-11-2010 06:00:00 4.4 C 4.92 g/m*3 4.4 C 0 km/h
1588 21-11-2010 07:00:00 4.38 C 5.05 g/m*3 4.38 C 0 km/h
1589 21-11-2010 08:00:00 4.7 C 5.14 g/m*3 4.7 C 0 km/h
1590 21-11-2010 09:00:00 5 C 4.92 g/m*3 5 C 0 km/h
1591 21-11-2010 10:00:00 5.36 C 4.82 g/m*3 5.36 C 0 km/h
1592 21-11-2010 11:00:00 5.3 C 4.63 g/m*3 5.3 C 0 km/h
1593 21-11-2010 12:00:00 5.1 C 4.53 g/m*3 5.1 C 0 km/h
1594 21-11-2010 13:00:00 5.12 C 4.45 g/m*3 5.12 C 0 km/h
1595 21-11-2010 14:00:00 4.88 C 4.42 g/m*3 4.88 C 0 km/h
1596 21-11-2010 15:00:00 4.44 C 4.28 g/m*3 4.44 C 0 km/h
1597 21-11-2010 16:00:00 4.16 C 4.38 g/m*3 4.16 C 0 km/h
1598 21-11-2010 17:00:00 3.96 C 4.5 g/m*3 3.96 C 0 km/h
1599 21-11-2010 18:00:00 3.96 C 4.57 g/m*3 3.96 C 0 km/h
1600 21-11-2010 19:00:00 4.06 C 4.61 g/m*3 4.06 C 0 km/h
Sensor: Nr:Datum:Temp:Abs-Feuchte:Windchill:Wind:
Aussen-T/F 1601 21-11-2010 20:00:00 4.3 C 4.55 g/m*3 4.3 C 0 km/h
1602 21-11-2010 21:00:00 4.16 C 4.5 g/m*3 4.16 C 0 km/h
1603 21-11-2010 22:00:00 3.76 C 4.66 g/m*3 3.76 C 0 km/h
1604 21-11-2010 23:00:00 3.76 C 4.81 g/m*3 3.76 C 0 km/h
1605 22-11-2010 00:00:00 4.06 C 4.93 g/m*3 4.06 C 0 km/h
1606 22-11-2010 01:00:00 4.08 C 4.92 g/m*3 4.08 C 0 km/h
1607 22-11-2010 02:00:00 4.16 C 4.97 g/m*3 4.16 C 0 km/h
1608 22-11-2010 03:00:00 4.46 C 5.06 g/m*3 4.46 C 0 km/h
1609 22-11-2010 04:00:00 4.86 C 5.01 g/m*3 4.86 C 0 km/h
1610 22-11-2010 05:00:00 4.88 C 4.95 g/m*3 4.88 C 0 km/h
1611 22-11-2010 06:00:00 4.7 C 4.86 g/m*3 4.7 C 0 km/h
1612 22-11-2010 07:00:00 4.64 C 4.79 g/m*3 4.64 C 0 km/h
1613 22-11-2010 08:00:00 4.64 C 4.8 g/m*3 4.64 C 0 km/h
1614 22-11-2010 09:00:00 4.74 C 4.81 g/m*3 4.74 C 0 km/h
1615 22-11-2010 10:00:00 4.82 C 4.86 g/m*3 4.82 C 0 km/h
1616 22-11-2010 11:00:00 4.48 C 4.95 g/m*3 4.48 C 0 km/h
1617 22-11-2010 12:00:00 4.2 C 5.21 g/m*3 4.2 C 0 km/h
1618 22-11-2010 13:00:00 4.24 C 5.38 g/m*3 4.24 C 0 km/h
1619 22-11-2010 14:00:00 4.78 C 5.25 g/m*3 4.78 C 0 km/h
1620 22-11-2010 15:00:00 4.9 C 5.02 g/m*3 4.9 C 0 km/h
1621 22-11-2010 16:00:00 4.32 C 4.91 g/m*3 4.32 C 0 km/h
1622 22-11-2010 17:00:00 4.04 C 4.99 g/m*3 4.04 C 0 km/h
1623 22-11-2010 18:00:00 4.28 C 4.95 g/m*3 4.28 C 0 km/h
1624 22-11-2010 19:00:00 4.38 C 4.88 g/m*3 4.38 C 0 km/h
1625 22-11-2010 20:00:00 4.42 C 4.8 g/m*3 4.42 C 0 km/h
Sensor: Nr:Datum:Temp:Abs-Feuchte:Windchill:Wind:
Aussen-T/F 1626 22-11-2010 21:00:00 4.4 C 4.82 g/m*3 4.4 C 0 km/h
1627 22-11-2010 22:00:00 4.5 C 4.89 g/m*3 4.5 C 0 km/h
1628 22-11-2010 23:00:00 4.4 C 4.94 g/m*3 4.4 C 0 km/h
1629 23-11-2010 00:00:00 4.44 C 4.94 g/m*3 4.44 C 0 km/h
1630 23-11-2010 01:00:00 4.46 C 4.85 g/m*3 4.46 C 0 km/h
1631 23-11-2010 02:00:00 4.26 C 4.62 g/m*3 4.26 C 0 km/h
1632 23-11-2010 03:00:00 4.08 C 4.42 g/m*3 4.08 C 0 km/h
1633 23-11-2010 04:00:00 3.68 C 4.52 g/m*3 3.68 C 0 km/h
1634 23-11-2010 05:00:00 3.2 C 4.65 g/m*3 3.2 C 0 km/h
1635 23-11-2010 06:00:00 2.66 C 5.01 g/m*3 2.66 C 0 km/h
1636 23-11-2010 07:00:00 2.96 C 5.08 g/m*3 2.96 C 0 km/h
1637 23-11-2010 08:00:00 3.18 C 4.89 g/m*3 3.18 C 0 km/h
1638 23-11-2010 09:00:00 3.68 C 4.75 g/m*3 3.68 C 0 km/h
1639 23-11-2010 10:00:00 4.26 C 4.58 g/m*3 4.26 C 0 km/h
1640 23-11-2010 11:00:00 4.72 C 4.66 g/m*3 4.72 C 0 km/h
1641 23-11-2010 12:00:00 5.28 C 4.47 g/m*3 5.28 C 0 km/h
1642 23-11-2010 13:00:00 6.04 C 4.37 g/m*3 6.04 C 0 km/h
1643 23-11-2010 14:00:00 5.74 C 4.25 g/m*3 5.74 C 0 km/h
1644 23-11-2010 15:00:00 5.54 C 4.25 g/m*3 5.54 C 0 km/h
1645 23-11-2010 16:00:00 5.38 C 4.47 g/m*3 5.38 C 0 km/h
1646 23-11-2010 17:00:00 5.32 C 4.46 g/m*3 5.32 C 0 km/h
1647 23-11-2010 18:00:00 5.28 C 4.42 g/m*3 5.28 C 0 km/h
1648 23-11-2010 19:00:00 5.2 C 4.5 g/m*3 5.2 C 0 km/h
1649 23-11-2010 20:00:00 5.14 C 4.46 g/m*3 5.14 C 0 km/h
1650 23-11-2010 21:00:00 4.98 C 4.33 g/m*3 4.98 C 0 km/h
Sensor: Nr:Datum:Temp:Abs-Feuchte:Windchill:Wind:
Aussen-T/F 1651 23-11-2010 22:00:00 4.95 C 4.33 g/m*3 4.95 C 0 km/h
1652 23-11-2010 23:00:00 4.64 C 4.39 g/m*3 4.64 C 0 km/h
1653 24-11-2010 00:00:00 4.32 C 4.44 g/m*3 4.32 C 0 km/h
1654 24-11-2010 01:00:00 3.96 C 4.46 g/m*3 3.96 C 0 km/h
1655 24-11-2010 02:00:00 3.42 C 4.5 g/m*3 3.42 C 0 km/h
1656 24-11-2010 03:00:00 3.52 C 4.62 g/m*3 3.52 C 0 km/h
1657 24-11-2010 04:00:00 3.46 C 4.72 g/m*3 3.46 C 0 km/h
1658 24-11-2010 05:00:00 2.92 C 5 g/m*3 2.92 C 0 km/h
1659 24-11-2010 06:00:00 3.2 C 5.07 g/m*3 3.2 C 0 km/h
1660 24-11-2010 07:00:00 3.34 C 5.01 g/m*3 3.34 C 0 km/h
1661 24-11-2010 08:00:00 3.42 C 5.08 g/m*3 3.42 C 0 km/h
1662 24-11-2010 09:00:00 4.22 C 4.99 g/m*3 4.22 C 0 km/h
1663 24-11-2010 10:00:00 5.22 C 4.7 g/m*3 5.22 C 0 km/h
1664 24-11-2010 11:00:00 5.22 C 4.78 g/m*3 5.22 C 0 km/h
1665 24-11-2010 12:00:00 5.8 C 4.57 g/m*3 5.8 C 0 km/h
1666 24-11-2010 13:00:00 5.36 C 4.61 g/m*3 5.36 C 0 km/h
1667 24-11-2010 14:00:00 4.48 C 5.08 g/m*3 4.48 C 0 km/h
1668 24-11-2010 15:00:00 3.48 C 5.24 g/m*3 3.48 C 0 km/h
1669 24-11-2010 16:00:00 3.3 C 5.22 g/m*3 3.3 C 0 km/h
1670 24-11-2010 17:00:00 2.28 C 4.88 g/m*3 2.28 C 0 km/h
1671 24-11-2010 18:00:00 1.64 C 4.9 g/m*3 1.64 C 0 km/h
1672 24-11-2010 19:00:00 2.02 C 5.09 g/m*3 2.02 C 0 km/h
1673 24-11-2010 20:00:00 1.42 C 4.91 g/m*3 1.42 C 0 km/h
1674 24-11-2010 21:00:00 1.42 C 4.91 g/m*3 1.42 C 0 km/h
1675 24-11-2010 22:00:00 2.14 C 5.13 g/m*3 2.14 C 0 km/h
Sensor: Nr:Datum:Temp:Abs-Feuchte:Windchill:Wind:
Aussen-T/F 1676 24-11-2010 23:00:00 2.4 C 5.06 g/m*3 2.4 C 0 km/h
1677 25-11-2010 00:00:00 2.5 C 4.93 g/m*3 2.5 C 0 km/h
1678 25-11-2010 01:00:00 2.94 C 4.82 g/m*3 2.94 C 0 km/h
1679 25-11-2010 02:00:00 2.76 C 4.55 g/m*3 2.76 C 0 km/h
1680 25-11-2010 03:00:00 2.82 C 4.43 g/m*3 2.82 C 0 km/h
1681 25-11-2010 04:00:00 2.02 C 4.2 g/m*3 2.02 C 0 km/h
1682 25-11-2010 05:00:00 1.3 C 4.08 g/m*3 1.3 C 0 km/h
1683 25-11-2010 06:00:00 0.66 C 4.12 g/m*3 0.66 C 0 km/h
1684 25-11-2010 07:00:00 0.06 C 4.24 g/m*3 0.06 C 0 km/h
1685 25-11-2010 08:00:00 -0.28 C 4.23 g/m*3 -0.28 C 0 km/h
1686 25-11-2010 09:00:00 0.58 C 4.45 g/m*3 0.58 C 0 km/h
1687 25-11-2010 10:00:00 0.8 C 4.42 g/m*3 0.8 C 0 km/h
1688 25-11-2010 11:00:00 1.76 C 4.53 g/m*3 1.76 C 0 km/h
1689 25-11-2010 12:00:00 2 C 4.51 g/m*3 2 C 0 km/h
1690 25-11-2010 13:00:00 3.48 C 4.22 g/m*3 3.48 C 0 km/h
1691 25-11-2010 14:00:00 3.66 C 4.03 g/m*3 3.66 C 0 km/h
1692 25-11-2010 15:00:00 3.28 C 3.96 g/m*3 3.28 C 0 km/h
1693 25-11-2010 16:00:00 2.04 C 4.21 g/m*3 2.04 C 0 km/h
1694 25-11-2010 17:00:00 2.04 C 4.35 g/m*3 2.04 C 0 km/h
1695 25-11-2010 18:00:00 1.74 C 4.42 g/m*3 1.74 C 0 km/h
1696 25-11-2010 19:00:00 0.98 C 4.38 g/m*3 0.98 C 0 km/h
1697 25-11-2010 20:00:00 0.7 C 4.4 g/m*3 0.7 C 0 km/h
1698 25-11-2010 21:00:00 1.24 C 4.5 g/m*3 1.24 C 0 km/h
1699 25-11-2010 22:00:00 1.34 C 4.49 g/m*3 1.34 C 0 km/h
1700 25-11-2010 23:00:00 1.36 C 4.52 g/m*3 1.36 C 0 km/h
Sensor: Nr:Datum:Temp:Abs-Feuchte:Windchill:Wind:
Aussen-T/F 1701 26-11-2010 00:00:00 1.4 C 4.51 g/m*3 1.4 C 0 km/h
1702 26-11-2010 01:00:00 1.06 C 4.49 g/m*3 1.06 C 0 km/h
1703 26-11-2010 02:00:00 1.06 C 4.47 g/m*3 1.06 C 0 km/h
1704 26-11-2010 03:00:00 0.74 C 4.37 g/m*3 0.74 C 0 km/h
1705 26-11-2010 04:00:00 0.32 C 4.4 g/m*3 0.32 C 0 km/h
1706 26-11-2010 05:00:00 0.26 C 4.47 g/m*3 0.26 C 0 km/h
1707 26-11-2010 06:00:00 0.22 C 4.49 g/m*3 0.22 C 0 km/h
1708 26-11-2010 07:00:00 0 C 4.46 g/m*3 0 C 0 km/h
1709 26-11-2010 08:00:00 0.04 C 4.49 g/m*3 0.04 C 0 km/h
1710 26-11-2010 09:00:00 0.14 C 4.55 g/m*3 0.14 C 0 km/h
1711 26-11-2010 10:00:00 0.58 C 4.66 g/m*3 0.58 C 0 km/h
1712 26-11-2010 11:00:00 1.12 C 4.61 g/m*3 1.12 C 0 km/h
1713 26-11-2010 12:00:00 0.84 C 4.41 g/m*3 0.84 C 0 km/h
1714 26-11-2010 13:00:00 0.9 C 4.37 g/m*3 0.9 C 0 km/h
1715 26-11-2010 14:00:00 1.6 C 4.17 g/m*3 1.6 C 0 km/h
1716 26-11-2010 15:00:00 0.8 C 3.8 g/m*3 0.8 C 0 km/h
1717 26-11-2010 16:00:00 -1.48 C 3.69 g/m*3 -1.48 C 0 km/h
1718 26-11-2010 17:00:00 -2.36 C 3.65 g/m*3 -2.36 C 0 km/h
1719 26-11-2010 18:00:00 -1.38 C 4 g/m*3 -1.38 C 0 km/h
1720 26-11-2010 19:00:00 -1.54 C 3.96 g/m*3 -1.54 C 0 km/h
1721 26-11-2010 20:00:00 -1.96 C 3.85 g/m*3 -1.96 C 0 km/h
1722 26-11-2010 21:00:00 -2.34 C 3.75 g/m*3 -2.34 C 0 km/h
1723 26-11-2010 22:00:00 -3.24 C 3.5 g/m*3 -3.24 C 0 km/h
1724 26-11-2010 23:00:00 -3.76 C 3.35 g/m*3 -3.76 C 0 km/h
1725 27-11-2010 00:00:00 -4.08 C 3.27 g/m*3 -4.08 C 0 km/h
Sensor: Nr:Datum:Temp:Abs-Feuchte:Windchill:Wind:
Aussen-T/F 1726 27-11-2010 01:00:00 -3.54 C 3.39 g/m*3 -3.54 C 0 km/h
1727 27-11-2010 02:00:00 -3.94 C 3.25 g/m*3 -3.94 C 0 km/h
1728 27-11-2010 03:00:00 -3.16 C 3.46 g/m*3 -3.16 C 0 km/h
1729 27-11-2010 04:00:00 -4.12 C 3.19 g/m*3 -4.12 C 0 km/h
1730 27-11-2010 05:00:00 -4.28 C 3.15 g/m*3 -4.28 C 0 km/h
1731 27-11-2010 06:00:00 -3.52 C 3.35 g/m*3 -3.52 C 0 km/h
1732 27-11-2010 07:00:00 -3.54 C 3.33 g/m*3 -3.54 C 0 km/h
1733 27-11-2010 08:00:00 -3 C 3.48 g/m*3 -3 C 0 km/h
1734 27-11-2010 09:00:00 -1.8 C 3.8 g/m*3 -1.8 C 0 km/h
1735 27-11-2010 10:00:00 -0.84 C 4.06 g/m*3 -0.84 C 0 km/h
1736 27-11-2010 11:00:00 -0.2 C 4.19 g/m*3 -0.2 C 0 km/h
1737 27-11-2010 12:00:00 0.38 C 4 g/m*3 0.38 C 0 km/h
1738 27-11-2010 13:00:00 0.86 C 3.91 g/m*3 0.86 C 0 km/h
1739 27-11-2010 14:00:00 1.48 C 3.79 g/m*3 1.48 C 0 km/h
1740 27-11-2010 15:00:00 0.76 C 3.8 g/m*3 0.76 C 0 km/h
1741 27-11-2010 16:00:00 -0.72 C 3.59 g/m*3 -0.72 C 0 km/h
1742 27-11-2010 17:00:00 -0.86 C 3.65 g/m*3 -0.86 C 0 km/h
1743 27-11-2010 18:00:00 -1.58 C 3.59 g/m*3 -1.58 C 0 km/h
1744 27-11-2010 19:00:00 -0.92 C 3.75 g/m*3 -0.92 C 0 km/h
1745 27-11-2010 20:00:00 -1.5 C 3.52 g/m*3 -1.5 C 0 km/h
1746 27-11-2010 21:00:00 -3.1 C 3.27 g/m*3 -3.1 C 0 km/h
1747 27-11-2010 22:00:00 -3.36 C 3.3 g/m*3 -3.36 C 0 km/h
1748 27-11-2010 23:00:00 -3.22 C 3.31 g/m*3 -3.22 C 0 km/h
1749 28-11-2010 00:00:00 -3.76 C 3.2 g/m*3 -3.76 C 0 km/h
1750 28-11-2010 01:00:00 -2.76 C 3.5 g/m*3 -2.76 C 0 km/h
Sensor: Nr:Datum:Temp:Abs-Feuchte:Windchill:Wind:
Aussen-T/F 1751 28-11-2010 02:00:00 -2.18 C 3.6 g/m*3 -2.18 C 0 km/h
1752 28-11-2010 03:00:00 -3.4 C 3.22 g/m*3 -3.4 C 0 km/h
1753 28-11-2010 04:00:00 -2.64 C 3.47 g/m*3 -2.64 C 0 km/h
1754 28-11-2010 05:00:00 -2.72 C 3.42 g/m*3 -2.72 C 0 km/h
1755 28-11-2010 06:00:00 -2.18 C 3.56 g/m*3 -2.18 C 0 km/h
1756 28-11-2010 07:00:00 -1.88 C 3.58 g/m*3 -1.88 C 0 km/h
1757 28-11-2010 08:00:00 -1.66 C 3.6 g/m*3 -1.66 C 0 km/h
1758 28-11-2010 09:00:00 -1.18 C 3.62 g/m*3 -1.18 C 0 km/h
1759 28-11-2010 10:00:00 -0.38 C 3.63 g/m*3 -0.38 C 0 km/h
1760 28-11-2010 11:00:00 -0.18 C 3.55 g/m*3 -0.18 C 0 km/h
1761 28-11-2010 12:00:00 0.02 C 3.59 g/m*3 0.02 C 0 km/h
1762 28-11-2010 13:00:00 0.14 C 3.63 g/m*3 0.14 C 0 km/h
1763 28-11-2010 14:00:00 0.5 C 3.69 g/m*3 0.5 C 0 km/h
1764 28-11-2010 15:00:00 0.54 C 3.71 g/m*3 0.54 C 0 km/h
1765 28-11-2010 16:00:00 -0.34 C 3.68 g/m*3 -0.34 C 0 km/h
1766 28-11-2010 17:00:00 -0.64 C 3.67 g/m*3 -0.64 C 0 km/h
1767 28-11-2010 18:00:00 -1.1 C 3.71 g/m*3 -1.1 C 0 km/h
1768 28-11-2010 19:00:00 -0.7 C 3.7 g/m*3 -0.7 C 0 km/h
1769 28-11-2010 20:00:00 -0.8 C 3.55 g/m*3 -0.8 C 0 km/h
1770 28-11-2010 21:00:00 -0.86 C 3.46 g/m*3 -0.86 C 0 km/h
1771 28-11-2010 22:00:00 -1.6 C 3.36 g/m*3 -1.6 C 0 km/h
1772 28-11-2010 23:00:00 -2.04 C 3.42 g/m*3 -2.04 C 0 km/h
1773 29-11-2010 00:00:00 -1.48 C 3.37 g/m*3 -1.48 C 0 km/h
1774 29-11-2010 01:00:00 -1.8 C 3.31 g/m*3 -1.8 C 0 km/h
1775 29-11-2010 02:00:00 -1.88 C 3.26 g/m*3 -1.88 C 0 km/h
Sensor: Nr:Datum:Temp:Abs-Feuchte:Windchill:Wind:
Aussen-T/F 1776 29-11-2010 03:00:00 -2 C 3.21 g/m*3 -2 C 0 km/h
1777 29-11-2010 04:00:00 -2 C 3.22 g/m*3 -2 C 0 km/h
1778 29-11-2010 05:00:00 -1.82 C 3.27 g/m*3 -1.82 C 0 km/h
1779 29-11-2010 06:00:00 -1.68 C 3.31 g/m*3 -1.68 C 0 km/h
1780 29-11-2010 07:00:00 -1.66 C 3.29 g/m*3 -1.66 C 0 km/h
1781 29-11-2010 08:00:00 -1.6 C 3.33 g/m*3 -1.6 C 0 km/h
1782 29-11-2010 09:00:00 -1.38 C 3.3 g/m*3 -1.38 C 0 km/h
1783 29-11-2010 10:00:00 -1.3 C 3.37 g/m*3 -1.3 C 0 km/h
1784 29-11-2010 11:00:00 -1.22 C 3.45 g/m*3 -1.22 C 0 km/h
1785 29-11-2010 12:00:00 -1.14 C 3.52 g/m*3 -1.14 C 0 km/h
1786 29-11-2010 13:00:00 -0.84 C 3.57 g/m*3 -0.84 C 0 km/h
1787 29-11-2010 14:00:00 -1.02 C 3.67 g/m*3 -1.02 C 0 km/h
1788 29-11-2010 15:00:00 -1.3 C 3.72 g/m*3 -1.3 C 0 km/h
1789 29-11-2010 16:00:00 -1.46 C 3.73 g/m*3 -1.46 C 0 km/h
1790 29-11-2010 17:00:00 -1.68 C 3.71 g/m*3 -1.68 C 0 km/h
1791 29-11-2010 18:00:00 -1.68 C 3.75 g/m*3 -1.68 C 0 km/h
1792 29-11-2010 19:00:00 -1.7 C 3.75 g/m*3 -1.7 C 0 km/h
1793 29-11-2010 20:00:00 -1.64 C 3.8 g/m*3 -1.64 C 0 km/h
1794 29-11-2010 21:00:00 -1.66 C 3.8 g/m*3 -1.66 C 0 km/h
1795 29-11-2010 22:00:00 -1.78 C 3.77 g/m*3 -1.78 C 0 km/h
1796 29-11-2010 23:00:00 -1.68 C 3.83 g/m*3 -1.68 C 0 km/h
1797 30-11-2010 00:00:00 -1.78 C 3.81 g/m*3 -1.78 C 0 km/h
1798 30-11-2010 01:00:00 -1.96 C 3.76 g/m*3 -1.96 C 0 km/h
1799 30-11-2010 02:00:00 -1.68 C 3.84 g/m*3 -1.68 C 0 km/h
1800 30-11-2010 03:00:00 -1.7 C 3.82 g/m*3 -1.7 C 0 km/h
Sensor: Nr:Datum:Temp:Abs-Feuchte:Windchill:Wind:
Aussen-T/F 1801 30-11-2010 04:00:00 -2.36 C 3.62 g/m*3 -2.36 C 0 km/h
1802 30-11-2010 05:00:00 -2.4 C 3.62 g/m*3 -2.4 C 0 km/h
1803 30-11-2010 06:00:00 -2.26 C 3.66 g/m*3 -2.26 C 0 km/h
1804 30-11-2010 07:00:00 -2.28 C 3.66 g/m*3 -2.28 C 0 km/h
1805 30-11-2010 08:00:00 -2.08 C 3.66 g/m*3 -2.08 C 0 km/h
1806 30-11-2010 09:00:00 -2 C 3.58 g/m*3 -2 C 0 km/h
1807 30-11-2010 10:00:00 -1.82 C 3.51 g/m*3 -1.82 C 0 km/h
1808 30-11-2010 11:00:00 -1.5 C 3.44 g/m*3 -1.5 C 0 km/h
1809 30-11-2010 12:00:00 -1.3 C 3.28 g/m*3 -1.3 C 0 km/h
1810 30-11-2010 13:00:00 -1.08 C 3.25 g/m*3 -1.08 C 0 km/h
1811 30-11-2010 14:00:00 -1.32 C 3.2 g/m*3 -1.32 C 0 km/h
1812 30-11-2010 15:00:00 -1.48 C 3.23 g/m*3 -1.48 C 0 km/h
1813 30-11-2010 16:00:00 -1.5 C 3.23 g/m*3 -1.5 C 0 km/h
1814 30-11-2010 17:00:00 -1.92 C 3.21 g/m*3 -1.92 C 0 km/h
1815 30-11-2010 18:00:00 -2.1 C 3.18 g/m*3 -2.1 C 0 km/h
1816 30-11-2010 19:00:00 -2.1 C 3.17 g/m*3 -2.1 C 0 km/h
1817 30-11-2010 20:00:00 -2.26 C 3.11 g/m*3 -2.26 C 0 km/h
1818 30-11-2010 21:00:00 -2.4 C 3.05 g/m*3 -2.4 C 0 km/h
1819 30-11-2010 22:00:00 -2.58 C 2.94 g/m*3 -2.58 C 0 km/h
1820 30-11-2010 23:00:00 -2.76 C 2.83 g/m*3 -2.76 C 0 km/h
1821 01-12-2010 00:00:00 -3 C 2.76 g/m*3 -3 C 0 km/h
1822 01-12-2010 01:00:00 -3.3 C 2.67 g/m*3 -3.3 C 0 km/h
1823 01-12-2010 02:00:00 -3.88 C 2.51 g/m*3 -3.88 C 0 km/h
1824 01-12-2010 03:00:00 -4.34 C 2.36 g/m*3 -4.34 C 0 km/h
1825 01-12-2010 04:00:00 -5 C 2.23 g/m*3 -5 C 0 km/h
Sensor: Nr:Datum:Temp:Abs-Feuchte:Windchill:Wind:
Aussen-T/F 1826 01-12-2010 05:00:00 -5.4 C 2.18 g/m*3 -5.4 C 0 km/h
1827 01-12-2010 06:00:00 -5.56 C 2.14 g/m*3 -5.56 C 0 km/h
1828 01-12-2010 07:00:00 -5.9 C 2.05 g/m*3 -5.9 C 0 km/h
1829 01-12-2010 08:00:00 -6.26 C 1.95 g/m*3 -6.26 C 0 km/h
1830 01-12-2010 09:00:00 -5.96 C 1.92 g/m*3 -5.96 C 0 km/h
1831 01-12-2010 10:00:00 -5.54 C 1.95 g/m*3 -5.54 C 0 km/h
1832 01-12-2010 11:00:00 -5.48 C 1.97 g/m*3 -5.48 C 0 km/h
1833 01-12-2010 12:00:00 -5.82 C 1.93 g/m*3 -5.82 C 0 km/h
1834 01-12-2010 13:00:00 -6.1 C 1.85 g/m*3 -6.1 C 0 km/h
1835 01-12-2010 14:00:00 -6.18 C 1.79 g/m*3 -6.18 C 0 km/h
1836 01-12-2010 15:00:00 -6.28 C 1.78 g/m*3 -6.28 C 0 km/h
1837 01-12-2010 16:00:00 -6.58 C 1.75 g/m*3 -6.58 C 0 km/h
1838 01-12-2010 17:00:00 -6.58 C 1.8 g/m*3 -6.58 C 0 km/h
1839 01-12-2010 18:00:00 -6.54 C 1.82 g/m*3 -6.54 C 0 km/h
1840 01-12-2010 19:00:00 -6.58 C 1.81 g/m*3 -6.58 C 0 km/h
1841 01-12-2010 20:00:00 -6.64 C 1.77 g/m*3 -6.64 C 0 km/h
1842 01-12-2010 21:00:00 -6.74 C 1.74 g/m*3 -6.74 C 0 km/h
1843 01-12-2010 22:00:00 -6.86 C 1.73 g/m*3 -6.86 C 0 km/h
1844 01-12-2010 23:00:00 -7.06 C 1.77 g/m*3 -7.06 C 0 km/h
1845 02-12-2010 00:00:00 -7.14 C 1.81 g/m*3 -7.14 C 0 km/h
1846 02-12-2010 01:00:00 -7.12 C 1.79 g/m*3 -7.12 C 0 km/h
1847 02-12-2010 02:00:00 -7.28 C 1.71 g/m*3 -7.28 C 0 km/h
1848 02-12-2010 03:00:00 -7.32 C 1.74 g/m*3 -7.32 C 0 km/h
1849 02-12-2010 04:00:00 -7.5 C 1.78 g/m*3 -7.5 C 0 km/h
1850 02-12-2010 05:00:00 -7.64 C 1.79 g/m*3 -7.64 C 0 km/h
Sensor: Nr:Datum:Temp:Abs-Feuchte:Windchill:Wind:
Aussen-T/F 1851 02-12-2010 06:00:00 -7.76 C 1.84 g/m*3 -7.76 C 0 km/h
1852 02-12-2010 07:00:00 -7.72 C 1.89 g/m*3 -7.72 C 0 km/h
1853 02-12-2010 08:00:00 -7.7 C 1.87 g/m*3 -7.7 C 0 km/h
1854 02-12-2010 09:00:00 -7.1 C 1.96 g/m*3 -7.1 C 0 km/h
1855 02-12-2010 10:00:00 -6.14 C 1.99 g/m*3 -6.14 C 0 km/h
1856 02-12-2010 11:00:00 -5.62 C 2.03 g/m*3 -5.62 C 0 km/h
1857 02-12-2010 12:00:00 -6.08 C 2.05 g/m*3 -6.08 C 0 km/h
1858 02-12-2010 13:00:00 -5.3 C 2.15 g/m*3 -5.3 C 0 km/h
1859 02-12-2010 14:00:00 -5.6 C 2.16 g/m*3 -5.6 C 0 km/h
1860 02-12-2010 15:00:00 -4.74 C 2.28 g/m*3 -4.74 C 0 km/h
1861 02-12-2010 16:00:00 -5.12 C 2.3 g/m*3 -5.12 C 0 km/h
1862 02-12-2010 17:00:00 -7.36 C 2.12 g/m*3 -7.36 C 0 km/h
1863 02-12-2010 18:00:00 -8.02 C 2.2 g/m*3 -8.02 C 0 km/h
1864 02-12-2010 19:00:00 -8.42 C 2.16 g/m*3 -8.42 C 0 km/h
1865 02-12-2010 20:00:00 -8.04 C 2.25 g/m*3 -8.04 C 0 km/h
1866 02-12-2010 21:00:00 -7.54 C 2.33 g/m*3 -7.54 C 0 km/h
1867 02-12-2010 22:00:00 -8.54 C 2.13 g/m*3 -8.54 C 0 km/h
1868 02-12-2010 23:00:00 -7.96 C 2.23 g/m*3 -7.96 C 0 km/h
1869 03-12-2010 00:00:00 -9.88 C 1.86 g/m*3 -9.88 C 0 km/h
1870 03-12-2010 01:00:00 -9.66 C 1.91 g/m*3 -9.66 C 0 km/h
1871 03-12-2010 02:00:00 -9.12 C 2 g/m*3 -9.12 C 0 km/h
1872 03-12-2010 03:00:00 -8.78 C 2.04 g/m*3 -8.78 C 0 km/h
1873 03-12-2010 04:00:00 -8.06 C 2.15 g/m*3 -8.06 C 0 km/h
1874 03-12-2010 05:00:00 -8.68 C 2.03 g/m*3 -8.68 C 0 km/h
1875 03-12-2010 06:00:00 -9.48 C 1.91 g/m*3 -9.48 C 0 km/h
Sensor: Nr:Datum:Temp:Abs-Feuchte:Windchill:Wind:
Aussen-T/F 1876 03-12-2010 07:00:00 -8.92 C 2.03 g/m*3 -8.92 C 0 km/h
1877 03-12-2010 08:00:00 -9.92 C 1.85 g/m*3 -9.92 C 0 km/h
1878 03-12-2010 09:00:00 -9.8 C 1.85 g/m*3 -9.8 C 0 km/h
1879 03-12-2010 10:00:00 -8.1 C 2.05 g/m*3 -8.1 C 0 km/h
1880 03-12-2010 11:00:00 -6.32 C 2.23 g/m*3 -6.32 C 0 km/h
1881 03-12-2010 12:00:00 -5.16 C 2.28 g/m*3 -5.16 C 0 km/h
1882 03-12-2010 13:00:00 -4.74 C 2.32 g/m*3 -4.74 C 0 km/h
1883 03-12-2010 14:00:00 -4.26 C 2.38 g/m*3 -4.26 C 0 km/h
1884 03-12-2010 15:00:00 -4.68 C 2.4 g/m*3 -4.68 C 0 km/h
1885 03-12-2010 16:00:00 -6.18 C 2.37 g/m*3 -6.18 C 0 km/h
1886 03-12-2010 17:00:00 -6.98 C 2.34 g/m*3 -6.98 C 0 km/h
1887 03-12-2010 18:00:00 -7.02 C 2.36 g/m*3 -7.02 C 0 km/h
1888 03-12-2010 19:00:00 -5.74 C 2.63 g/m*3 -5.74 C 0 km/h
1889 03-12-2010 20:00:00 -5.36 C 2.64 g/m*3 -5.36 C 0 km/h
1890 03-12-2010 21:00:00 -5.72 C 2.55 g/m*3 -5.72 C 0 km/h
1891 03-12-2010 22:00:00 -6.78 C 2.39 g/m*3 -6.78 C 0 km/h
1892 03-12-2010 23:00:00 -7.92 C 2.24 g/m*3 -7.92 C 0 km/h
1893 04-12-2010 00:00:00 -8.5 C 2.17 g/m*3 -8.5 C 0 km/h
1894 04-12-2010 01:00:00 -9.1 C 2.06 g/m*3 -9.1 C 0 km/h
1895 04-12-2010 02:00:00 -9.26 C 2.02 g/m*3 -9.26 C 0 km/h
1896 04-12-2010 03:00:00 -9.94 C 1.9 g/m*3 -9.94 C 0 km/h
1897 04-12-2010 04:00:00 -7.96 C 2.24 g/m*3 -7.96 C 0 km/h
1898 04-12-2010 05:00:00 -5.52 C 2.67 g/m*3 -5.52 C 0 km/h
1899 04-12-2010 06:00:00 -4.94 C 2.59 g/m*3 -4.94 C 0 km/h
1900 04-12-2010 07:00:00 -5.14 C 2.58 g/m*3 -5.14 C 0 km/h
Sensor: Nr:Datum:Temp:Abs-Feuchte:Windchill:Wind:
Aussen-T/F 1901 04-12-2010 08:00:00 -3.94 C 2.67 g/m*3 -3.94 C 0 km/h
1902 04-12-2010 09:00:00 -3.1 C 2.58 g/m*3 -3.1 C 0 km/h
1903 04-12-2010 10:00:00 -2.12 C 2.68 g/m*3 -2.12 C 0 km/h
1904 04-12-2010 11:00:00 -1.38 C 2.45 g/m*3 -1.38 C 0 km/h
1905 04-12-2010 12:00:00 -0.86 C 2.46 g/m*3 -0.86 C 0 km/h
1906 04-12-2010 13:00:00 -1.4 C 2.41 g/m*3 -1.4 C 0 km/h
1907 04-12-2010 14:00:00 -1 C 2.47 g/m*3 -1 C 0 km/h
1908 04-12-2010 15:00:00 -0.92 C 2.52 g/m*3 -0.92 C 0 km/h
1909 04-12-2010 16:00:00 -1.22 C 2.64 g/m*3 -1.22 C 0 km/h
1910 04-12-2010 17:00:00 -1.08 C 2.76 g/m*3 -1.08 C 0 km/h
1911 04-12-2010 18:00:00 -0.9 C 2.79 g/m*3 -0.9 C 0 km/h
1912 04-12-2010 19:00:00 -0.92 C 2.79 g/m*3 -0.92 C 0 km/h
1913 04-12-2010 20:00:00 -0.96 C 2.87 g/m*3 -0.96 C 0 km/h
1914 04-12-2010 21:00:00 -1.1 C 3.13 g/m*3 -1.1 C 0 km/h
1915 04-12-2010 22:00:00 -1.18 C 3.46 g/m*3 -1.18 C 0 km/h
1916 04-12-2010 23:00:00 -1.12 C 3.51 g/m*3 -1.12 C 0 km/h
1917 05-12-2010 00:00:00 -0.5 C 3.48 g/m*3 -0.5 C 0 km/h
1918 05-12-2010 01:00:00 0.12 C 3.31 g/m*3 0.12 C 0 km/h
1919 05-12-2010 02:00:00 0.02 C 3.49 g/m*3 0.02 C 0 km/h
1920 05-12-2010 03:00:00 0.12 C 3.53 g/m*3 0.12 C 0 km/h
1921 05-12-2010 04:00:00 0.12 C 3.58 g/m*3 0.12 C 0 km/h
1922 05-12-2010 05:00:00 0.22 C 3.25 g/m*3 0.22 C 0 km/h
1923 05-12-2010 06:00:00 0.22 C 3.02 g/m*3 0.22 C 0 km/h
1924 05-12-2010 07:00:00 -0.08 C 2.91 g/m*3 -0.08 C 0 km/h
1925 05-12-2010 08:00:00 -0.32 C 2.9 g/m*3 -0.32 C 0 km/h
Sensor: Nr:Datum:Temp:Abs-Feuchte:Windchill:Wind:
Aussen-T/F 1926 05-12-2010 09:00:00 0.02 C 2.96 g/m*3 0.02 C 0 km/h
1927 05-12-2010 10:00:00 1.68 C 2.83 g/m*3 1.68 C 0 km/h
1928 05-12-2010 11:00:00 2.54 C 2.77 g/m*3 2.54 C 0 km/h
1929 05-12-2010 12:00:00 3.1 C 2.67 g/m*3 3.1 C 0 km/h
1930 05-12-2010 13:00:00 3.4 C 2.63 g/m*3 3.4 C 0 km/h
1931 05-12-2010 14:00:00 3.24 C 2.6 g/m*3 3.24 C 0 km/h
1932 05-12-2010 15:00:00 2.22 C 3.05 g/m*3 2.22 C 0 km/h
1933 05-12-2010 16:00:00 1.24 C 3.28 g/m*3 1.24 C 0 km/h
1934 05-12-2010 17:00:00 1.38 C 3.4 g/m*3 1.38 C 0 km/h
1935 05-12-2010 18:00:00 0.88 C 3.81 g/m*3 0.88 C 0 km/h
1936 05-12-2010 19:00:00 0.86 C 3.97 g/m*3 0.86 C 0 km/h
1937 05-12-2010 20:00:00 0.62 C 4.08 g/m*3 0.62 C 0 km/h
1938 05-12-2010 21:00:00 0.34 C 4.27 g/m*3 0.34 C 0 km/h
1939 05-12-2010 22:00:00 0.36 C 4.35 g/m*3 0.36 C 0 km/h
1940 05-12-2010 23:00:00 0.2 C 4.33 g/m*3 0.2 C 0 km/h
1941 06-12-2010 00:00:00 0.12 C 4.35 g/m*3 0.12 C 0 km/h
1942 06-12-2010 01:00:00 0.12 C 4.38 g/m*3 0.12 C 0 km/h
1943 06-12-2010 02:00:00 0.1 C 4.39 g/m*3 0.1 C 0 km/h
1944 06-12-2010 03:00:00 0.1 C 4.35 g/m*3 0.1 C 0 km/h
1945 06-12-2010 04:00:00 0.14 C 4.38 g/m*3 0.14 C 0 km/h
1946 06-12-2010 05:00:00 0.04 C 4.33 g/m*3 0.04 C 0 km/h
1947 06-12-2010 06:00:00 0.02 C 4.37 g/m*3 0.02 C 0 km/h
1948 06-12-2010 07:00:00 0 C 4.34 g/m*3 0 C 0 km/h
1949 06-12-2010 08:00:00 0.06 C 4.31 g/m*3 0.06 C 0 km/h
1950 06-12-2010 09:00:00 0.84 C 4.37 g/m*3 0.84 C 0 km/h
Sensor: Nr:Datum:Temp:Abs-Feuchte:Windchill:Wind:
Aussen-T/F 1951 06-12-2010 10:00:00 1.38 C 4.04 g/m*3 1.38 C 0 km/h
1952 06-12-2010 11:00:00 1.88 C 3.94 g/m*3 1.88 C 0 km/h
1953 06-12-2010 12:00:00 2.4 C 3.76 g/m*3 2.4 C 0 km/h
1954 06-12-2010 13:00:00 2.54 C 3.68 g/m*3 2.54 C 0 km/h
1955 06-12-2010 14:00:00 1.9 C 3.59 g/m*3 1.9 C 0 km/h
1956 06-12-2010 15:00:00 0.96 C 3.65 g/m*3 0.96 C 0 km/h
1957 06-12-2010 16:00:00 -0.26 C 3.69 g/m*3 -0.26 C 0 km/h
1958 06-12-2010 17:00:00 -0.68 C 3.73 g/m*3 -0.68 C 0 km/h
1959 06-12-2010 18:00:00 -0.9 C 3.76 g/m*3 -0.9 C 0 km/h
1960 06-12-2010 19:00:00 -0.84 C 3.75 g/m*3 -0.84 C 0 km/h
1961 06-12-2010 20:00:00 -1.14 C 3.67 g/m*3 -1.14 C 0 km/h
1962 06-12-2010 21:00:00 -1.275 C 3.64 g/m*3 -1.27 C 0 km/h
1963 06-12-2010 22:00:00 -1.24 C 3.68 g/m*3 -1.24 C 0 km/h
1964 06-12-2010 23:00:00 -0.68 C 3.74 g/m*3 -0.68 C 0 km/h
1965 07-12-2010 00:00:00 -1.06 C 3.6 g/m*3 -1.06 C 0 km/h
1966 07-12-2010 01:00:00 -1.16 C 3.68 g/m*3 -1.16 C 0 km/h
1967 07-12-2010 02:00:00 -0.56 C 3.77 g/m*3 -0.56 C 0 km/h
1968 07-12-2010 03:00:00 -0.56 C 3.73 g/m*3 -0.56 C 0 km/h
1969 07-12-2010 04:00:00 -0.74 C 3.7 g/m*3 -0.74 C 0 km/h
1970 07-12-2010 05:00:00 -0.94 C 3.68 g/m*3 -0.94 C 0 km/h
1971 07-12-2010 06:00:00 -0.78 C 3.68 g/m*3 -0.78 C 0 km/h
1972 07-12-2010 07:00:00 -1 C 3.57 g/m*3 -1 C 0 km/h
1973 07-12-2010 08:00:00 -0.84 C 3.6 g/m*3 -0.84 C 0 km/h
1974 07-12-2010 09:00:00 -0.4 C 3.61 g/m*3 -0.4 C 0 km/h
1975 07-12-2010 10:00:00 0.18 C 3.6 g/m*3 0.18 C 0 km/h
Sensor: Nr:Datum:Temp:Abs-Feuchte:Windchill:Wind:
Aussen-T/F 1976 07-12-2010 11:00:00 0.56 C 3.61 g/m*3 0.56 C 0 km/h
1977 07-12-2010 12:00:00 1.12 C 3.63 g/m*3 1.12 C 0 km/h
1978 07-12-2010 13:00:00 1.44 C 3.61 g/m*3 1.44 C 0 km/h
1979 07-12-2010 14:00:00 1.06 C 3.67 g/m*3 1.06 C 0 km/h
1980 07-12-2010 15:00:00 0.4 C 3.81 g/m*3 0.4 C 0 km/h
1981 07-12-2010 16:00:00 -0.22 C 4.06 g/m*3 -0.22 C 0 km/h
1982 07-12-2010 17:00:00 -0.3 C 4.2 g/m*3 -0.3 C 0 km/h
1983 07-12-2010 18:00:00 -0.26 C 4.26 g/m*3 -0.26 C 0 km/h
1984 07-12-2010 19:00:00 -0.2 C 4.31 g/m*3 -0.2 C 0 km/h
1985 07-12-2010 20:00:00 -0.16 C 4.36 g/m*3 -0.16 C 0 km/h
1986 07-12-2010 21:00:00 -0.2 C 4.36 g/m*3 -0.2 C 0 km/h
1987 07-12-2010 22:00:00 -0.18 C 4.4 g/m*3 -0.18 C 0 km/h
1988 07-12-2010 23:00:00 -0.2 C 4.4 g/m*3 -0.2 C 0 km/h
1989 08-12-2010 00:00:00 -0.2 C 4.4 g/m*3 -0.2 C 0 km/h
1990 08-12-2010 01:00:00 -0.2 C 4.4 g/m*3 -0.2 C 0 km/h
1991 08-12-2010 02:00:00 -0.16 C 4.41 g/m*3 -0.16 C 0 km/h
1992 08-12-2010 03:00:00 -0.18 C 4.4 g/m*3 -0.18 C 0 km/h
1993 08-12-2010 04:00:00 -0.08 C 4.43 g/m*3 -0.08 C 0 km/h
1994 08-12-2010 05:00:00 -0.08 C 4.46 g/m*3 -0.08 C 0 km/h
1995 08-12-2010 06:00:00 -0.06 C 4.49 g/m*3 -0.06 C 0 km/h
1996 08-12-2010 07:00:00 -0.02 C 4.5 g/m*3 -0.02 C 0 km/h
1997 08-12-2010 08:00:00 0 C 4.51 g/m*3 0 C 0 km/h
1998 08-12-2010 09:00:00 0.08 C 4.53 g/m*3 0.08 C 0 km/h
1999 08-12-2010 10:00:00 0.18 C 4.56 g/m*3 0.18 C 0 km/h
2000 08-12-2010 11:00:00 0.34 C 4.63 g/m*3 0.34 C 0 km/h
Sensor: Nr:Datum:Temp:Abs-Feuchte:Windchill:Wind:
Aussen-T/F 2001 08-12-2010 12:00:00 0.56 C 4.67 g/m*3 0.56 C 0 km/h
2002 08-12-2010 13:00:00 0.62 C 4.58 g/m*3 0.62 C 0 km/h
2003 08-12-2010 14:00:00 0.42 C 4.44 g/m*3 0.42 C 0 km/h
2004 08-12-2010 15:00:00 -0.08 C 4.29 g/m*3 -0.08 C 0 km/h
2005 08-12-2010 16:00:00 -0.3 C 4.26 g/m*3 -0.3 C 0 km/h
2006 08-12-2010 17:00:00 -0.36 C 4.24 g/m*3 -0.36 C 0 km/h
2007 08-12-2010 18:00:00 -0.74 C 4.1 g/m*3 -0.74 C 0 km/h
2008 08-12-2010 19:00:00 -0.92 C 4.05 g/m*3 -0.92 C 0 km/h
2009 08-12-2010 20:00:00 -1.06 C 4.02 g/m*3 -1.06 C 0 km/h
2010 08-12-2010 21:00:00 -1.24 C 3.94 g/m*3 -1.24 C 0 km/h
2011 08-12-2010 22:00:00 -1.44 C 3.82 g/m*3 -1.44 C 0 km/h
2012 08-12-2010 23:00:00 -1.3 C 3.74 g/m*3 -1.3 C 0 km/h
2013 09-12-2010 00:00:00 -1.32 C 3.64 g/m*3 -1.32 C 0 km/h
2014 09-12-2010 01:00:00 -1.52 C 3.56 g/m*3 -1.52 C 0 km/h
2015 09-12-2010 02:00:00 -1.74 C 3.55 g/m*3 -1.74 C 0 km/h
2016 09-12-2010 03:00:00 -1.7 C 3.69 g/m*3 -1.7 C 0 km/h
2017 09-12-2010 04:00:00 -1.62 C 3.72 g/m*3 -1.62 C 0 km/h
2018 09-12-2010 05:00:00 -1.04 C 3.84 g/m*3 -1.04 C 0 km/h
2019 09-12-2010 06:00:00 -0.42 C 3.9 g/m*3 -0.42 C 0 km/h
2020 09-12-2010 07:00:00 -0.28 C 3.95 g/m*3 -0.28 C 0 km/h
2021 09-12-2010 08:00:00 -0.38 C 3.91 g/m*3 -0.38 C 0 km/h
2022 09-12-2010 09:00:00 -0.08 C 3.93 g/m*3 -0.08 C 0 km/h
2023 09-12-2010 10:00:00 0.32 C 4 g/m*3 0.32 C 0 km/h
2024 09-12-2010 11:00:00 0.8 C 4.06 g/m*3 0.8 C 0 km/h
2025 09-12-2010 12:00:00 2.18 C 4.07 g/m*3 2.18 C 0 km/h
Sensor: Nr:Datum:Temp:Abs-Feuchte:Windchill:Wind:
Aussen-T/F 2026 09-12-2010 13:00:00 1.74 C 4.11 g/m*3 1.74 C 0 km/h
2027 09-12-2010 14:00:00 2.12 C 3.92 g/m*3 2.12 C 0 km/h
2028 09-12-2010 15:00:00 1.84 C 3.75 g/m*3 1.84 C 0 km/h
2029 09-12-2010 16:00:00 1.52 C 3.66 g/m*3 1.52 C 0 km/h
2030 09-12-2010 17:00:00 1.5 C 3.89 g/m*3 1.5 C 0 km/h
2031 09-12-2010 18:00:00 1.68 C 4.03 g/m*3 1.68 C 0 km/h
2032 09-12-2010 19:00:00 2.16 C 3.9 g/m*3 2.16 C 0 km/h
2033 09-12-2010 20:00:00 2.44 C 4 g/m*3 2.44 C 0 km/h
2034 09-12-2010 21:00:00 2.58 C 4.06 g/m*3 2.58 C 0 km/h
2035 09-12-2010 22:00:00 2.44 C 4.16 g/m*3 2.44 C 0 km/h
2036 09-12-2010 23:00:00 1.5 C 4.43 g/m*3 1.5 C 0 km/h
2037 10-12-2010 00:00:00 1.9 C 4.42 g/m*3 1.9 C 0 km/h
2038 10-12-2010 01:00:00 2.04 C 4.36 g/m*3 2.04 C 0 km/h
2039 10-12-2010 02:00:00 1.7 C 4.26 g/m*3 1.7 C 0 km/h
2040 10-12-2010 03:00:00 1.24 C 4.52 g/m*3 1.24 C 0 km/h
2041 10-12-2010 04:00:00 1.7 C 4.79 g/m*3 1.7 C 0 km/h
2042 10-12-2010 05:00:00 2.52 C 4.87 g/m*3 2.52 C 0 km/h
2043 10-12-2010 06:00:00 1.84 C 4.73 g/m*3 1.84 C 0 km/h
2044 10-12-2010 07:00:00 0.76 C 4.53 g/m*3 0.76 C 0 km/h
2045 10-12-2010 08:00:00 -0.32 C 4.28 g/m*3 -0.32 C 0 km/h
2046 10-12-2010 09:00:00 -0.4 C 4.3 g/m*3 -0.4 C 0 km/h
2047 10-12-2010 10:00:00 0.06 C 4.45 g/m*3 0.06 C 0 km/h
2048 10-12-2010 11:00:00 1.38 C 4.82 g/m*3 1.38 C 0 km/h
2049 10-12-2010 12:00:00 2.24 C 4.95 g/m*3 2.24 C 0 km/h
2050 10-12-2010 13:00:00 2.96 C 4.9 g/m*3 2.96 C 0 km/h
Sensor: Nr:Datum:Temp:Abs-Feuchte:Windchill:Wind:
Aussen-T/F 2051 10-12-2010 14:00:00 2.82 C 4.65 g/m*3 2.82 C 0 km/h
2052 10-12-2010 15:00:00 1.78 C 4.64 g/m*3 1.78 C 0 km/h
2053 10-12-2010 16:00:00 1.54 C 4.8 g/m*3 1.54 C 0 km/h
2054 10-12-2010 17:00:00 1.84 C 4.95 g/m*3 1.84 C 0 km/h
2055 10-12-2010 18:00:00 1.86 C 4.93 g/m*3 1.86 C 0 km/h
2056 10-12-2010 19:00:00 2.28 C 4.97 g/m*3 2.28 C 0 km/h
2057 10-12-2010 20:00:00 2.6 C 4.93 g/m*3 2.6 C 0 km/h
2058 10-12-2010 21:00:00 2.5 C 4.85 g/m*3 2.5 C 0 km/h
2059 10-12-2010 22:00:00 2.52 C 4.87 g/m*3 2.52 C 0 km/h
2060 10-12-2010 23:00:00 2.24 C 4.86 g/m*3 2.24 C 0 km/h
2061 11-12-2010 00:00:00 2.18 C 4.97 g/m*3 2.18 C 0 km/h
2062 11-12-2010 01:00:00 2.46 C 5.08 g/m*3 2.46 C 0 km/h
2063 11-12-2010 02:00:00 2.72 C 5.13 g/m*3 2.72 C 0 km/h
2064 11-12-2010 03:00:00 2.54 C 5.1 g/m*3 2.54 C 0 km/h
2065 11-12-2010 04:00:00 3.26 C 5.24 g/m*3 3.26 C 0 km/h
2066 11-12-2010 05:00:00 3.86 C 5.19 g/m*3 3.86 C 0 km/h
2067 11-12-2010 06:00:00 3.36 C 5.15 g/m*3 3.36 C 0 km/h
2068 11-12-2010 07:00:00 4.14 C 5.21 g/m*3 4.14 C 0 km/h
2069 11-12-2010 08:00:00 4.86 C 5.01 g/m*3 4.86 C 0 km/h
2070 11-12-2010 09:00:00 4.16 C 5.04 g/m*3 4.16 C 0 km/h
2071 11-12-2010 10:00:00 3.9 C 5.38 g/m*3 3.9 C 0 km/h
2072 11-12-2010 11:00:00 4.3 C 5.37 g/m*3 4.3 C 0 km/h
2073 11-12-2010 12:00:00 4.54 C 5.56 g/m*3 4.54 C 0 km/h
2074 11-12-2010 13:00:00 4.86 C 5.39 g/m*3 4.86 C 0 km/h
2075 11-12-2010 14:00:00 4.9 C 5.31 g/m*3 4.9 C 0 km/h
Sensor: Nr:Datum:Temp:Abs-Feuchte:Windchill:Wind:
Aussen-T/F 2076 11-12-2010 15:00:00 5.06 C 5.18 g/m*3 5.06 C 0 km/h
2077 11-12-2010 16:00:00 4.9 C 5.24 g/m*3 4.9 C 0 km/h
2078 11-12-2010 17:00:00 5.16 C 5.22 g/m*3 5.16 C 0 km/h
2079 11-12-2010 18:00:00 4.22 C 5.21 g/m*3 4.22 C 0 km/h
2080 11-12-2010 19:00:00 4.26 C 5.2 g/m*3 4.26 C 0 km/h
2081 11-12-2010 20:00:00 4.82 C 5.01 g/m*3 4.82 C 0 km/h
2082 11-12-2010 21:00:00 4.4 C 5.04 g/m*3 4.4 C 0 km/h
2083 11-12-2010 22:00:00 4.3 C 5.03 g/m*3 4.3 C 0 km/h
2084 11-12-2010 23:00:00 4.66 C 4.89 g/m*3 4.66 C 0 km/h
2085 12-12-2010 00:00:00 4.26 C 4.97 g/m*3 4.26 C 0 km/h
2086 12-12-2010 01:00:00 4.84 C 4.84 g/m*3 4.84 C 0 km/h
2087 12-12-2010 02:00:00 4.82 C 4.58 g/m*3 4.82 C 0 km/h
2088 12-12-2010 03:00:00 4.2 C 4.66 g/m*3 4.2 C 0 km/h
2089 12-12-2010 04:00:00 3.68 C 5.18 g/m*3 3.68 C 0 km/h
2090 12-12-2010 05:00:00 3.44 C 5.11 g/m*3 3.44 C 0 km/h
2091 12-12-2010 06:00:00 3.04 C 5.07 g/m*3 3.04 C 0 km/h
2092 12-12-2010 07:00:00 3.86 C 4.93 g/m*3 3.86 C 0 km/h
2093 12-12-2010 08:00:00 3.62 C 4.87 g/m*3 3.62 C 0 km/h
2094 12-12-2010 09:00:00 3.7 C 4.96 g/m*3 3.7 C 0 km/h
2095 12-12-2010 10:00:00 3.86 C 5.03 g/m*3 3.86 C 0 km/h
2096 12-12-2010 11:00:00 4.12 C 5.14 g/m*3 4.12 C 0 km/h
2097 12-12-2010 12:00:00 4.5 C 5.34 g/m*3 4.5 C 0 km/h
2098 12-12-2010 13:00:00 4.82 C 5.17 g/m*3 4.82 C 0 km/h
2099 12-12-2010 14:00:00 3.46 C 4.95 g/m*3 3.46 C 0 km/h
2100 12-12-2010 15:00:00 3.1 C 5.21 g/m*3 3.1 C 0 km/h
Sensor: Nr:Datum:Temp:Abs-Feuchte:Windchill:Wind:
Aussen-T/F 2101 12-12-2010 16:00:00 2.7 C 5.12 g/m*3 2.7 C 0 km/h
2102 12-12-2010 17:00:00 2.48 C 4.62 g/m*3 2.48 C 0 km/h
2103 12-12-2010 18:00:00 1.86 C 4.15 g/m*3 1.86 C 0 km/h
2104 12-12-2010 19:00:00 1.38 C 3.91 g/m*3 1.38 C 0 km/h
2105 12-12-2010 20:00:00 1.18 C 3.56 g/m*3 1.18 C 0 km/h
2106 12-12-2010 21:00:00 0.76 C 3.35 g/m*3 0.76 C 0 km/h
2107 12-12-2010 22:00:00 0.4 C 3.18 g/m*3 0.4 C 0 km/h
2108 12-12-2010 23:00:00 -0.04 C 2.73 g/m*3 -0.04 C 0 km/h
2109 13-12-2010 00:00:00 -0.52 C 2.5 g/m*3 -0.52 C 0 km/h
2110 13-12-2010 01:00:00 -0.84 C 2.45 g/m*3 -0.84 C 0 km/h
2111 13-12-2010 02:00:00 -2.28 C 2.3 g/m*3 -2.28 C 0 km/h
2112 13-12-2010 03:00:00 -3.5 C 2.27 g/m*3 -3.5 C 0 km/h
2113 13-12-2010 04:00:00 -4.2 C 2.29 g/m*3 -4.2 C 0 km/h
2114 13-12-2010 05:00:00 -5.8 C 2.22 g/m*3 -5.8 C 0 km/h
2115 13-12-2010 06:00:00 -6.94 C 2.21 g/m*3 -6.94 C 0 km/h
2116 13-12-2010 07:00:00 -7.2 C 2.22 g/m*3 -7.2 C 0 km/h
2117 13-12-2010 08:00:00 -7.18 C 2.27 g/m*3 -7.18 C 0 km/h
2118 13-12-2010 09:00:00 -7.12 C 2.29 g/m*3 -7.12 C 0 km/h
2119 13-12-2010 10:00:00 -6.62 C 2.4 g/m*3 -6.62 C 0 km/h
2120 13-12-2010 11:00:00 -4 C 2.63 g/m*3 -4 C 0 km/h
2121 13-12-2010 12:00:00 -2.78 C 2.52 g/m*3 -2.78 C 0 km/h
2122 13-12-2010 13:00:00 -2.32 C 2.5 g/m*3 -2.32 C 0 km/h
2123 13-12-2010 14:00:00 -2.2 C 2.39 g/m*3 -2.2 C 0 km/h
2124 13-12-2010 15:00:00 -3.66 C 2.47 g/m*3 -3.66 C 0 km/h
2125 13-12-2010 16:00:00 -4.98 C 2.58 g/m*3 -4.98 C 0 km/h
Sensor: Nr:Datum:Temp:Abs-Feuchte:Windchill:Wind:
Aussen-T/F 2126 13-12-2010 17:00:00 -5.88 C 2.5 g/m*3 -5.88 C 0 km/h
2127 13-12-2010 18:00:00 -6.2 C 2.48 g/m*3 -6.2 C 0 km/h
2128 13-12-2010 19:00:00 -5.44 C 2.72 g/m*3 -5.44 C 0 km/h
2129 13-12-2010 20:00:00 -4.86 C 2.8 g/m*3 -4.86 C 0 km/h
2130 13-12-2010 21:00:00 -4.22 C 2.82 g/m*3 -4.22 C 0 km/h
2131 13-12-2010 22:00:00 -3.92 C 2.86 g/m*3 -3.92 C 0 km/h
2132 13-12-2010 23:00:00 -4.1 C 3 g/m*3 -4.1 C 0 km/h
2133 14-12-2010 00:00:00 -4.1 C 3.02 g/m*3 -4.1 C 0 km/h
2134 14-12-2010 01:00:00 -4.06 C 3.03 g/m*3 -4.06 C 0 km/h
2135 14-12-2010 02:00:00 -3.84 C 3.07 g/m*3 -3.84 C 0 km/h
2136 14-12-2010 03:00:00 -3.66 C 3.11 g/m*3 -3.66 C 0 km/h
2137 14-12-2010 04:00:00 -3.62 C 3.09 g/m*3 -3.62 C 0 km/h
2138 14-12-2010 05:00:00 -3.8 C 3.04 g/m*3 -3.8 C 0 km/h
2139 14-12-2010 06:00:00 -4.7 C 2.87 g/m*3 -4.7 C 0 km/h
2140 14-12-2010 07:00:00 -6.22 C 2.59 g/m*3 -6.22 C 0 km/h
2141 14-12-2010 08:00:00 -6.38 C 2.62 g/m*3 -6.38 C 0 km/h
2142 14-12-2010 09:00:00 -6 C 2.69 g/m*3 -6 C 0 km/h
2143 14-12-2010 10:00:00 -4.06 C 3 g/m*3 -4.06 C 0 km/h
2144 14-12-2010 11:00:00 -3.24 C 2.75 g/m*3 -3.24 C 0 km/h
2145 14-12-2010 12:00:00 -2.42 C 2.66 g/m*3 -2.42 C 0 km/h
2146 14-12-2010 13:00:00 -2.2 C 2.64 g/m*3 -2.2 C 0 km/h
2147 14-12-2010 14:00:00 -2.44 C 2.66 g/m*3 -2.44 C 0 km/h
2148 14-12-2010 15:00:00 -2.76 C 2.7 g/m*3 -2.76 C 0 km/h
2149 14-12-2010 16:00:00 -2.9 C 2.8 g/m*3 -2.9 C 0 km/h
2150 14-12-2010 17:00:00 -2.98 C 2.91 g/m*3 -2.98 C 0 km/h
Sensor: Nr:Datum:Temp:Abs-Feuchte:Windchill:Wind:
Aussen-T/F 2151 14-12-2010 18:00:00 -3.06 C 2.78 g/m*3 -3.06 C 0 km/h
2152 14-12-2010 19:00:00 -2.82 C 2.84 g/m*3 -2.82 C 0 km/h
2153 14-12-2010 20:00:00 -3.04 C 2.74 g/m*3 -3.04 C 0 km/h
2154 14-12-2010 21:00:00 -3.12 C 2.64 g/m*3 -3.12 C 0 km/h
2155 14-12-2010 22:00:00 -3.16 C 2.58 g/m*3 -3.16 C 0 km/h
2156 14-12-2010 23:00:00 -3.22 C 2.51 g/m*3 -3.22 C 0 km/h
2157 15-12-2010 00:00:00 -3.3 C 2.5 g/m*3 -3.3 C 0 km/h
2158 15-12-2010 01:00:00 -3.26 C 2.57 g/m*3 -3.26 C 0 km/h
2159 15-12-2010 02:00:00 -4.16 C 2.54 g/m*3 -4.16 C 0 km/h
2160 15-12-2010 03:00:00 -4.9 C 2.5 g/m*3 -4.9 C 0 km/h
2161 15-12-2010 04:00:00 -4.86 C 2.54 g/m*3 -4.86 C 0 km/h
2162 15-12-2010 05:00:00 -4.72 C 2.63 g/m*3 -4.72 C 0 km/h
2163 15-12-2010 06:00:00 -3.78 C 2.71 g/m*3 -3.78 C 0 km/h
2164 15-12-2010 07:00:00 -3.42 C 2.81 g/m*3 -3.42 C 0 km/h
2165 15-12-2010 08:00:00 -3.3 C 2.88 g/m*3 -3.3 C 0 km/h
2166 15-12-2010 09:00:00 -2.56 C 3.02 g/m*3 -2.56 C 0 km/h
2167 15-12-2010 10:00:00 -1.76 C 3.22 g/m*3 -1.76 C 0 km/h
2168 15-12-2010 11:00:00 -0.68 C 3.51 g/m*3 -0.68 C 0 km/h
2169 15-12-2010 12:00:00 -0.48 C 3.47 g/m*3 -0.48 C 0 km/h
2170 15-12-2010 13:00:00 -0.38 C 3.56 g/m*3 -0.38 C 0 km/h
2171 15-12-2010 14:00:00 -0.12 C 3.36 g/m*3 -0.12 C 0 km/h
2172 15-12-2010 15:00:00 -1.44 C 2.8 g/m*3 -1.44 C 0 km/h
2173 15-12-2010 16:00:00 -3.2 C 2.7 g/m*3 -3.2 C 0 km/h
2174 15-12-2010 17:00:00 -4.34 C 2.74 g/m*3 -4.34 C 0 km/h
2175 15-12-2010 18:00:00 -4.86 C 2.77 g/m*3 -4.86 C 0 km/h
Sensor: Nr:Datum:Temp:Abs-Feuchte:Windchill:Wind:
Aussen-T/F 2176 15-12-2010 19:00:00 -4.42 C 2.86 g/m*3 -4.42 C 0 km/h
2177 15-12-2010 20:00:00 -3.62 C 2.83 g/m*3 -3.62 C 0 km/h
2178 15-12-2010 21:00:00 -3.18 C 2.77 g/m*3 -3.18 C 0 km/h
2179 15-12-2010 22:00:00 -3.78 C 2.76 g/m*3 -3.78 C 0 km/h
2180 15-12-2010 23:00:00 -4.54 C 2.76 g/m*3 -4.54 C 0 km/h
2181 16-12-2010 00:00:00 -4.68 C 2.85 g/m*3 -4.68 C 0 km/h
2182 16-12-2010 01:00:00 -4.84 C 2.87 g/m*3 -4.84 C 0 km/h
2183 16-12-2010 02:00:00 -5.3 C 2.73 g/m*3 -5.3 C 0 km/h
2184 16-12-2010 03:00:00 -5.36 C 2.75 g/m*3 -5.36 C 0 km/h
2185 16-12-2010 04:00:00 -5.58 C 2.66 g/m*3 -5.58 C 0 km/h
2186 16-12-2010 05:00:00 -6.4 C 2.41 g/m*3 -6.4 C 0 km/h
2187 16-12-2010 06:00:00 -7.54 C 2.25 g/m*3 -7.54 C 0 km/h
2188 16-12-2010 07:00:00 -8.28 C 2.11 g/m*3 -8.28 C 0 km/h
2189 16-12-2010 08:00:00 -7.86 C 2.18 g/m*3 -7.86 C 0 km/h
2190 16-12-2010 09:00:00 -6.6 C 2.26 g/m*3 -6.6 C 0 km/h
2191 16-12-2010 10:00:00 -4.84 C 2.47 g/m*3 -4.84 C 0 km/h
2192 16-12-2010 11:00:00 -3.42 C 2.65 g/m*3 -3.42 C 0 km/h
2193 16-12-2010 12:00:00 -2.84 C 2.8 g/m*3 -2.84 C 0 km/h
2194 16-12-2010 13:00:00 -2.12 C 2.99 g/m*3 -2.12 C 0 km/h
2195 16-12-2010 14:00:00 -1.72 C 3.2 g/m*3 -1.72 C 0 km/h
2196 16-12-2010 15:00:00 -1.4 C 3.45 g/m*3 -1.4 C 0 km/h
2197 16-12-2010 16:00:00 -1.3 C 3.43 g/m*3 -1.3 C 0 km/h
2198 16-12-2010 17:00:00 -1.26 C 3.47 g/m*3 -1.26 C 0 km/h
2199 16-12-2010 18:00:00 -0.7 C 3.61 g/m*3 -0.7 C 0 km/h
2200 16-12-2010 19:00:00 -0.28 C 3.67 g/m*3 -0.28 C 0 km/h
Sensor: Nr:Datum:Temp:Abs-Feuchte:Windchill:Wind:
Aussen-T/F 2201 16-12-2010 20:00:00 0.02 C 3.69 g/m*3 0.02 C 0 km/h
2202 16-12-2010 21:00:00 -0.12 C 3.79 g/m*3 -0.12 C 0 km/h
2203 16-12-2010 22:00:00 -0.34 C 3.88 g/m*3 -0.34 C 0 km/h
2204 16-12-2010 23:00:00 -0.46 C 3.84 g/m*3 -0.46 C 0 km/h
2205 17-12-2010 00:00:00 -0.28 C 3.85 g/m*3 -0.28 C 0 km/h
2206 17-12-2010 01:00:00 -0.34 C 3.88 g/m*3 -0.34 C 0 km/h
2207 17-12-2010 02:00:00 -0.58 C 3.62 g/m*3 -0.58 C 0 km/h
2208 17-12-2010 03:00:00 -1.2 C 3.36 g/m*3 -1.2 C 0 km/h
2209 17-12-2010 04:00:00 -1.28 C 3.16 g/m*3 -1.28 C 0 km/h
2210 17-12-2010 05:00:00 -1.62 C 3.26 g/m*3 -1.62 C 0 km/h
2211 17-12-2010 06:00:00 -2.24 C 2.97 g/m*3 -2.24 C 0 km/h
2212 17-12-2010 07:00:00 -2.28 C 2.65 g/m*3 -2.28 C 0 km/h
2213 17-12-2010 08:00:00 -2.22 C 3 g/m*3 -2.22 C 0 km/h
2214 17-12-2010 09:00:00 -1.92 C 3.01 g/m*3 -1.92 C 0 km/h
2215 17-12-2010 10:00:00 -1.66 C 2.95 g/m*3 -1.66 C 0 km/h
2216 17-12-2010 11:00:00 -1.2 C 2.74 g/m*3 -1.2 C 0 km/h
2217 17-12-2010 12:00:00 -1.14 C 2.52 g/m*3 -1.14 C 0 km/h
2218 17-12-2010 13:00:00 -1.22 C 2.43 g/m*3 -1.22 C 0 km/h
2219 17-12-2010 14:00:00 -1.4 C 2.66 g/m*3 -1.4 C 0 km/h
2220 17-12-2010 15:00:00 -1.82 C 2.98 g/m*3 -1.82 C 0 km/h
2221 17-12-2010 16:00:00 -2.08 C 3 g/m*3 -2.08 C 0 km/h
2222 17-12-2010 17:00:00 -4.06 C 2.8 g/m*3 -4.06 C 0 km/h
2223 17-12-2010 18:00:00 -5.22 C 2.69 g/m*3 -5.22 C 0 km/h
2224 17-12-2010 19:00:00 -6.48 C 2.51 g/m*3 -6.48 C 0 km/h
2225 17-12-2010 20:00:00 -6.58 C 2.52 g/m*3 -6.58 C 0 km/h
Sensor: Nr:Datum:Temp:Abs-Feuchte:Windchill:Wind:
Aussen-T/F 2226 17-12-2010 21:00:00 -6.94 C 2.44 g/m*3 -6.94 C 0 km/h
2227 17-12-2010 22:00:00 -6.92 C 2.44 g/m*3 -6.92 C 0 km/h
2228 17-12-2010 23:00:00 -5.9 C 2.66 g/m*3 -5.9 C 0 km/h
2229 18-12-2010 00:00:00 -4.74 C 2.93 g/m*3 -4.74 C 0 km/h
2230 18-12-2010 01:00:00 -4.44 C 2.9 g/m*3 -4.44 C 0 km/h
2231 18-12-2010 02:00:00 -5.28 C 2.7 g/m*3 -5.28 C 0 km/h
2232 18-12-2010 03:00:00 -4.36 C 2.87 g/m*3 -4.36 C 0 km/h
2233 18-12-2010 04:00:00 -4.36 C 2.94 g/m*3 -4.36 C 0 km/h
2234 18-12-2010 05:00:00 -4.44 C 2.98 g/m*3 -4.44 C 0 km/h
2235 18-12-2010 06:00:00 -4.34 C 3.01 g/m*3 -4.34 C 0 km/h
2236 18-12-2010 07:00:00 -5.26 C 2.81 g/m*3 -5.26 C 0 km/h
2237 18-12-2010 08:00:00 -5.34 C 2.8 g/m*3 -5.34 C 0 km/h
2238 18-12-2010 09:00:00 -4.84 C 2.73 g/m*3 -4.84 C 0 km/h
2239 18-12-2010 10:00:00 -3.82 C 2.68 g/m*3 -3.82 C 0 km/h
2240 18-12-2010 11:00:00 -3.48 C 2.59 g/m*3 -3.48 C 0 km/h
2241 18-12-2010 12:00:00 -3.28 C 2.46 g/m*3 -3.28 C 0 km/h
2242 18-12-2010 13:00:00 -2.96 C 2.36 g/m*3 -2.96 C 0 km/h
2243 18-12-2010 14:00:00 -3.84 C 2.29 g/m*3 -3.84 C 0 km/h
2244 18-12-2010 15:00:00 -5.48 C 2.31 g/m*3 -5.48 C 0 km/h
2245 18-12-2010 16:00:00 -7.06 C 2.27 g/m*3 -7.06 C 0 km/h
2246 18-12-2010 17:00:00 -7.56 C 2.29 g/m*3 -7.56 C 0 km/h
2247 18-12-2010 18:00:00 -6.74 C 2.48 g/m*3 -6.74 C 0 km/h
2248 18-12-2010 19:00:00 -5.34 C 2.79 g/m*3 -5.34 C 0 km/h
2249 18-12-2010 20:00:00 -4.36 C 2.97 g/m*3 -4.36 C 0 km/h
2250 18-12-2010 21:00:00 -3.98 C 3.05 g/m*3 -3.98 C 0 km/h
Sensor: Nr:Datum:Temp:Abs-Feuchte:Windchill:Wind:
Aussen-T/F 2251 18-12-2010 22:00:00 -3.42 C 3.2 g/m*3 -3.42 C 0 km/h
2252 18-12-2010 23:00:00 -3.08 C 3.28 g/m*3 -3.08 C 0 km/h
2253 19-12-2010 00:00:00 -2.56 C 3.41 g/m*3 -2.56 C 0 km/h
2254 19-12-2010 01:00:00 -2.44 C 3.53 g/m*3 -2.44 C 0 km/h
2255 19-12-2010 02:00:00 -2.5 C 3.54 g/m*3 -2.5 C 0 km/h
2256 19-12-2010 03:00:00 -2.7 C 3.49 g/m*3 -2.7 C 0 km/h
2257 19-12-2010 04:00:00 -2.46 C 3.55 g/m*3 -2.46 C 0 km/h
2258 19-12-2010 05:00:00 -1.02 C 3.67 g/m*3 -1.02 C 0 km/h
2259 19-12-2010 06:00:00 -1.64 C 3.24 g/m*3 -1.64 C 0 km/h
2260 19-12-2010 07:00:00 -2.58 C 3.19 g/m*3 -2.58 C 0 km/h
2261 19-12-2010 08:00:00 -2.5 C 3.2 g/m*3 -2.5 C 0 km/h
2262 19-12-2010 09:00:00 -2.04 C 3.37 g/m*3 -2.04 C 0 km/h
2263 19-12-2010 10:00:00 -0.94 C 3.41 g/m*3 -0.94 C 0 km/h
2264 19-12-2010 11:00:00 -0.38 C 3.56 g/m*3 -0.38 C 0 km/h
2265 19-12-2010 12:00:00 0.3 C 3.6 g/m*3 0.3 C 0 km/h
2266 19-12-2010 13:00:00 0.14 C 3.71 g/m*3 0.14 C 0 km/h
2267 19-12-2010 14:00:00 -0.18 C 3.94 g/m*3 -0.18 C 0 km/h
2268 19-12-2010 15:00:00 -0.4 C 4.08 g/m*3 -0.4 C 0 km/h
2269 19-12-2010 16:00:00 -0.3 C 4.23 g/m*3 -0.3 C 0 km/h
2270 19-12-2010 17:00:00 -0.2 C 4.33 g/m*3 -0.2 C 0 km/h
2271 19-12-2010 18:00:00 -0.18 C 4.36 g/m*3 -0.18 C 0 km/h
2272 19-12-2010 19:00:00 -0.04 C 4.45 g/m*3 -0.04 C 0 km/h
2273 19-12-2010 20:00:00 0.08 C 4.49 g/m*3 0.08 C 0 km/h
2274 19-12-2010 21:00:00 1.1 C 4.84 g/m*3 1.1 C 0 km/h
2275 19-12-2010 22:00:00 1.92 C 5.06 g/m*3 1.92 C 0 km/h
Sensor: Nr:Datum:Temp:Abs-Feuchte:Windchill:Wind:
Aussen-T/F 2276 19-12-2010 23:00:00 4.42 C 5.05 g/m*3 4.42 C 0 km/h
2277 20-12-2010 00:00:00 4.02 C 4.62 g/m*3 4.02 C 0 km/h
2278 20-12-2010 01:00:00 1.68 C 4.43 g/m*3 1.68 C 0 km/h
2279 20-12-2010 02:00:00 0.42 C 3.7 g/m*3 0.42 C 0 km/h
2280 20-12-2010 03:00:00 -0.08 C 3.63 g/m*3 -0.08 C 0 km/h
2281 20-12-2010 04:00:00 -0.44 C 3.67 g/m*3 -0.44 C 0 km/h
2282 20-12-2010 05:00:00 -1.02 C 3.56 g/m*3 -1.02 C 0 km/h
2283 20-12-2010 06:00:00 -1.66 C 3.46 g/m*3 -1.66 C 0 km/h
2284 20-12-2010 07:00:00 -2.6 C 3.38 g/m*3 -2.6 C 0 km/h
2285 20-12-2010 08:00:00 -2.42 C 3.54 g/m*3 -2.42 C 0 km/h
2286 20-12-2010 09:00:00 -1.8 C 3.59 g/m*3 -1.8 C 0 km/h
2287 20-12-2010 10:00:00 -1.22 C 3.33 g/m*3 -1.22 C 0 km/h
2288 20-12-2010 11:00:00 -0.8 C 3.28 g/m*3 -0.8 C 0 km/h
2289 20-12-2010 12:00:00 -1.06 C 3.27 g/m*3 -1.06 C 0 km/h
2290 20-12-2010 13:00:00 -0.92 C 3.28 g/m*3 -0.92 C 0 km/h
2291 20-12-2010 14:00:00 -0.98 C 3.26 g/m*3 -0.98 C 0 km/h
2292 20-12-2010 15:00:00 -1.08 C 3.26 g/m*3 -1.08 C 0 km/h
2293 20-12-2010 16:00:00 -3.04 C 3.05 g/m*3 -3.04 C 0 km/h
2294 20-12-2010 17:00:00 -3.52 C 3.23 g/m*3 -3.52 C 0 km/h
2295 20-12-2010 18:00:00 -3.04 C 3.42 g/m*3 -3.04 C 0 km/h
2296 20-12-2010 19:00:00 -3 C 3.45 g/m*3 -3 C 0 km/h
2297 20-12-2010 20:00:00 -2.92 C 3.48 g/m*3 -2.92 C 0 km/h
2298 20-12-2010 21:00:00 -3.64 C 3.26 g/m*3 -3.64 C 0 km/h
2299 20-12-2010 22:00:00 -4.3 C 3.11 g/m*3 -4.3 C 0 km/h
2300 20-12-2010 23:00:00 -3.46 C 3.37 g/m*3 -3.46 C 0 km/h
Sensor: Nr:Datum:Temp:Abs-Feuchte:Windchill:Wind:
Aussen-T/F 2301 21-12-2010 00:00:00 -3.62 C 3.33 g/m*3 -3.62 C 0 km/h
2302 21-12-2010 01:00:00 -2.88 C 3.53 g/m*3 -2.88 C 0 km/h
2303 21-12-2010 02:00:00 -2.6 C 3.6 g/m*3 -2.6 C 0 km/h
2304 21-12-2010 03:00:00 -2.54 C 3.57 g/m*3 -2.54 C 0 km/h
2305 21-12-2010 04:00:00 -2.14 C 3.67 g/m*3 -2.14 C 0 km/h
2306 21-12-2010 05:00:00 -1.88 C 3.76 g/m*3 -1.88 C 0 km/h
2307 21-12-2010 06:00:00 -1.78 C 3.81 g/m*3 -1.78 C 0 km/h
2308 21-12-2010 07:00:00 -1.7 C 3.83 g/m*3 -1.7 C 0 km/h
2309 21-12-2010 08:00:00 -1.64 C 3.85 g/m*3 -1.64 C 0 km/h
2310 21-12-2010 09:00:00 -1.24 C 3.91 g/m*3 -1.24 C 0 km/h
2311 21-12-2010 10:00:00 -0.6 C 3.91 g/m*3 -0.6 C 0 km/h
2312 21-12-2010 11:00:00 0.5 C 3.98 g/m*3 0.5 C 0 km/h
2313 21-12-2010 12:00:00 1.14 C 3.97 g/m*3 1.14 C 0 km/h
2314 21-12-2010 13:00:00 1.44 C 4.12 g/m*3 1.44 C 0 km/h
2315 21-12-2010 14:00:00 1.24 C 4.06 g/m*3 1.24 C 0 km/h
2316 21-12-2010 15:00:00 1.18 C 4.18 g/m*3 1.18 C 0 km/h
2317 21-12-2010 16:00:00 0.58 C 4.2 g/m*3 0.58 C 0 km/h
2318 21-12-2010 17:00:00 0.16 C 4.28 g/m*3 0.16 C 0 km/h
2319 21-12-2010 18:00:00 0.18 C 4.38 g/m*3 0.18 C 0 km/h
2320 21-12-2010 19:00:00 0.12 C 4.4 g/m*3 0.12 C 0 km/h
2321 21-12-2010 20:00:00 0.12 C 4.4 g/m*3 0.12 C 0 km/h
2322 21-12-2010 21:00:00 0.12 C 4.45 g/m*3 0.12 C 0 km/h
2323 21-12-2010 22:00:00 0.15 C 4.45 g/m*3 0.15 C 0 km/h
2324 21-12-2010 23:00:00 0.12 C 4.45 g/m*3 0.12 C 0 km/h
2325 22-12-2010 00:00:00 0.1 C 4.48 g/m*3 0.1 C 0 km/h
Sensor: Nr:Datum:Temp:Abs-Feuchte:Windchill:Wind:
Aussen-T/F 2326 22-12-2010 01:00:00 0.16 C 4.51 g/m*3 0.16 C 0 km/h
2327 22-12-2010 02:00:00 0.2 C 4.52 g/m*3 0.2 C 0 km/h
2328 22-12-2010 03:00:00 0.16 C 4.51 g/m*3 0.16 C 0 km/h
2329 22-12-2010 04:00:00 0.28 C 4.54 g/m*3 0.28 C 0 km/h
2330 22-12-2010 05:00:00 0.3 C 4.55 g/m*3 0.3 C 0 km/h
2331 22-12-2010 06:00:00 0.3 C 4.55 g/m*3 0.3 C 0 km/h
2332 22-12-2010 07:00:00 0.3 C 4.57 g/m*3 0.3 C 0 km/h
2333 22-12-2010 08:00:00 0.34 C 4.61 g/m*3 0.34 C 0 km/h
2334 22-12-2010 09:00:00 0.7 C 4.73 g/m*3 0.7 C 0 km/h
2335 22-12-2010 10:00:00 1.38 C 4.9 g/m*3 1.38 C 0 km/h
2336 22-12-2010 11:00:00 2.3 C 5.02 g/m*3 2.3 C 0 km/h
2337 22-12-2010 12:00:00 2.76 C 4.89 g/m*3 2.76 C 0 km/h
2338 22-12-2010 13:00:00 2.38 C 4.73 g/m*3 2.38 C 0 km/h
2339 22-12-2010 14:00:00 2.4 C 4.76 g/m*3 2.4 C 0 km/h
2340 22-12-2010 15:00:00 1.66 C 4.59 g/m*3 1.66 C 0 km/h
2341 22-12-2010 16:00:00 1.16 C 4.6 g/m*3 1.16 C 0 km/h
2342 22-12-2010 17:00:00 0.8 C 4.6 g/m*3 0.8 C 0 km/h
2343 22-12-2010 18:00:00 0.7 C 4.63 g/m*3 0.7 C 0 km/h
2344 22-12-2010 19:00:00 0.78 C 4.7 g/m*3 0.78 C 0 km/h
2345 22-12-2010 20:00:00 0.78 C 4.7 g/m*3 0.78 C 0 km/h
2346 22-12-2010 21:00:00 0.8 C 4.71 g/m*3 0.8 C 0 km/h
2347 22-12-2010 22:00:00 0.7 C 4.68 g/m*3 0.7 C 0 km/h
2348 22-12-2010 23:00:00 0.7 C 4.68 g/m*3 0.7 C 0 km/h
2349 23-12-2010 00:00:00 0.76 C 4.74 g/m*3 0.76 C 0 km/h
2350 23-12-2010 01:00:00 0.7 C 4.73 g/m*3 0.7 C 0 km/h
Sensor: Nr:Datum:Temp:Abs-Feuchte:Windchill:Wind:
Aussen-T/F 2351 23-12-2010 02:00:00 0.7 C 4.73 g/m*3 0.7 C 0 km/h
2352 23-12-2010 03:00:00 0.7 C 4.73 g/m*3 0.7 C 0 km/h
2353 23-12-2010 04:00:00 0.66 C 4.72 g/m*3 0.66 C 0 km/h
2354 23-12-2010 05:00:00 0.48 C 4.66 g/m*3 0.48 C 0 km/h
2355 23-12-2010 06:00:00 0.34 C 4.61 g/m*3 0.34 C 0 km/h
2356 23-12-2010 07:00:00 0 C 4.51 g/m*3 0 C 0 km/h
2357 23-12-2010 08:00:00 -0.32 C 4.39 g/m*3 -0.32 C 0 km/h
2358 23-12-2010 09:00:00 -0.5 C 4.31 g/m*3 -0.5 C 0 km/h
2359 23-12-2010 10:00:00 -0.54 C 4.27 g/m*3 -0.54 C 0 km/h
2360 23-12-2010 11:00:00 -0.58 C 4.19 g/m*3 -0.58 C 0 km/h
2361 23-12-2010 12:00:00 -0.68 C 4.06 g/m*3 -0.68 C 0 km/h
2362 23-12-2010 13:00:00 -0.66 C 4 g/m*3 -0.66 C 0 km/h
2363 23-12-2010 14:00:00 -0.62 C 3.99 g/m*3 -0.62 C 0 km/h
2364 23-12-2010 15:00:00 -0.86 C 3.93 g/m*3 -0.86 C 0 km/h
2365 23-12-2010 16:00:00 -0.9 C 3.96 g/m*3 -0.9 C 0 km/h
2366 23-12-2010 17:00:00 -1.02 C 3.93 g/m*3 -1.02 C 0 km/h
2367 23-12-2010 18:00:00 -1.14 C 3.89 g/m*3 -1.14 C 0 km/h
2368 23-12-2010 19:00:00 -1.26 C 3.84 g/m*3 -1.26 C 0 km/h
2369 23-12-2010 20:00:00 -1.26 C 3.84 g/m*3 -1.26 C 0 km/h
2370 23-12-2010 21:00:00 -1.1 C 3.86 g/m*3 -1.1 C 0 km/h
2371 23-12-2010 22:00:00 -0.94 C 3.92 g/m*3 -0.94 C 0 km/h
2372 23-12-2010 23:00:00 -0.8 C 3.98 g/m*3 -0.8 C 0 km/h
2373 24-12-2010 00:00:00 -0.9 C 3.91 g/m*3 -0.9 C 0 km/h
2374 24-12-2010 01:00:00 -0.74 C 3.98 g/m*3 -0.74 C 0 km/h
2375 24-12-2010 02:00:00 -0.5 C 4.03 g/m*3 -0.5 C 0 km/h
Sensor: Nr:Datum:Temp:Abs-Feuchte:Windchill:Wind:
Aussen-T/F 2376 24-12-2010 03:00:00 -0.48 C 4.03 g/m*3 -0.48 C 0 km/h
2377 24-12-2010 04:00:00 -0.5 C 4.03 g/m*3 -0.5 C 0 km/h
2378 24-12-2010 05:00:00 -0.74 C 3.91 g/m*3 -0.74 C 0 km/h
2379 24-12-2010 06:00:00 -0.96 C 3.79 g/m*3 -0.96 C 0 km/h
2380 24-12-2010 07:00:00 -1.2 C 3.64 g/m*3 -1.2 C 0 km/h
2381 24-12-2010 08:00:00 -1.48 C 3.64 g/m*3 -1.48 C 0 km/h
2382 24-12-2010 09:00:00 -1.7 C 3.66 g/m*3 -1.7 C 0 km/h
2383 24-12-2010 10:00:00 -1.54 C 3.68 g/m*3 -1.54 C 0 km/h
2384 24-12-2010 11:00:00 -1.32 C 3.67 g/m*3 -1.32 C 0 km/h
2385 24-12-2010 12:00:00 -1.34 C 3.58 g/m*3 -1.34 C 0 km/h
2386 24-12-2010 13:00:00 -1.38 C 3.52 g/m*3 -1.38 C 0 km/h
2387 24-12-2010 14:00:00 -1.4 C 3.52 g/m*3 -1.4 C 0 km/h
2388 24-12-2010 15:00:00 -1.84 C 3.46 g/m*3 -1.84 C 0 km/h
2389 24-12-2010 16:00:00 -2.42 C 3.35 g/m*3 -2.42 C 0 km/h
2390 24-12-2010 17:00:00 -2.56 C 3.22 g/m*3 -2.56 C 0 km/h
2391 24-12-2010 18:00:00 -2.8 C 3.23 g/m*3 -2.8 C 0 km/h
2392 24-12-2010 19:00:00 -2.94 C 3.13 g/m*3 -2.94 C 0 km/h
2393 24-12-2010 20:00:00 -3.02 C 3.11 g/m*3 -3.02 C 0 km/h
2394 24-12-2010 21:00:00 -3.23333 C 3.06 g/m*3 -3.23 C 0 km/h
2395 24-12-2010 22:00:00 -3.56 C 3.02 g/m*3 -3.56 C 0 km/h
2396 24-12-2010 23:00:00 -3.74 C 2.98 g/m*3 -3.74 C 0 km/h
2397 25-12-2010 00:00:00 -3.82 C 2.94 g/m*3 -3.82 C 0 km/h
2398 25-12-2010 01:00:00 -3.92 C 2.88 g/m*3 -3.92 C 0 km/h
2399 25-12-2010 02:00:00 -4.08 C 2.87 g/m*3 -4.08 C 0 km/h
2400 25-12-2010 03:00:00 -4.16 C 2.81 g/m*3 -4.16 C 0 km/h
Sensor: Nr:Datum:Temp:Abs-Feuchte:Windchill:Wind:
Aussen-T/F 2401 25-12-2010 04:00:00 -4.26 C 2.68 g/m*3 -4.26 C 0 km/h
2402 25-12-2010 05:00:00 -4.46 C 2.58 g/m*3 -4.46 C 0 km/h
2403 25-12-2010 06:00:00 -4.62 C 2.51 g/m*3 -4.62 C 0 km/h
2404 25-12-2010 07:00:00 -4.72 C 2.45 g/m*3 -4.72 C 0 km/h
2405 25-12-2010 08:00:00 -4.8 C 2.47 g/m*3 -4.8 C 0 km/h
2406 25-12-2010 09:00:00 -4.82 C 2.44 g/m*3 -4.82 C 0 km/h
2407 25-12-2010 10:00:00 -4.58 C 2.36 g/m*3 -4.58 C 0 km/h
2408 25-12-2010 11:00:00 -4.5 C 2.18 g/m*3 -4.5 C 0 km/h
2409 25-12-2010 12:00:00 -4.98 C 2.07 g/m*3 -4.98 C 0 km/h
2410 25-12-2010 13:00:00 -4.72 C 2.18 g/m*3 -4.72 C 0 km/h
2411 25-12-2010 14:00:00 -4.92 C 2.1 g/m*3 -4.92 C 0 km/h
2412 25-12-2010 15:00:00 -5.54 C 2.09 g/m*3 -5.54 C 0 km/h
2413 25-12-2010 16:00:00 -6.82 C 2.12 g/m*3 -6.82 C 0 km/h
2414 25-12-2010 17:00:00 -7.52 C 2.13 g/m*3 -7.52 C 0 km/h
2415 25-12-2010 18:00:00 -7.46 C 2.17 g/m*3 -7.46 C 0 km/h
2416 25-12-2010 19:00:00 -7.4 C 2.17 g/m*3 -7.4 C 0 km/h
2417 25-12-2010 20:00:00 -8.34 C 2.11 g/m*3 -8.34 C 0 km/h
2418 25-12-2010 21:00:00 -7.4 C 2.32 g/m*3 -7.4 C 0 km/h
2419 25-12-2010 22:00:00 -6.8 C 2.31 g/m*3 -6.8 C 0 km/h
2420 25-12-2010 23:00:00 -6.82 C 2.18 g/m*3 -6.82 C 0 km/h
2421 26-12-2010 00:00:00 -7.08 C 2.12 g/m*3 -7.08 C 0 km/h
2422 26-12-2010 01:00:00 -8 C 1.99 g/m*3 -8 C 0 km/h
2423 26-12-2010 02:00:00 -8.78 C 1.88 g/m*3 -8.78 C 0 km/h
2424 26-12-2010 03:00:00 -9.04 C 1.82 g/m*3 -9.04 C 0 km/h
2425 26-12-2010 04:00:00 -9.04 C 1.85 g/m*3 -9.04 C 0 km/h
Sensor: Nr:Datum:Temp:Abs-Feuchte:Windchill:Wind:
Aussen-T/F 2426 26-12-2010 05:00:00 -8.44 C 1.94 g/m*3 -8.44 C 0 km/h
2427 26-12-2010 06:00:00 -7.24 C 2.11 g/m*3 -7.24 C 0 km/h
2428 26-12-2010 07:00:00 -6.34 C 2.24 g/m*3 -6.34 C 0 km/h
2429 26-12-2010 08:00:00 -5.84 C 2.36 g/m*3 -5.84 C 0 km/h
2430 26-12-2010 09:00:00 -4.88 C 2.6 g/m*3 -4.88 C 0 km/h
2431 26-12-2010 10:00:00 -4.24 C 2.68 g/m*3 -4.24 C 0 km/h
2432 26-12-2010 11:00:00 -3.52 C 2.69 g/m*3 -3.52 C 0 km/h
2433 26-12-2010 12:00:00 -3.14 C 2.78 g/m*3 -3.14 C 0 km/h
2434 26-12-2010 13:00:00 -2.72 C 2.85 g/m*3 -2.72 C 0 km/h
2435 26-12-2010 14:00:00 -2.66 C 3 g/m*3 -2.66 C 0 km/h
2436 26-12-2010 15:00:00 -2.72 C 3.13 g/m*3 -2.72 C 0 km/h
2437 26-12-2010 16:00:00 -2.86 C 3.16 g/m*3 -2.86 C 0 km/h
2438 26-12-2010 17:00:00 -2.82 C 3.17 g/m*3 -2.82 C 0 km/h
2439 26-12-2010 18:00:00 -2.9 C 3.17 g/m*3 -2.9 C 0 km/h
2440 26-12-2010 19:00:00 -2.72 C 3.18 g/m*3 -2.72 C 0 km/h
2441 26-12-2010 20:00:00 -3.04 C 3.16 g/m*3 -3.04 C 0 km/h
2442 26-12-2010 21:00:00 -3.3 C 3.08 g/m*3 -3.3 C 0 km/h
2443 26-12-2010 22:00:00 -3.04 C 3.13 g/m*3 -3.04 C 0 km/h
2444 26-12-2010 23:00:00 -2.72 C 3.18 g/m*3 -2.72 C 0 km/h
2445 27-12-2010 00:00:00 -2.64 C 3.22 g/m*3 -2.64 C 0 km/h
2446 27-12-2010 01:00:00 -1.92 C 3.31 g/m*3 -1.92 C 0 km/h
2447 27-12-2010 02:00:00 -1.6 C 3.35 g/m*3 -1.6 C 0 km/h
2448 27-12-2010 03:00:00 -1.38 C 3.41 g/m*3 -1.38 C 0 km/h
2449 27-12-2010 04:00:00 -1.3 C 3.36 g/m*3 -1.3 C 0 km/h
2450 27-12-2010 05:00:00 -1.32 C 3.37 g/m*3 -1.32 C 0 km/h
Sensor: Nr:Datum:Temp:Abs-Feuchte:Windchill:Wind:
Aussen-T/F 2451 27-12-2010 06:00:00 -1.44 C 3.38 g/m*3 -1.44 C 0 km/h
2452 27-12-2010 07:00:00 -1.62 C 3.33 g/m*3 -1.62 C 0 km/h
2453 27-12-2010 08:00:00 -1.86 C 3.29 g/m*3 -1.86 C 0 km/h
2454 27-12-2010 09:00:00 -1.78 C 3.24 g/m*3 -1.78 C 0 km/h
2455 27-12-2010 10:00:00 -1.42 C 3.27 g/m*3 -1.42 C 0 km/h
2456 27-12-2010 11:00:00 -1.16 C 3.26 g/m*3 -1.16 C 0 km/h
2457 27-12-2010 12:00:00 -1.02 C 3.22 g/m*3 -1.02 C 0 km/h
2458 27-12-2010 13:00:00 -0.88 C 3.29 g/m*3 -0.88 C 0 km/h
2459 27-12-2010 14:00:00 -1.04 C 3.27 g/m*3 -1.04 C 0 km/h
2460 27-12-2010 15:00:00 -1.3 C 3.33 g/m*3 -1.3 C 0 km/h
2461 27-12-2010 16:00:00 -2.3 C 3.25 g/m*3 -2.3 C 0 km/h
2462 27-12-2010 17:00:00 -3.16 C 3.25 g/m*3 -3.16 C 0 km/h
2463 27-12-2010 18:00:00 -3.18 C 3.34 g/m*3 -3.18 C 0 km/h
2464 27-12-2010 19:00:00 -3.74 C 3.21 g/m*3 -3.74 C 0 km/h
2465 27-12-2010 20:00:00 -4.3 C 3.12 g/m*3 -4.3 C 0 km/h
2466 27-12-2010 21:00:00 -4.4 C 3.1 g/m*3 -4.4 C 0 km/h
2467 27-12-2010 22:00:00 -4.14 C 3.16 g/m*3 -4.14 C 0 km/h
2468 27-12-2010 23:00:00 -4.34 C 3.11 g/m*3 -4.34 C 0 km/h
2469 28-12-2010 00:00:00 -4.46 C 3.08 g/m*3 -4.46 C 0 km/h
2470 28-12-2010 01:00:00 -4.3 C 3.12 g/m*3 -4.3 C 0 km/h
2471 28-12-2010 02:00:00 -4.16 C 3.15 g/m*3 -4.16 C 0 km/h
2472 28-12-2010 03:00:00 -4.36 C 3.08 g/m*3 -4.36 C 0 km/h
2473 28-12-2010 04:00:00 -4.16 C 3.15 g/m*3 -4.16 C 0 km/h
2474 28-12-2010 05:00:00 -3.78 C 3.23 g/m*3 -3.78 C 0 km/h
2475 28-12-2010 06:00:00 -3.74 C 3.24 g/m*3 -3.74 C 0 km/h
Sensor: Nr:Datum:Temp:Abs-Feuchte:Windchill:Wind:
Aussen-T/F 2476 28-12-2010 07:00:00 -3.72 C 3.22 g/m*3 -3.72 C 0 km/h
2477 28-12-2010 08:00:00 -3.56 C 3.25 g/m*3 -3.56 C 0 km/h
2478 28-12-2010 09:00:00 -2.68 C 3.44 g/m*3 -2.68 C 0 km/h
2479 28-12-2010 10:00:00 -1.12 C 3.61 g/m*3 -1.12 C 0 km/h
2480 28-12-2010 11:00:00 -0.54 C 3.46 g/m*3 -0.54 C 0 km/h
2481 28-12-2010 12:00:00 0.3 C 3.31 g/m*3 0.3 C 0 km/h
2482 28-12-2010 13:00:00 0.36 C 3.32 g/m*3 0.36 C 0 km/h
2483 28-12-2010 14:00:00 0 C 3.33 g/m*3 0 C 0 km/h
2484 28-12-2010 15:00:00 -0.54 C 3.42 g/m*3 -0.54 C 0 km/h
2485 28-12-2010 16:00:00 -0.68 C 3.39 g/m*3 -0.68 C 0 km/h
2486 28-12-2010 17:00:00 -0.7 C 3.42 g/m*3 -0.7 C 0 km/h
2487 28-12-2010 18:00:00 -0.88 C 3.38 g/m*3 -0.88 C 0 km/h
2488 28-12-2010 19:00:00 -1.2 C 3.45 g/m*3 -1.2 C 0 km/h
2489 28-12-2010 20:00:00 -1.4 C 3.43 g/m*3 -1.4 C 0 km/h
2490 28-12-2010 21:00:00 -1.86 C 3.4 g/m*3 -1.86 C 0 km/h
2491 28-12-2010 22:00:00 -1.275 C 3.59 g/m*3 -1.27 C 0 km/h
2492 28-12-2010 23:00:00 -1.28 C 3.58 g/m*3 -1.28 C 0 km/h
2493 29-12-2010 00:00:00 -1.32 C 3.56 g/m*3 -1.32 C 0 km/h
2494 29-12-2010 01:00:00 -1.3 C 3.62 g/m*3 -1.3 C 0 km/h
2495 29-12-2010 02:00:00 -1.3 C 3.64 g/m*3 -1.3 C 0 km/h
2496 29-12-2010 03:00:00 -1.22 C 3.68 g/m*3 -1.22 C 0 km/h
2497 29-12-2010 04:00:00 -1.28 C 3.66 g/m*3 -1.28 C 0 km/h
2498 29-12-2010 05:00:00 -1.3 C 3.67 g/m*3 -1.3 C 0 km/h
2499 29-12-2010 06:00:00 -1.2 C 3.73 g/m*3 -1.2 C 0 km/h
2500 29-12-2010 07:00:00 -1.1 C 3.79 g/m*3 -1.1 C 0 km/h
Sensor: Nr:Datum:Temp:Abs-Feuchte:Windchill:Wind:
Aussen-T/F 2501 29-12-2010 08:00:00 -1.1 C 3.83 g/m*3 -1.1 C 0 km/h
2502 29-12-2010 09:00:00 -0.74 C 3.88 g/m*3 -0.74 C 0 km/h
2503 29-12-2010 10:00:00 0.14 C 3.75 g/m*3 0.14 C 0 km/h
2504 29-12-2010 11:00:00 0.58 C 3.6 g/m*3 0.58 C 0 km/h
2505 29-12-2010 12:00:00 0.88 C 3.58 g/m*3 0.88 C 0 km/h
2506 29-12-2010 13:00:00 1.34 C 3.61 g/m*3 1.34 C 0 km/h
2507 29-12-2010 14:00:00 1.76 C 3.66 g/m*3 1.76 C 0 km/h
2508 29-12-2010 15:00:00 1.18 C 3.73 g/m*3 1.18 C 0 km/h
2509 29-12-2010 16:00:00 0.62 C 3.85 g/m*3 0.62 C 0 km/h
2510 29-12-2010 17:00:00 0.28 C 3.85 g/m*3 0.28 C 0 km/h
2511 29-12-2010 18:00:00 0.14 C 3.89 g/m*3 0.14 C 0 km/h
2512 29-12-2010 19:00:00 0.06 C 3.97 g/m*3 0.06 C 0 km/h
2513 29-12-2010 20:00:00 -0.04 C 3.96 g/m*3 -0.04 C 0 km/h
2514 29-12-2010 21:00:00 -0.18 C 3.92 g/m*3 -0.18 C 0 km/h
2515 29-12-2010 22:00:00 -0.32 C 3.84 g/m*3 -0.32 C 0 km/h
2516 29-12-2010 23:00:00 -0.7 C 3.79 g/m*3 -0.7 C 0 km/h
2517 30-12-2010 00:00:00 -0.925 C 3.79 g/m*3 -0.93 C 0 km/h
2518 30-12-2010 01:00:00 -1.32 C 3.7 g/m*3 -1.32 C 0 km/h
2519 30-12-2010 02:00:00 -1.46 C 3.75 g/m*3 -1.46 C 0 km/h
2520 30-12-2010 03:00:00 -1.14 C 3.85 g/m*3 -1.14 C 0 km/h
2521 30-12-2010 04:00:00 -1.14 C 3.76 g/m*3 -1.14 C 0 km/h
2522 30-12-2010 05:00:00 -2.82 C 3.25 g/m*3 -2.82 C 0 km/h
2523 30-12-2010 06:00:00 -1.24 C 3.53 g/m*3 -1.24 C 0 km/h
2524 30-12-2010 07:00:00 -1.34 C 3.44 g/m*3 -1.34 C 0 km/h
2525 30-12-2010 08:00:00 -1.4 C 3.45 g/m*3 -1.4 C 0 km/h
Sensor: Nr:Datum:Temp:Abs-Feuchte:Windchill:Wind:
Aussen-T/F 2526 30-12-2010 09:00:00 -1.1 C 3.47 g/m*3 -1.1 C 0 km/h
2527 30-12-2010 10:00:00 -0.45 C 3.46 g/m*3 -0.45 C 0 km/h
2528 30-12-2010 11:00:00 0.08 C 3.53 g/m*3 0.08 C 0 km/h
2529 30-12-2010 12:00:00 0.6 C 3.59 g/m*3 0.6 C 0 km/h
2530 30-12-2010 13:00:00 1.2 C 3.59 g/m*3 1.2 C 0 km/h
2531 30-12-2010 14:00:00 1.32 C 3.61 g/m*3 1.32 C 0 km/h
2532 30-12-2010 15:00:00 0.98 C 3.67 g/m*3 0.98 C 0 km/h
2533 30-12-2010 16:00:00 0.3 C 3.73 g/m*3 0.3 C 0 km/h
2534 30-12-2010 17:00:00 0.04 C 3.74 g/m*3 0.04 C 0 km/h
2535 30-12-2010 18:00:00 -0.3 C 3.68 g/m*3 -0.3 C 0 km/h
2536 30-12-2010 19:00:00 -0.44 C 3.75 g/m*3 -0.44 C 0 km/h
2537 30-12-2010 20:00:00 -0.48 C 3.71 g/m*3 -0.48 C 0 km/h
2538 30-12-2010 21:00:00 -0.6 C 3.63 g/m*3 -0.6 C 0 km/h
2539 30-12-2010 22:00:00 -0.78 C 3.59 g/m*3 -0.78 C 0 km/h
2540 30-12-2010 23:00:00 -0.96 C 3.51 g/m*3 -0.96 C 0 km/h
2541 31-12-2010 00:00:00 -1.1 C 3.49 g/m*3 -1.1 C 0 km/h
2542 31-12-2010 01:00:00 -1.14 C 3.54 g/m*3 -1.14 C 0 km/h
2543 31-12-2010 02:00:00 -1.34 C 3.49 g/m*3 -1.34 C 0 km/h
2544 31-12-2010 03:00:00 -1.76 C 3.4 g/m*3 -1.76 C 0 km/h
2545 31-12-2010 04:00:00 -1.98 C 3.38 g/m*3 -1.98 C 0 km/h
2546 31-12-2010 05:00:00 -2.12 C 3.34 g/m*3 -2.12 C 0 km/h
2547 31-12-2010 06:00:00 -2.26 C 3.29 g/m*3 -2.26 C 0 km/h
2548 31-12-2010 07:00:00 -2.12 C 3.36 g/m*3 -2.12 C 0 km/h
2549 31-12-2010 08:00:00 -2.12 C 3.39 g/m*3 -2.12 C 0 km/h
2550 31-12-2010 09:00:00 -2.18 C 3.35 g/m*3 -2.18 C 0 km/h
Sensor: Nr:Datum:Temp:Abs-Feuchte:Windchill:Wind:
Aussen-T/F 2551 31-12-2010 10:00:00 -1.9 C 3.35 g/m*3 -1.9 C 0 km/h
2552 31-12-2010 11:00:00 -1.22 C 3.38 g/m*3 -1.22 C 0 km/h
2553 31-12-2010 12:00:00 -0.92 C 3.41 g/m*3 -0.92 C 0 km/h
2554 31-12-2010 13:00:00 -0.18 C 3.46 g/m*3 -0.18 C 0 km/h
2555 31-12-2010 14:00:00 0.24 C 3.37 g/m*3 0.24 C 0 km/h
2556 31-12-2010 15:00:00 -0.34 C 3.43 g/m*3 -0.34 C 0 km/h
2557 31-12-2010 16:00:00 -0.56 C 3.52 g/m*3 -0.56 C 0 km/h
2558 31-12-2010 17:00:00 -0.6 C 3.63 g/m*3 -0.6 C 0 km/h
2559 31-12-2010 18:00:00 -0.54 C 3.76 g/m*3 -0.54 C 0 km/h
2560 31-12-2010 19:00:00 -0.6 C 3.82 g/m*3 -0.6 C 0 km/h
2561 31-12-2010 20:00:00 -0.64 C 3.94 g/m*3 -0.64 C 0 km/h
2562 31-12-2010 21:00:00 -0.58 C 4.02 g/m*3 -0.58 C 0 km/h
2563 31-12-2010 22:00:00 -0.38 C 4.11 g/m*3 -0.38 C 0 km/h
2564 31-12-2010 23:00:00 -0.325 C 4.12 g/m*3 -0.33 C 0 km/h
2565 01-01-2011 00:00:00 -0.32 C 4.12 g/m*3 -0.32 C 0 km/h
2566 01-01-2011 01:00:00 -0.28 C 4.18 g/m*3 -0.28 C 0 km/h
2567 01-01-2011 02:00:00 -0.14 C 4.22 g/m*3 -0.14 C 0 km/h
2568 01-01-2011 03:00:00 -0.13333 C 4.22 g/m*3 -0.13 C 0 km/h
2569 01-01-2011 04:00:00 -0.2 C 4.21 g/m*3 -0.2 C 0 km/h
2570 01-01-2011 05:00:00 -0.02 C 4.3 g/m*3 -0.02 C 0 km/h
2571 01-01-2011 06:00:00 0.36 C 4.29 g/m*3 0.36 C 0 km/h
2572 01-01-2011 07:00:00 0.5 C 4.25 g/m*3 0.5 C 0 km/h
2573 01-01-2011 08:00:00 0.82 C 4.3 g/m*3 0.82 C 0 km/h
2574 01-01-2011 09:00:00 1.08 C 4.38 g/m*3 1.08 C 0 km/h
2575 01-01-2011 10:00:00 1.36 C 4.59 g/m*3 1.36 C 0 km/h
Sensor: Nr:Datum:Temp:Abs-Feuchte:Windchill:Wind:
Aussen-T/F 2576 01-01-2011 11:00:00 1.94 C 4.68 g/m*3 1.94 C 0 km/h
2577 01-01-2011 12:00:00 2.44 C 4.63 g/m*3 2.44 C 0 km/h
2578 01-01-2011 13:00:00 2.92 C 4.62 g/m*3 2.92 C 0 km/h
2579 01-01-2011 14:00:00 2.54 C 4.63 g/m*3 2.54 C 0 km/h
2580 01-01-2011 15:00:00 2.02 C 4.64 g/m*3 2.02 C 0 km/h
2581 01-01-2011 16:00:00 1.58 C 4.73 g/m*3 1.58 C 0 km/h
2582 01-01-2011 17:00:00 1.34 C 4.75 g/m*3 1.34 C 0 km/h
2583 01-01-2011 18:00:00 1.46 C 4.87 g/m*3 1.46 C 0 km/h
2584 01-01-2011 19:00:00 1.96 C 5.05 g/m*3 1.96 C 0 km/h
2585 01-01-2011 20:00:00 1.72 C 4.93 g/m*3 1.72 C 0 km/h
2586 01-01-2011 21:00:00 1.18 C 4.73 g/m*3 1.18 C 0 km/h
2587 01-01-2011 22:00:00 1.06 C 4.73 g/m*3 1.06 C 0 km/h
2588 01-01-2011 23:00:00 0.3 C 4.5 g/m*3 0.3 C 0 km/h
2589 02-01-2011 00:00:00 0.18 C 4.5 g/m*3 0.18 C 0 km/h
2590 02-01-2011 01:00:00 0.32 C 4.57 g/m*3 0.32 C 0 km/h
2591 02-01-2011 02:00:00 0.36 C 4.61 g/m*3 0.36 C 0 km/h
2592 02-01-2011 03:00:00 0.44 C 4.64 g/m*3 0.44 C 0 km/h
2593 02-01-2011 04:00:00 0.5 C 4.65 g/m*3 0.5 C 0 km/h
2594 02-01-2011 05:00:00 0.28 C 4.54 g/m*3 0.28 C 0 km/h
2595 02-01-2011 06:00:00 0.3 C 4.54 g/m*3 0.3 C 0 km/h
2596 02-01-2011 07:00:00 0.3 C 4.47 g/m*3 0.3 C 0 km/h
2597 02-01-2011 08:00:00 0.12 C 4.34 g/m*3 0.12 C 0 km/h
2598 02-01-2011 09:00:00 0.54 C 4.48 g/m*3 0.54 C 0 km/h
2599 02-01-2011 10:00:00 1.42 C 4.47 g/m*3 1.42 C 0 km/h
2600 02-01-2011 11:00:00 1.8 C 4.16 g/m*3 1.8 C 0 km/h
Sensor: Nr:Datum:Temp:Abs-Feuchte:Windchill:Wind:
Aussen-T/F 2601 02-01-2011 12:00:00 2.06 C 4.16 g/m*3 2.06 C 0 km/h
2602 02-01-2011 13:00:00 2.5 C 4.14 g/m*3 2.5 C 0 km/h
2603 02-01-2011 14:00:00 2.22 C 4.07 g/m*3 2.22 C 0 km/h
2604 02-01-2011 15:00:00 1.7 C 4.03 g/m*3 1.7 C 0 km/h
2605 02-01-2011 16:00:00 1.44 C 4.19 g/m*3 1.44 C 0 km/h
2606 02-01-2011 17:00:00 0.66 C 4.36 g/m*3 0.66 C 0 km/h
2607 02-01-2011 18:00:00 0.62 C 4.45 g/m*3 0.62 C 0 km/h
2608 02-01-2011 19:00:00 0.58 C 4.44 g/m*3 0.58 C 0 km/h
2609 02-01-2011 20:00:00 0.42 C 4.36 g/m*3 0.42 C 0 km/h
2610 02-01-2011 21:00:00 0.18 C 4.32 g/m*3 0.18 C 0 km/h
2611 02-01-2011 22:00:00 0.2 C 4.29 g/m*3 0.2 C 0 km/h
2612 02-01-2011 23:00:00 0.12 C 4.3 g/m*3 0.12 C 0 km/h
2613 03-01-2011 00:00:00 0.12 C 4.34 g/m*3 0.12 C 0 km/h
2614 03-01-2011 01:00:00 0.06 C 4.28 g/m*3 0.06 C 0 km/h
2615 03-01-2011 02:00:00 -0.16 C 4.22 g/m*3 -0.16 C 0 km/h
2616 03-01-2011 03:00:00 -0.3 C 4.12 g/m*3 -0.3 C 0 km/h
2617 03-01-2011 04:00:00 -0.88 C 3.85 g/m*3 -0.88 C 0 km/h
2618 03-01-2011 05:00:00 -1.04 C 3.84 g/m*3 -1.04 C 0 km/h
2619 03-01-2011 06:00:00 -1.12 C 3.88 g/m*3 -1.12 C 0 km/h
2620 03-01-2011 07:00:00 -1.08 C 3.99 g/m*3 -1.08 C 0 km/h
2621 03-01-2011 08:00:00 -1.3 C 3.9 g/m*3 -1.3 C 0 km/h
2622 03-01-2011 09:00:00 -1.22 C 3.93 g/m*3 -1.22 C 0 km/h
2623 03-01-2011 10:00:00 -1.02 C 3.86 g/m*3 -1.02 C 0 km/h
2624 03-01-2011 11:00:00 -0.3 C 3.73 g/m*3 -0.3 C 0 km/h
2625 03-01-2011 12:00:00 0.26 C 3.73 g/m*3 0.26 C 0 km/h
Sensor: Nr:Datum:Temp:Abs-Feuchte:Windchill:Wind:
Aussen-T/F 2626 03-01-2011 13:00:00 0.92 C 3.81 g/m*3 0.92 C 0 km/h
2627 03-01-2011 14:00:00 0.86 C 3.86 g/m*3 0.86 C 0 km/h
2628 03-01-2011 15:00:00 -0.08 C 3.74 g/m*3 -0.08 C 0 km/h
2629 03-01-2011 16:00:00 -1.54 C 3.65 g/m*3 -1.54 C 0 km/h
2630 03-01-2011 17:00:00 -2.46 C 3.53 g/m*3 -2.46 C 0 km/h
2631 03-01-2011 18:00:00 -1.3 C 3.93 g/m*3 -1.3 C 0 km/h
2632 03-01-2011 19:00:00 -1.22 C 3.98 g/m*3 -1.22 C 0 km/h
2633 03-01-2011 20:00:00 -2 C 3.76 g/m*3 -2 C 0 km/h
2634 03-01-2011 21:00:00 -2.5 C 3.63 g/m*3 -2.5 C 0 km/h
2635 03-01-2011 22:00:00 -1.6 C 3.9 g/m*3 -1.6 C 0 km/h
2636 03-01-2011 23:00:00 -3 C 3.53 g/m*3 -3 C 0 km/h
2637 04-01-2011 00:00:00 -3.64 C 3.38 g/m*3 -3.64 C 0 km/h
2638 04-01-2011 01:00:00 -3.94 C 3.29 g/m*3 -3.94 C 0 km/h
2639 04-01-2011 02:00:00 -3.3 C 3.46 g/m*3 -3.3 C 0 km/h
2640 04-01-2011 03:00:00 -3.18 C 3.47 g/m*3 -3.18 C 0 km/h
2641 04-01-2011 04:00:00 -3.44 C 3.4 g/m*3 -3.44 C 0 km/h
2642 04-01-2011 05:00:00 -3.74 C 3.3 g/m*3 -3.74 C 0 km/h
2643 04-01-2011 06:00:00 -3.84 C 3.27 g/m*3 -3.84 C 0 km/h
2644 04-01-2011 07:00:00 -2.72 C 3.57 g/m*3 -2.72 C 0 km/h
2645 04-01-2011 08:00:00 -2.14 C 3.76 g/m*3 -2.14 C 0 km/h
2646 04-01-2011 09:00:00 -1.88 C 3.83 g/m*3 -1.88 C 0 km/h
2647 04-01-2011 10:00:00 -1.02 C 4.06 g/m*3 -1.02 C 0 km/h
2648 04-01-2011 11:00:00 -0.42 C 4.05 g/m*3 -0.42 C 0 km/h
2649 04-01-2011 12:00:00 -0.26 C 3.46 g/m*3 -0.26 C 0 km/h
2650 04-01-2011 13:00:00 0.1 C 3.4 g/m*3 0.1 C 0 km/h
Sensor: Nr:Datum:Temp:Abs-Feuchte:Windchill:Wind:
Aussen-T/F 2651 04-01-2011 14:00:00 0.06 C 3.33 g/m*3 0.06 C 0 km/h
2652 04-01-2011 15:00:00 -0.92 C 3.25 g/m*3 -0.92 C 0 km/h
2653 04-01-2011 16:00:00 -1.18 C 3.26 g/m*3 -1.18 C 0 km/h
2654 04-01-2011 17:00:00 -2 C 3.21 g/m*3 -2 C 0 km/h
2655 04-01-2011 18:00:00 -2.22 C 3.18 g/m*3 -2.22 C 0 km/h
2656 04-01-2011 19:00:00 -3.56 C 2.94 g/m*3 -3.56 C 0 km/h
2657 04-01-2011 20:00:00 -4.2 C 2.89 g/m*3 -4.2 C 0 km/h
2658 04-01-2011 21:00:00 -3.72 C 2.98 g/m*3 -3.72 C 0 km/h
2659 04-01-2011 22:00:00 -2.82 C 2.86 g/m*3 -2.82 C 0 km/h
2660 04-01-2011 23:00:00 -2.82 C 2.83 g/m*3 -2.82 C 0 km/h
2661 05-01-2011 00:00:00 -2.88 C 2.88 g/m*3 -2.88 C 0 km/h
2662 05-01-2011 01:00:00 -2.98 C 2.74 g/m*3 -2.98 C 0 km/h
2663 05-01-2011 02:00:00 -2.92 C 2.75 g/m*3 -2.92 C 0 km/h
2664 05-01-2011 03:00:00 -2.96 C 2.76 g/m*3 -2.96 C 0 km/h
2665 05-01-2011 04:00:00 -3.56 C 2.54 g/m*3 -3.56 C 0 km/h
2666 05-01-2011 05:00:00 -4.06 C 2.5 g/m*3 -4.06 C 0 km/h
2667 05-01-2011 06:00:00 -4.88 C 2.36 g/m*3 -4.88 C 0 km/h
2668 05-01-2011 07:00:00 -6.04 C 2.24 g/m*3 -6.04 C 0 km/h
2669 05-01-2011 08:00:00 -7.46 C 2.16 g/m*3 -7.46 C 0 km/h
2670 05-01-2011 09:00:00 -6.64 C 2.35 g/m*3 -6.64 C 0 km/h
2671 05-01-2011 10:00:00 -4.26 C 2.44 g/m*3 -4.26 C 0 km/h
2672 05-01-2011 11:00:00 -3.2 C 2.38 g/m*3 -3.2 C 0 km/h
2673 05-01-2011 12:00:00 -3.68 C 2.34 g/m*3 -3.68 C 0 km/h
2674 05-01-2011 13:00:00 -3.76 C 2.43 g/m*3 -3.76 C 0 km/h
2675 05-01-2011 14:00:00 -3.38 C 2.52 g/m*3 -3.38 C 0 km/h
Sensor: Nr:Datum:Temp:Abs-Feuchte:Windchill:Wind:
Aussen-T/F 2676 05-01-2011 15:00:00 -3.74 C 2.56 g/m*3 -3.74 C 0 km/h
2677 05-01-2011 16:00:00 -4.44 C 2.56 g/m*3 -4.44 C 0 km/h
2678 05-01-2011 17:00:00 -5.7 C 2.52 g/m*3 -5.7 C 0 km/h
2679 05-01-2011 18:00:00 -5.7 C 2.6 g/m*3 -5.7 C 0 km/h
2680 05-01-2011 19:00:00 -3.86 C 2.93 g/m*3 -3.86 C 0 km/h
2681 05-01-2011 20:00:00 -2.66 C 3.07 g/m*3 -2.66 C 0 km/h
2682 05-01-2011 21:00:00 -1.68 C 3.21 g/m*3 -1.68 C 0 km/h
2683 05-01-2011 22:00:00 -1.06 C 3.5 g/m*3 -1.06 C 0 km/h
2684 05-01-2011 23:00:00 -0.56 C 3.76 g/m*3 -0.56 C 0 km/h
2685 06-01-2011 00:00:00 -0.58 C 3.83 g/m*3 -0.58 C 0 km/h
2686 06-01-2011 01:00:00 -0.22 C 3.97 g/m*3 -0.22 C 0 km/h
2687 06-01-2011 02:00:00 0.3 C 4.29 g/m*3 0.3 C 0 km/h
2688 06-01-2011 03:00:00 0.64 C 4.54 g/m*3 0.64 C 0 km/h
2689 06-01-2011 04:00:00 0.88 C 4.68 g/m*3 0.88 C 0 km/h
2690 06-01-2011 05:00:00 1.04 C 4.74 g/m*3 1.04 C 0 km/h
2691 06-01-2011 06:00:00 1.26 C 4.86 g/m*3 1.26 C 0 km/h
2692 06-01-2011 07:00:00 1.38 C 4.9 g/m*3 1.38 C 0 km/h
2693 06-01-2011 08:00:00 1.54 C 4.97 g/m*3 1.54 C 0 km/h
2694 06-01-2011 09:00:00 2.54 C 5.3 g/m*3 2.54 C 0 km/h
2695 06-01-2011 10:00:00 4.5 C 6.03 g/m*3 4.5 C 0 km/h
2696 06-01-2011 11:00:00 6.08 C 6.27 g/m*3 6.08 C 0 km/h
2697 06-01-2011 12:00:00 5.34 C 5.8 g/m*3 5.34 C 0 km/h
2698 06-01-2011 13:00:00 4.5 C 5.69 g/m*3 4.5 C 0 km/h
2699 06-01-2011 14:00:00 4.12 C 5.59 g/m*3 4.12 C 0 km/h
2700 06-01-2011 15:00:00 3.94 C 5.62 g/m*3 3.94 C 0 km/h
Sensor: Nr:Datum:Temp:Abs-Feuchte:Windchill:Wind:
Aussen-T/F 2701 06-01-2011 16:00:00 3.92 C 5.65 g/m*3 3.92 C 0 km/h
2702 06-01-2011 17:00:00 4.14 C 5.79 g/m*3 4.14 C 0 km/h
2703 06-01-2011 18:00:00 4.6 C 6.02 g/m*3 4.6 C 0 km/h
2704 06-01-2011 19:00:00 5.02 C 6.23 g/m*3 5.02 C 0 km/h
2705 06-01-2011 20:00:00 7.36 C 7.14 g/m*3 7.36 C 0 km/h
2706 06-01-2011 21:00:00 8.56 C 7.35 g/m*3 8.56 C 0 km/h
2707 06-01-2011 22:00:00 9.5 C 7.14 g/m*3 9.5 C 0 km/h
2708 06-01-2011 23:00:00 9.08 C 7 g/m*3 9.08 C 0 km/h
2709 07-01-2011 00:00:00 7.38 C 6.64 g/m*3 7.38 C 0 km/h
2710 07-01-2011 01:00:00 6.64 C 6.66 g/m*3 6.64 C 0 km/h
2711 07-01-2011 02:00:00 5.82 C 6.46 g/m*3 5.82 C 0 km/h
2712 07-01-2011 03:00:00 5.62 C 6.44 g/m*3 5.62 C 0 km/h
2713 07-01-2011 04:00:00 5.36 C 6.33 g/m*3 5.36 C 0 km/h
2714 07-01-2011 05:00:00 5.28 C 6.34 g/m*3 5.28 C 0 km/h
2715 07-01-2011 06:00:00 4.9 C 6.18 g/m*3 4.9 C 0 km/h
2716 07-01-2011 07:00:00 5.04 C 6.27 g/m*3 5.04 C 0 km/h
2717 07-01-2011 08:00:00 4.88 C 6.2 g/m*3 4.88 C 0 km/h
2718 07-01-2011 09:00:00 4.9 C 6.21 g/m*3 4.9 C 0 km/h
2719 07-01-2011 10:00:00 5.5 C 6.43 g/m*3 5.5 C 0 km/h
2720 07-01-2011 11:00:00 6.76 C 6.94 g/m*3 6.76 C 0 km/h
2721 07-01-2011 12:00:00 7.28 C 7.12 g/m*3 7.28 C 0 km/h
2722 07-01-2011 13:00:00 7.38 C 7.12 g/m*3 7.38 C 0 km/h
2723 07-01-2011 14:00:00 7.42 C 7.13 g/m*3 7.42 C 0 km/h
2724 07-01-2011 15:00:00 7.18 C 7.06 g/m*3 7.18 C 0 km/h
2725 07-01-2011 16:00:00 7.06 C 7.02 g/m*3 7.06 C 0 km/h
Sensor: Nr:Datum:Temp:Abs-Feuchte:Windchill:Wind:
Aussen-T/F 2726 07-01-2011 17:00:00 7.52 C 7.29 g/m*3 7.52 C 0 km/h
2727 07-01-2011 18:00:00 9.32 C 8.08 g/m*3 9.32 C 0 km/h
2728 07-01-2011 19:00:00 9.44 C 7.83 g/m*3 9.44 C 0 km/h
2729 07-01-2011 20:00:00 8.9 C 7.78 g/m*3 8.9 C 0 km/h
2730 07-01-2011 21:00:00 9 C 7.86 g/m*3 9 C 0 km/h
2731 07-01-2011 22:00:00 8.7 C 7.66 g/m*3 8.7 C 0 km/h
2732 07-01-2011 23:00:00 8.76 C 7.71 g/m*3 8.76 C 0 km/h
2733 08-01-2011 00:00:00 8.64 C 7.5 g/m*3 8.64 C 0 km/h
2734 08-01-2011 01:00:00 7.46 C 7.09 g/m*3 7.46 C 0 km/h
2735 08-01-2011 02:00:00 6.72 C 6.89 g/m*3 6.72 C 0 km/h
2736 08-01-2011 03:00:00 7.92 C 7.5 g/m*3 7.92 C 0 km/h
2737 08-01-2011 04:00:00 7.88 C 7.51 g/m*3 7.88 C 0 km/h
2738 08-01-2011 05:00:00 7.94 C 7.56 g/m*3 7.94 C 0 km/h
2739 08-01-2011 06:00:00 7.98 C 7.63 g/m*3 7.98 C 0 km/h
2740 08-01-2011 07:00:00 8.16 C 7.7 g/m*3 8.16 C 0 km/h
2741 08-01-2011 08:00:00 8.34 C 7.81 g/m*3 8.34 C 0 km/h
2742 08-01-2011 09:00:00 8.7 C 7.94 g/m*3 8.7 C 0 km/h
2743 08-01-2011 10:00:00 7.78 C 7.48 g/m*3 7.78 C 0 km/h
2744 08-01-2011 11:00:00 10.2 C 7.88 g/m*3 10.2 C 0 km/h
2745 08-01-2011 12:00:00 13.1 C 6.6 g/m*3 13.1 C 0 km/h
2746 08-01-2011 13:00:00 14.18 C 6.07 g/m*3 14.18 C 0 km/h
2747 08-01-2011 14:00:00 14.4 C 5.86 g/m*3 14.4 C 0 km/h
2748 08-01-2011 15:00:00 14.12 C 5.86 g/m*3 14.12 C 0 km/h
2749 08-01-2011 16:00:00 13.6 C 5.86 g/m*3 13.6 C 0 km/h
2750 08-01-2011 17:00:00 13.28 C 5.91 g/m*3 13.28 C 0 km/h
Sensor: Nr:Datum:Temp:Abs-Feuchte:Windchill:Wind:
Aussen-T/F 2751 08-01-2011 18:00:00 13.44 C 5.87 g/m*3 13.44 C 0 km/h
2752 08-01-2011 19:00:00 13.16 C 5.93 g/m*3 13.16 C 0 km/h
2753 08-01-2011 20:00:00 12.32 C 6.35 g/m*3 12.32 C 0 km/h
2754 08-01-2011 21:00:00 12.04 C 6.6 g/m*3 12.04 C 0 km/h
2755 08-01-2011 22:00:00 11.94 C 6.56 g/m*3 11.94 C 0 km/h
2756 08-01-2011 23:00:00 10.32 C 7.13 g/m*3 10.32 C 0 km/h
2757 09-01-2011 00:00:00 9.64 C 7.66 g/m*3 9.64 C 0 km/h
2758 09-01-2011 01:00:00 9.62 C 7.98 g/m*3 9.62 C 0 km/h
2759 09-01-2011 02:00:00 9.78 C 7.93 g/m*3 9.78 C 0 km/h
2760 09-01-2011 03:00:00 9.32 C 7.77 g/m*3 9.32 C 0 km/h
2761 09-01-2011 04:00:00 10.92 C 7.59 g/m*3 10.92 C 0 km/h
2762 09-01-2011 05:00:00 11.08 C 7.1 g/m*3 11.08 C 0 km/h
2763 09-01-2011 06:00:00 7.3 C 6.54 g/m*3 7.3 C 0 km/h
2764 09-01-2011 07:00:00 6.12 C 6.39 g/m*3 6.12 C 0 km/h
2765 09-01-2011 08:00:00 5.16 C 6.04 g/m*3 5.16 C 0 km/h
2766 09-01-2011 09:00:00 3.98 C 5.5 g/m*3 3.98 C 0 km/h
2767 09-01-2011 10:00:00 3.02 C 5.18 g/m*3 3.02 C 0 km/h
2768 09-01-2011 11:00:00 4.1 C 5.47 g/m*3 4.1 C 0 km/h
2769 09-01-2011 12:00:00 4.56 C 5.39 g/m*3 4.56 C 0 km/h
2770 09-01-2011 13:00:00 5.08 C 5.33 g/m*3 5.08 C 0 km/h
2771 09-01-2011 14:00:00 5.24 C 5.26 g/m*3 5.24 C 0 km/h
2772 09-01-2011 15:00:00 4.58 C 5.43 g/m*3 4.58 C 0 km/h
2773 09-01-2011 16:00:00 3.26 C 5.29 g/m*3 3.26 C 0 km/h
2774 09-01-2011 17:00:00 2.78 C 5.24 g/m*3 2.78 C 0 km/h
2775 09-01-2011 18:00:00 1.76 C 4.96 g/m*3 1.76 C 0 km/h
Sensor: Nr:Datum:Temp:Abs-Feuchte:Windchill:Wind:
Aussen-T/F 2776 09-01-2011 19:00:00 1.8 C 5.04 g/m*3 1.8 C 0 km/h
2777 09-01-2011 20:00:00 1.24 C 4.84 g/m*3 1.24 C 0 km/h
2778 09-01-2011 21:00:00 0.64 C 4.68 g/m*3 0.64 C 0 km/h
2779 09-01-2011 22:00:00 0.075 C 4.49 g/m*3 0.08 C 0 km/h
2780 09-01-2011 23:00:00 0.02 C 4.51 g/m*3 0.02 C 0 km/h
2781 10-01-2011 00:00:00 0.16 C 4.56 g/m*3 0.16 C 0 km/h
2782 10-01-2011 01:00:00 0.28 C 4.61 g/m*3 0.28 C 0 km/h
2783 10-01-2011 02:00:00 0.02 C 4.55 g/m*3 0.02 C 0 km/h
2784 10-01-2011 03:00:00 0.2 C 4.62 g/m*3 0.2 C 0 km/h
2785 10-01-2011 04:00:00 0.38 C 4.68 g/m*3 0.38 C 0 km/h
2786 10-01-2011 05:00:00 0.26 C 4.63 g/m*3 0.26 C 0 km/h
2787 10-01-2011 06:00:00 0.2 C 4.57 g/m*3 0.2 C 0 km/h
2788 10-01-2011 07:00:00 0.1 C 4.54 g/m*3 0.1 C 0 km/h
2789 10-01-2011 08:00:00 0.18 C 4.5 g/m*3 0.18 C 0 km/h
2790 10-01-2011 09:00:00 0.32 C 4.45 g/m*3 0.32 C 0 km/h
2791 10-01-2011 10:00:00 0.54 C 4.37 g/m*3 0.54 C 0 km/h
2792 10-01-2011 11:00:00 0.88 C 4.22 g/m*3 0.88 C 0 km/h
2793 10-01-2011 12:00:00 1.78 C 4.3 g/m*3 1.78 C 0 km/h
2794 10-01-2011 13:00:00 2.1 C 4.39 g/m*3 2.1 C 0 km/h
2795 10-01-2011 14:00:00 2.26 C 4.42 g/m*3 2.26 C 0 km/h
2796 10-01-2011 15:00:00 2.1 C 4.36 g/m*3 2.1 C 0 km/h
2797 10-01-2011 16:00:00 1.86 C 4.33 g/m*3 1.86 C 0 km/h
2798 10-01-2011 17:00:00 0.84 C 4.24 g/m*3 0.84 C 0 km/h
2799 10-01-2011 18:00:00 0.22 C 4.16 g/m*3 0.22 C 0 km/h
2800 10-01-2011 19:00:00 0.26 C 4.32 g/m*3 0.26 C 0 km/h
Sensor: Nr:Datum:Temp:Abs-Feuchte:Windchill:Wind:
Aussen-T/F 2801 10-01-2011 20:00:00 0.68 C 4.35 g/m*3 0.68 C 0 km/h
2802 10-01-2011 21:00:00 0.56 C 4.04 g/m*3 0.56 C 0 km/h
2803 10-01-2011 22:00:00 0.5 C 4.05 g/m*3 0.5 C 0 km/h
2804 10-01-2011 23:00:00 0.54 C 4.04 g/m*3 0.54 C 0 km/h
2805 11-01-2011 00:00:00 0.16 C 3.93 g/m*3 0.16 C 0 km/h
2806 11-01-2011 01:00:00 -0.12 C 4.08 g/m*3 -0.12 C 0 km/h
2807 11-01-2011 02:00:00 0.78 C 4.17 g/m*3 0.78 C 0 km/h
2808 11-01-2011 03:00:00 0.72 C 4.05 g/m*3 0.72 C 0 km/h
2809 11-01-2011 04:00:00 0.42 C 4.05 g/m*3 0.42 C 0 km/h
2810 11-01-2011 05:00:00 1.1 C 4.13 g/m*3 1.1 C 0 km/h
2811 11-01-2011 06:00:00 1.26 C 4.2 g/m*3 1.26 C 0 km/h
2812 11-01-2011 07:00:00 1.42 C 4.33 g/m*3 1.42 C 0 km/h
2813 11-01-2011 08:00:00 1.5 C 4.45 g/m*3 1.5 C 0 km/h
2814 11-01-2011 09:00:00 2.06 C 4.66 g/m*3 2.06 C 0 km/h
2815 11-01-2011 10:00:00 3.04 C 4.63 g/m*3 3.04 C 0 km/h
2816 11-01-2011 11:00:00 3.28 C 4.9 g/m*3 3.28 C 0 km/h
2817 11-01-2011 12:00:00 5.5 C 4.62 g/m*3 5.5 C 0 km/h
2818 11-01-2011 13:00:00 5.3 C 4.75 g/m*3 5.3 C 0 km/h
2819 11-01-2011 14:00:00 5.3 C 4.89 g/m*3 5.3 C 0 km/h
2820 11-01-2011 15:00:00 5.36 C 5.07 g/m*3 5.36 C 0 km/h
2821 11-01-2011 16:00:00 4.58 C 5.42 g/m*3 4.58 C 0 km/h
2822 11-01-2011 17:00:00 5.1 C 5.46 g/m*3 5.1 C 0 km/h
2823 11-01-2011 18:00:00 5.48 C 5.51 g/m*3 5.48 C 0 km/h
2824 11-01-2011 19:00:00 5.98 C 5.57 g/m*3 5.98 C 0 km/h
2825 11-01-2011 20:00:00 6.14 C 5.6 g/m*3 6.14 C 0 km/h
Sensor: Nr:Datum:Temp:Abs-Feuchte:Windchill:Wind:
Aussen-T/F 2826 11-01-2011 21:00:00 6.16 C 5.66 g/m*3 6.16 C 0 km/h
2827 11-01-2011 22:00:00 5.96 C 5.91 g/m*3 5.96 C 0 km/h
2828 11-01-2011 23:00:00 6 C 6.01 g/m*3 6 C 0 km/h
2829 12-01-2011 00:00:00 6.14 C 5.46 g/m*3 6.14 C 0 km/h
2830 12-01-2011 01:00:00 5.96 C 5.23 g/m*3 5.96 C 0 km/h
2831 12-01-2011 02:00:00 5.9 C 5.06 g/m*3 5.9 C 0 km/h
2832 12-01-2011 03:00:00 4.92 C 5.18 g/m*3 4.92 C 0 km/h
2833 12-01-2011 04:00:00 4.08 C 5.34 g/m*3 4.08 C 0 km/h
2834 12-01-2011 05:00:00 3.76 C 5.24 g/m*3 3.76 C 0 km/h
2835 12-01-2011 06:00:00 3.56 C 5.12 g/m*3 3.56 C 0 km/h
2836 12-01-2011 07:00:00 3.32 C 5.02 g/m*3 3.32 C 0 km/h
2837 12-01-2011 08:00:00 2.98 C 4.99 g/m*3 2.98 C 0 km/h
2838 12-01-2011 09:00:00 3.84 C 5.04 g/m*3 3.84 C 0 km/h
2839 12-01-2011 10:00:00 4.82 C 4.87 g/m*3 4.82 C 0 km/h
2840 12-01-2011 11:00:00 5.26 C 4.85 g/m*3 5.26 C 0 km/h
2841 12-01-2011 12:00:00 4.88 C 5.08 g/m*3 4.88 C 0 km/h
2842 12-01-2011 13:00:00 4.9 C 5.37 g/m*3 4.9 C 0 km/h
2843 12-01-2011 14:00:00 5.12 C 5.52 g/m*3 5.12 C 0 km/h
2844 12-01-2011 15:00:00 5.42 C 5.51 g/m*3 5.42 C 0 km/h
2845 12-01-2011 16:00:00 6.04 C 5.47 g/m*3 6.04 C 0 km/h
2846 12-01-2011 17:00:00 6.2 C 5.6 g/m*3 6.2 C 0 km/h
2847 12-01-2011 18:00:00 6.12 C 5.91 g/m*3 6.12 C 0 km/h
2848 12-01-2011 19:00:00 6.3 C 6.17 g/m*3 6.3 C 0 km/h
2849 12-01-2011 20:00:00 6.98 C 6.28 g/m*3 6.98 C 0 km/h
2850 12-01-2011 21:00:00 7.34 C 6.51 g/m*3 7.34 C 0 km/h
Sensor: Nr:Datum:Temp:Abs-Feuchte:Windchill:Wind:
Aussen-T/F 2851 12-01-2011 22:00:00 7.96 C 6.71 g/m*3 7.96 C 0 km/h
2852 12-01-2011 23:00:00 8.76 C 6.82 g/m*3 8.76 C 0 km/h
2853 13-01-2011 00:00:00 9.3 C 6.99 g/m*3 9.3 C 0 km/h
2854 13-01-2011 01:00:00 9.98 C 7.26 g/m*3 9.98 C 0 km/h
2855 13-01-2011 02:00:00 10.6 C 7.55 g/m*3 10.6 C 0 km/h
2856 13-01-2011 03:00:00 10.32 C 7.84 g/m*3 10.32 C 0 km/h
2857 13-01-2011 04:00:00 10.7 C 8.05 g/m*3 10.7 C 0 km/h
2858 13-01-2011 05:00:00 10.84 C 8.13 g/m*3 10.84 C 0 km/h
2859 13-01-2011 06:00:00 10.58 C 8.31 g/m*3 10.58 C 0 km/h
2860 13-01-2011 07:00:00 10.66 C 8.46 g/m*3 10.66 C 0 km/h
2861 13-01-2011 08:00:00 10.84 C 8.46 g/m*3 10.84 C 0 km/h
2862 13-01-2011 09:00:00 11.26 C 8.44 g/m*3 11.26 C 0 km/h
2863 13-01-2011 10:00:00 11.94 C 8.32 g/m*3 11.94 C 0 km/h
2864 13-01-2011 11:00:00 12.52 C 8.26 g/m*3 12.52 C 0 km/h
2865 13-01-2011 12:00:00 12.46 C 8.31 g/m*3 12.46 C 0 km/h
2866 13-01-2011 13:00:00 12.54 C 8.4 g/m*3 12.54 C 0 km/h
2867 13-01-2011 14:00:00 13.18 C 8.28 g/m*3 13.18 C 0 km/h
2868 13-01-2011 15:00:00 13.06 C 8.26 g/m*3 13.06 C 0 km/h
2869 13-01-2011 16:00:00 12.9 C 8.48 g/m*3 12.9 C 0 km/h
2870 13-01-2011 17:00:00 12.86 C 8.5 g/m*3 12.86 C 0 km/h
2871 13-01-2011 18:00:00 12.84 C 8.42 g/m*3 12.84 C 0 km/h
2872 13-01-2011 19:00:00 12.82 C 8.5 g/m*3 12.82 C 0 km/h
2873 13-01-2011 20:00:00 12.7 C 8.53 g/m*3 12.7 C 0 km/h
2874 13-01-2011 21:00:00 12.82 C 8.46 g/m*3 12.82 C 0 km/h
2875 13-01-2011 22:00:00 12.82 C 8.34 g/m*3 12.82 C 0 km/h
Sensor: Nr:Datum:Temp:Abs-Feuchte:Windchill:Wind:
Aussen-T/F 2876 13-01-2011 23:00:00 12.74 C 8.26 g/m*3 12.74 C 0 km/h
2877 14-01-2011 00:00:00 12.56 C 8.14 g/m*3 12.56 C 0 km/h
2878 14-01-2011 01:00:00 12.5 C 8.09 g/m*3 12.5 C 0 km/h
2879 14-01-2011 02:00:00 12.34 C 7.95 g/m*3 12.34 C 0 km/h
2880 14-01-2011 03:00:00 12.24 C 7.83 g/m*3 12.24 C 0 km/h
2881 14-01-2011 04:00:00 12.24 C 7.81 g/m*3 12.24 C 0 km/h
2882 14-01-2011 05:00:00 12.26 C 7.8 g/m*3 12.26 C 0 km/h
2883 14-01-2011 06:00:00 12.56 C 7.61 g/m*3 12.56 C 0 km/h
2884 14-01-2011 07:00:00 12.3 C 7.36 g/m*3 12.3 C 0 km/h
2885 14-01-2011 08:00:00 11.66 C 6.99 g/m*3 11.66 C 0 km/h
2886 14-01-2011 09:00:00 11.46 C 6.84 g/m*3 11.46 C 0 km/h
2887 14-01-2011 10:00:00 11.74 C 6.71 g/m*3 11.74 C 0 km/h
2888 14-01-2011 11:00:00 12.02 C 6.62 g/m*3 12.02 C 0 km/h
2889 14-01-2011 12:00:00 12.14 C 6.54 g/m*3 12.14 C 0 km/h
2890 14-01-2011 13:00:00 12 C 6.63 g/m*3 12 C 0 km/h
2891 14-01-2011 14:00:00 11.64 C 6.81 g/m*3 11.64 C 0 km/h
2892 14-01-2011 15:00:00 12.12 C 6.55 g/m*3 12.12 C 0 km/h
2893 14-01-2011 16:00:00 11.96 C 6.4 g/m*3 11.96 C 0 km/h
2894 14-01-2011 17:00:00 11.52 C 6.33 g/m*3 11.52 C 0 km/h
2895 14-01-2011 18:00:00 11.04 C 6.32 g/m*3 11.04 C 0 km/h
2896 14-01-2011 19:00:00 11.14 C 6.24 g/m*3 11.14 C 0 km/h
2897 14-01-2011 20:00:00 11.68 C 6.08 g/m*3 11.68 C 0 km/h
2898 14-01-2011 21:00:00 11.4 C 6.01 g/m*3 11.4 C 0 km/h
2899 14-01-2011 22:00:00 10.82 C 6.25 g/m*3 10.82 C 0 km/h
2900 14-01-2011 23:00:00 9.24 C 6.77 g/m*3 9.24 C 0 km/h
Sensor: Nr:Datum:Temp:Abs-Feuchte:Windchill:Wind:
Aussen-T/F 2901 15-01-2011 00:00:00 8.22 C 6.64 g/m*3 8.22 C 0 km/h
2902 15-01-2011 01:00:00 8.22 C 6.41 g/m*3 8.22 C 0 km/h
2903 15-01-2011 02:00:00 8.04 C 6.43 g/m*3 8.04 C 0 km/h
2904 15-01-2011 03:00:00 8.12 C 6.47 g/m*3 8.12 C 0 km/h
2905 15-01-2011 04:00:00 8.22 C 6.41 g/m*3 8.22 C 0 km/h
2906 15-01-2011 05:00:00 7.96 C 6.14 g/m*3 7.96 C 0 km/h
2907 15-01-2011 06:00:00 7.44 C 6.22 g/m*3 7.44 C 0 km/h
2908 15-01-2011 07:00:00 7.08 C 6.14 g/m*3 7.08 C 0 km/h
2909 15-01-2011 08:00:00 7.68 C 6.14 g/m*3 7.68 C 0 km/h
2910 15-01-2011 09:00:00 8.3 C 5.98 g/m*3 8.3 C 0 km/h
2911 15-01-2011 10:00:00 9.06 C 5.91 g/m*3 9.06 C 0 km/h
2912 15-01-2011 11:00:00 9.86 C 5.89 g/m*3 9.86 C 0 km/h
2913 15-01-2011 12:00:00 10.2 C 5.73 g/m*3 10.2 C 0 km/h
2914 15-01-2011 13:00:00 10.04 C 5.58 g/m*3 10.04 C 0 km/h
2915 15-01-2011 14:00:00 10.04 C 5.54 g/m*3 10.04 C 0 km/h
2916 15-01-2011 15:00:00 9.62 C 5.52 g/m*3 9.62 C 0 km/h
2917 15-01-2011 16:00:00 8.9 C 5.71 g/m*3 8.9 C 0 km/h
2918 15-01-2011 17:00:00 9.02 C 5.65 g/m*3 9.02 C 0 km/h
2919 15-01-2011 18:00:00 8.98 C 5.78 g/m*3 8.98 C 0 km/h
2920 15-01-2011 19:00:00 9.18 C 5.69 g/m*3 9.18 C 0 km/h
2921 15-01-2011 20:00:00 8.92 C 5.68 g/m*3 8.92 C 0 km/h
2922 15-01-2011 21:00:00 8.04 C 5.62 g/m*3 8.04 C 0 km/h
2923 15-01-2011 22:00:00 8.6 C 5.89 g/m*3 8.6 C 0 km/h
2924 15-01-2011 23:00:00 8.62 C 5.89 g/m*3 8.62 C 0 km/h
2925 16-01-2011 00:00:00 8.9 C 5.83 g/m*3 8.9 C 0 km/h
Sensor: Nr:Datum:Temp:Abs-Feuchte:Windchill:Wind:
Aussen-T/F 2926 16-01-2011 01:00:00 8.24 C 5.69 g/m*3 8.24 C 0 km/h
2927 16-01-2011 02:00:00 7.96 C 5.77 g/m*3 7.96 C 0 km/h
2928 16-01-2011 03:00:00 8.14 C 5.71 g/m*3 8.14 C 0 km/h
2929 16-01-2011 04:00:00 8.22 C 5.75 g/m*3 8.22 C 0 km/h
2930 16-01-2011 05:00:00 7.16 C 5.98 g/m*3 7.16 C 0 km/h
2931 16-01-2011 06:00:00 7.06 C 6.08 g/m*3 7.06 C 0 km/h
2932 16-01-2011 07:00:00 7.88 C 6.07 g/m*3 7.88 C 0 km/h
2933 16-01-2011 08:00:00 8.22 C 5.87 g/m*3 8.22 C 0 km/h
2934 16-01-2011 09:00:00 8.04 C 5.9 g/m*3 8.04 C 0 km/h
2935 16-01-2011 10:00:00 7.98 C 5.91 g/m*3 7.98 C 0 km/h
2936 16-01-2011 11:00:00 8.36 C 5.99 g/m*3 8.36 C 0 km/h
2937 16-01-2011 12:00:00 8.64 C 6.15 g/m*3 8.64 C 0 km/h
2938 16-01-2011 13:00:00 8.82 C 6.19 g/m*3 8.82 C 0 km/h
2939 16-01-2011 14:00:00 8.46 C 6.27 g/m*3 8.46 C 0 km/h
2940 16-01-2011 15:00:00 9.92 C 6.23 g/m*3 9.92 C 0 km/h
2941 16-01-2011 16:00:00 8.04 C 6.35 g/m*3 8.04 C 0 km/h
2942 16-01-2011 17:00:00 5.92 C 6.14 g/m*3 5.92 C 0 km/h
2943 16-01-2011 18:00:00 4.84 C 5.92 g/m*3 4.84 C 0 km/h
2944 16-01-2011 19:00:00 4.22 C 5.77 g/m*3 4.22 C 0 km/h
2945 16-01-2011 20:00:00 3.26 C 5.47 g/m*3 3.26 C 0 km/h
2946 16-01-2011 21:00:00 2.4 C 5.2 g/m*3 2.4 C 0 km/h
2947 16-01-2011 22:00:00 2.16 C 5.16 g/m*3 2.16 C 0 km/h
2948 16-01-2011 23:00:00 1.36 C 4.89 g/m*3 1.36 C 0 km/h
2949 17-01-2011 00:00:00 1.4 C 4.93 g/m*3 1.4 C 0 km/h
2950 17-01-2011 01:00:00 1.18 C 4.88 g/m*3 1.18 C 0 km/h
Sensor: Nr:Datum:Temp:Abs-Feuchte:Windchill:Wind:
Aussen-T/F 2951 17-01-2011 02:00:00 1.12 C 4.87 g/m*3 1.12 C 0 km/h
2952 17-01-2011 03:00:00 1.04 C 4.87 g/m*3 1.04 C 0 km/h
2953 17-01-2011 04:00:00 -0.04 C 4.49 g/m*3 -0.04 C 0 km/h
2954 17-01-2011 05:00:00 0.08 C 4.55 g/m*3 0.08 C 0 km/h
2955 17-01-2011 06:00:00 -0.62 C 4.32 g/m*3 -0.62 C 0 km/h
2956 17-01-2011 07:00:00 -0.4 C 4.4 g/m*3 -0.4 C 0 km/h
2957 17-01-2011 08:00:00 -0.66 C 4.32 g/m*3 -0.66 C 0 km/h
2958 17-01-2011 09:00:00 0.72 C 4.79 g/m*3 0.72 C 0 km/h
2959 17-01-2011 10:00:00 0.68 C 4.77 g/m*3 0.68 C 0 km/h
2960 17-01-2011 11:00:00 2.14 C 5.26 g/m*3 2.14 C 0 km/h
2961 17-01-2011 12:00:00 5.42 C 6.5 g/m*3 5.42 C 0 km/h
2962 17-01-2011 13:00:00 6.06 C 6.54 g/m*3 6.06 C 0 km/h
2963 17-01-2011 14:00:00 6.4 C 6.08 g/m*3 6.4 C 0 km/h
2964 17-01-2011 15:00:00 6.18 C 5.9 g/m*3 6.18 C 0 km/h
2965 17-01-2011 16:00:00 6.18 C 5.96 g/m*3 6.18 C 0 km/h
2966 17-01-2011 17:00:00 6.2 C 5.82 g/m*3 6.2 C 0 km/h
2967 17-01-2011 18:00:00 5.98 C 6.05 g/m*3 5.98 C 0 km/h
2968 17-01-2011 19:00:00 6.22 C 6.1 g/m*3 6.22 C 0 km/h
2969 17-01-2011 20:00:00 6.94 C 6.19 g/m*3 6.94 C 0 km/h
2970 17-01-2011 21:00:00 8.04 C 6.23 g/m*3 8.04 C 0 km/h
2971 17-01-2011 22:00:00 8.28 C 6.13 g/m*3 8.28 C 0 km/h
2972 17-01-2011 23:00:00 8.56 C 6.24 g/m*3 8.56 C 0 km/h
2973 18-01-2011 00:00:00 7.64 C 6.14 g/m*3 7.64 C 0 km/h
2974 18-01-2011 01:00:00 6.84 C 6.13 g/m*3 6.84 C 0 km/h
2975 18-01-2011 02:00:00 5.24 C 5.94 g/m*3 5.24 C 0 km/h
Sensor: Nr:Datum:Temp:Abs-Feuchte:Windchill:Wind:
Aussen-T/F 2976 18-01-2011 03:00:00 7.1 C 6.1 g/m*3 7.1 C 0 km/h
2977 18-01-2011 04:00:00 7.06 C 5.96 g/m*3 7.06 C 0 km/h
2978 18-01-2011 05:00:00 7.68 C 5.94 g/m*3 7.68 C 0 km/h
2979 18-01-2011 06:00:00 7.26 C 5.97 g/m*3 7.26 C 0 km/h
2980 18-01-2011 07:00:00 7.14 C 6.04 g/m*3 7.14 C 0 km/h
2981 18-01-2011 08:00:00 7.3 C 5.97 g/m*3 7.3 C 0 km/h
2982 18-01-2011 09:00:00 8.44 C 6.04 g/m*3 8.44 C 0 km/h
2983 18-01-2011 10:00:00 8.84 C 6.09 g/m*3 8.84 C 0 km/h
2984 18-01-2011 11:00:00 8.74 C 6.05 g/m*3 8.74 C 0 km/h
2985 18-01-2011 12:00:00 9.7 C 6.07 g/m*3 9.7 C 0 km/h
2986 18-01-2011 13:00:00 9.7 C 6.05 g/m*3 9.7 C 0 km/h
2987 18-01-2011 14:00:00 9.72 C 5.94 g/m*3 9.72 C 0 km/h
2988 18-01-2011 15:00:00 9.42 C 5.67 g/m*3 9.42 C 0 km/h
2989 18-01-2011 16:00:00 8.38 C 5.78 g/m*3 8.38 C 0 km/h
2990 18-01-2011 17:00:00 6.54 C 6.42 g/m*3 6.54 C 0 km/h
2991 18-01-2011 18:00:00 6.16 C 6.31 g/m*3 6.16 C 0 km/h
2992 18-01-2011 19:00:00 5.86 C 6.26 g/m*3 5.86 C 0 km/h
2993 18-01-2011 20:00:00 5.74 C 6.04 g/m*3 5.74 C 0 km/h
2994 18-01-2011 21:00:00 5.1 C 5.62 g/m*3 5.1 C 0 km/h
2995 18-01-2011 22:00:00 4.64 C 5.48 g/m*3 4.64 C 0 km/h
2996 18-01-2011 23:00:00 4.68 C 5.47 g/m*3 4.68 C 0 km/h
2997 19-01-2011 00:00:00 4.36 C 5.2 g/m*3 4.36 C 0 km/h
2998 19-01-2011 01:00:00 3.88 C 4.77 g/m*3 3.88 C 0 km/h
2999 19-01-2011 02:00:00 3.42 C 4.67 g/m*3 3.42 C 0 km/h
3000 19-01-2011 03:00:00 2.92 C 4.8 g/m*3 2.92 C 0 km/h
Sensor: Nr:Datum:Temp:Abs-Feuchte:Windchill:Wind:
Aussen-T/F 3001 19-01-2011 04:00:00 2.8 C 4.89 g/m*3 2.8 C 0 km/h
3002 19-01-2011 05:00:00 2.56 C 4.99 g/m*3 2.56 C 0 km/h
3003 19-01-2011 06:00:00 2.64 C 4.99 g/m*3 2.64 C 0 km/h
3004 19-01-2011 07:00:00 2.8 C 4.85 g/m*3 2.8 C 0 km/h
3005 19-01-2011 08:00:00 2.4 C 4.86 g/m*3 2.4 C 0 km/h
3006 19-01-2011 09:00:00 2.7 C 4.81 g/m*3 2.7 C 0 km/h
3007 19-01-2011 10:00:00 2.4 C 4.68 g/m*3 2.4 C 0 km/h
3008 19-01-2011 11:00:00 3.64 C 4.84 g/m*3 3.64 C 0 km/h
3009 19-01-2011 12:00:00 4.44 C 4.64 g/m*3 4.44 C 0 km/h
3010 19-01-2011 13:00:00 4.94 C 4.35 g/m*3 4.94 C 0 km/h
3011 19-01-2011 14:00:00 5.36 C 4.24 g/m*3 5.36 C 0 km/h
3012 19-01-2011 15:00:00 4.94 C 4.13 g/m*3 4.94 C 0 km/h
3013 19-01-2011 16:00:00 4.18 C 4.38 g/m*3 4.18 C 0 km/h
3014 19-01-2011 17:00:00 3.34 C 4.54 g/m*3 3.34 C 0 km/h
3015 19-01-2011 18:00:00 2.94 C 4.7 g/m*3 2.94 C 0 km/h
3016 19-01-2011 19:00:00 3.2 C 4.46 g/m*3 3.2 C 0 km/h
3017 19-01-2011 20:00:00 2.36 C 4.69 g/m*3 2.36 C 0 km/h
3018 19-01-2011 21:00:00 2.5 C 4.78 g/m*3 2.5 C 0 km/h
3019 19-01-2011 22:00:00 2.4 C 4.73 g/m*3 2.4 C 0 km/h
3020 19-01-2011 23:00:00 2.28 C 4.69 g/m*3 2.28 C 0 km/h
3021 20-01-2011 00:00:00 1.72 C 4.73 g/m*3 1.72 C 0 km/h
3022 20-01-2011 01:00:00 1.82 C 4.87 g/m*3 1.82 C 0 km/h
3023 20-01-2011 02:00:00 1.22 C 4.71 g/m*3 1.22 C 0 km/h
3024 20-01-2011 03:00:00 1.34 C 4.82 g/m*3 1.34 C 0 km/h
3025 20-01-2011 04:00:00 1.16 C 4.78 g/m*3 1.16 C 0 km/h
Sensor: Nr:Datum:Temp:Abs-Feuchte:Windchill:Wind:
Aussen-T/F 3026 20-01-2011 05:00:00 1.36 C 4.87 g/m*3 1.36 C 0 km/h
3027 20-01-2011 06:00:00 1.28 C 4.85 g/m*3 1.28 C 0 km/h
3028 20-01-2011 07:00:00 1.02 C 4.73 g/m*3 1.02 C 0 km/h
3029 20-01-2011 08:00:00 1.2 C 4.75 g/m*3 1.2 C 0 km/h
3030 20-01-2011 09:00:00 1.44 C 4.7 g/m*3 1.44 C 0 km/h
3031 20-01-2011 10:00:00 2.02 C 4.61 g/m*3 2.02 C 0 km/h
3032 20-01-2011 11:00:00 2.72 C 4.53 g/m*3 2.72 C 0 km/h
3033 20-01-2011 12:00:00 3.26 C 4.44 g/m*3 3.26 C 0 km/h
3034 20-01-2011 13:00:00 3.88 C 4.35 g/m*3 3.88 C 0 km/h
3035 20-01-2011 14:00:00 4.1 C 4.29 g/m*3 4.1 C 0 km/h
3036 20-01-2011 15:00:00 3.26 C 4.1 g/m*3 3.26 C 0 km/h
3037 20-01-2011 16:00:00 2.48 C 3.98 g/m*3 2.48 C 0 km/h
3038 20-01-2011 17:00:00 1.98 C 3.95 g/m*3 1.98 C 0 km/h
3039 20-01-2011 18:00:00 1.7 C 3.97 g/m*3 1.7 C 0 km/h
3040 20-01-2011 19:00:00 1.3 C 3.89 g/m*3 1.3 C 0 km/h
3041 20-01-2011 20:00:00 0.9 C 3.72 g/m*3 0.9 C 0 km/h
3042 20-01-2011 21:00:00 -0.16 C 3.59 g/m*3 -0.16 C 0 km/h
3043 20-01-2011 22:00:00 -0.28 C 3.55 g/m*3 -0.28 C 0 km/h
3044 20-01-2011 23:00:00 0.08 C 3.64 g/m*3 0.08 C 0 km/h
3045 21-01-2011 00:00:00 0.34 C 3.13 g/m*3 0.34 C 0 km/h
3046 21-01-2011 01:00:00 0.18 C 3.08 g/m*3 0.18 C 0 km/h
3047 21-01-2011 02:00:00 0.04 C 3.11 g/m*3 0.04 C 0 km/h
3048 21-01-2011 03:00:00 -0.36 C 2.8 g/m*3 -0.36 C 0 km/h
3049 21-01-2011 04:00:00 -0.38 C 2.67 g/m*3 -0.38 C 0 km/h
3050 21-01-2011 05:00:00 -0.46 C 2.75 g/m*3 -0.46 C 0 km/h
Sensor: Nr:Datum:Temp:Abs-Feuchte:Windchill:Wind:
Aussen-T/F 3051 21-01-2011 06:00:00 -0.74 C 2.81 g/m*3 -0.74 C 0 km/h
3052 21-01-2011 07:00:00 -0.6 C 2.67 g/m*3 -0.6 C 0 km/h
3053 21-01-2011 08:00:00 -0.5 C 2.69 g/m*3 -0.5 C 0 km/h
3054 21-01-2011 09:00:00 -0.14 C 2.75 g/m*3 -0.14 C 0 km/h
3055 21-01-2011 10:00:00 0.14 C 2.74 g/m*3 0.14 C 0 km/h
3056 21-01-2011 11:00:00 0.02 C 2.82 g/m*3 0.02 C 0 km/h
3057 21-01-2011 12:00:00 0.32 C 2.9 g/m*3 0.32 C 0 km/h
3058 21-01-2011 13:00:00 1.06 C 2.95 g/m*3 1.06 C 0 km/h
3059 21-01-2011 14:00:00 1.28 C 3.01 g/m*3 1.28 C 0 km/h
3060 21-01-2011 15:00:00 1.02 C 3.01 g/m*3 1.02 C 0 km/h
3061 21-01-2011 16:00:00 0.18 C 3.13 g/m*3 0.18 C 0 km/h
3062 21-01-2011 17:00:00 -0.22 C 3.25 g/m*3 -0.22 C 0 km/h
3063 21-01-2011 18:00:00 -0.14 C 3.26 g/m*3 -0.14 C 0 km/h
3064 21-01-2011 19:00:00 -0.4 C 3.25 g/m*3 -0.4 C 0 km/h
3065 21-01-2011 20:00:00 -0.42 C 3.4 g/m*3 -0.42 C 0 km/h
3066 21-01-2011 21:00:00 -0.78 C 3.61 g/m*3 -0.78 C 0 km/h
3067 21-01-2011 22:00:00 -0.58 C 3.7 g/m*3 -0.58 C 0 km/h
3068 21-01-2011 23:00:00 -0.48 C 3.8 g/m*3 -0.48 C 0 km/h
3069 22-01-2011 00:00:00 -0.4 C 3.86 g/m*3 -0.4 C 0 km/h
3070 22-01-2011 01:00:00 -0.4 C 3.86 g/m*3 -0.4 C 0 km/h
3071 22-01-2011 02:00:00 -0.4 C 3.86 g/m*3 -0.4 C 0 km/h
3072 22-01-2011 03:00:00 -0.4 C 3.86 g/m*3 -0.4 C 0 km/h
3073 22-01-2011 04:00:00 -0.4 C 3.86 g/m*3 -0.4 C 0 km/h
3074 22-01-2011 05:00:00 -0.4 C 3.86 g/m*3 -0.4 C 0 km/h
3075 22-01-2011 06:00:00 -0.4 C 3.86 g/m*3 -0.4 C 0 km/h
Sensor: Nr:Datum:Temp:Abs-Feuchte:Windchill:Wind:
Aussen-T/F 3076 22-01-2011 07:00:00 -0.4 C 3.86 g/m*3 -0.4 C 0 km/h
3077 22-01-2011 08:00:00 -0.32 C 3.89 g/m*3 -0.32 C 0 km/h
3078 22-01-2011 09:00:00 0 C 3.97 g/m*3 0 C 0 km/h
3079 22-01-2011 10:00:00 0.92 C 3.86 g/m*3 0.92 C 0 km/h
3080 22-01-2011 11:00:00 1.4 C 3.72 g/m*3 1.4 C 0 km/h
3081 22-01-2011 12:00:00 1.72 C 3.69 g/m*3 1.72 C 0 km/h
3082 22-01-2011 13:00:00 1.72 C 3.73 g/m*3 1.72 C 0 km/h
3083 22-01-2011 14:00:00 1.84 C 3.98 g/m*3 1.84 C 0 km/h
3084 22-01-2011 15:00:00 1.56 C 3.92 g/m*3 1.56 C 0 km/h
3085 22-01-2011 16:00:00 1.28 C 3.86 g/m*3 1.28 C 0 km/h
3086 22-01-2011 17:00:00 0.72 C 3.9 g/m*3 0.72 C 0 km/h
3087 22-01-2011 18:00:00 0.56 C 3.93 g/m*3 0.56 C 0 km/h
3088 22-01-2011 19:00:00 0.34 C 4.05 g/m*3 0.34 C 0 km/h
3089 22-01-2011 20:00:00 0.38 C 4.01 g/m*3 0.38 C 0 km/h
3090 22-01-2011 21:00:00 0.32 C 4.03 g/m*3 0.32 C 0 km/h
3091 22-01-2011 22:00:00 0.25 C 4.04 g/m*3 0.25 C 0 km/h
3092 22-01-2011 23:00:00 0 C 3.97 g/m*3 0 C 0 km/h
3093 23-01-2011 00:00:00 0.22 C 4.03 g/m*3 0.22 C 0 km/h
3094 23-01-2011 01:00:00 0.22 C 4.03 g/m*3 0.22 C 0 km/h
3095 23-01-2011 02:00:00 0.28 C 4.05 g/m*3 0.28 C 0 km/h
3096 23-01-2011 03:00:00 0.44 C 4.05 g/m*3 0.44 C 0 km/h
3097 23-01-2011 04:00:00 0.4 C 4.05 g/m*3 0.4 C 0 km/h
3098 23-01-2011 05:00:00 0.22 C 4.21 g/m*3 0.22 C 0 km/h
3099 23-01-2011 06:00:00 0.42 C 4.4 g/m*3 0.42 C 0 km/h
3100 23-01-2011 07:00:00 0.66 C 4.51 g/m*3 0.66 C 0 km/h
Sensor: Nr:Datum:Temp:Abs-Feuchte:Windchill:Wind:
Aussen-T/F 3101 23-01-2011 08:00:00 0.94 C 4.61 g/m*3 0.94 C 0 km/h
3102 23-01-2011 09:00:00 1.46 C 4.71 g/m*3 1.46 C 0 km/h
3103 23-01-2011 10:00:00 1.92 C 4.55 g/m*3 1.92 C 0 km/h
3104 23-01-2011 11:00:00 2.02 C 4.54 g/m*3 2.02 C 0 km/h
3105 23-01-2011 12:00:00 2.16 C 4.62 g/m*3 2.16 C 0 km/h
3106 23-01-2011 13:00:00 2.22 C 4.76 g/m*3 2.22 C 0 km/h
3107 23-01-2011 14:00:00 2.4 C 4.88 g/m*3 2.4 C 0 km/h
3108 23-01-2011 15:00:00 2.3 C 4.9 g/m*3 2.3 C 0 km/h
3109 23-01-2011 16:00:00 2.2 C 4.97 g/m*3 2.2 C 0 km/h
3110 23-01-2011 17:00:00 2.16 C 5.03 g/m*3 2.16 C 0 km/h
3111 23-01-2011 18:00:00 2.12 C 5.06 g/m*3 2.12 C 0 km/h
3112 23-01-2011 19:00:00 2.18 C 5.12 g/m*3 2.18 C 0 km/h
3113 23-01-2011 20:00:00 2.22 C 5.14 g/m*3 2.22 C 0 km/h
3114 23-01-2011 21:00:00 2.24 C 5.2 g/m*3 2.24 C 0 km/h
3115 23-01-2011 22:00:00 2.28 C 5.21 g/m*3 2.28 C 0 km/h
3116 23-01-2011 23:00:00 2.36 C 5.24 g/m*3 2.36 C 0 km/h
3117 24-01-2011 00:00:00 2.42 C 5.26 g/m*3 2.42 C 0 km/h
3118 24-01-2011 01:00:00 2.58 C 5.35 g/m*3 2.58 C 0 km/h
3119 24-01-2011 02:00:00 2.56 C 5.37 g/m*3 2.56 C 0 km/h
3120 24-01-2011 03:00:00 2.02 C 5.13 g/m*3 2.02 C 0 km/h
3121 24-01-2011 04:00:00 2.12 C 5.2 g/m*3 2.12 C 0 km/h
3122 24-01-2011 05:00:00 2.48 C 5.34 g/m*3 2.48 C 0 km/h
3123 24-01-2011 06:00:00 2.5 C 5.35 g/m*3 2.5 C 0 km/h
3124 24-01-2011 07:00:00 2.78 C 5.33 g/m*3 2.78 C 0 km/h
3125 24-01-2011 08:00:00 2.76 C 5.07 g/m*3 2.76 C 0 km/h
Sensor: Nr:Datum:Temp:Abs-Feuchte:Windchill:Wind:
Aussen-T/F 3126 24-01-2011 09:00:00 2.92 C 4.75 g/m*3 2.92 C 0 km/h
3127 24-01-2011 10:00:00 3.12 C 4.6 g/m*3 3.12 C 0 km/h
3128 24-01-2011 11:00:00 3.46 C 4.57 g/m*3 3.46 C 0 km/h
3129 24-01-2011 12:00:00 4.04 C 4.6 g/m*3 4.04 C 0 km/h
3130 24-01-2011 13:00:00 4.36 C 4.7 g/m*3 4.36 C 0 km/h
3131 24-01-2011 14:00:00 4.2 C 4.7 g/m*3 4.2 C 0 km/h
3132 24-01-2011 15:00:00 3.98 C 4.79 g/m*3 3.98 C 0 km/h
3133 24-01-2011 16:00:00 3.78 C 4.96 g/m*3 3.78 C 0 km/h
3134 24-01-2011 17:00:00 3.6 C 4.96 g/m*3 3.6 C 0 km/h
3135 24-01-2011 18:00:00 3.44 C 5.03 g/m*3 3.44 C 0 km/h
3136 24-01-2011 19:00:00 3.18 C 5.1 g/m*3 3.18 C 0 km/h
3137 24-01-2011 20:00:00 3.16 C 5.24 g/m*3 3.16 C 0 km/h
3138 24-01-2011 21:00:00 3.08 C 5.24 g/m*3 3.08 C 0 km/h
3139 24-01-2011 22:00:00 3.08 C 5.33 g/m*3 3.08 C 0 km/h
3140 24-01-2011 23:00:00 2.82 C 5.29 g/m*3 2.82 C 0 km/h
3141 25-01-2011 00:00:00 2.74 C 5.19 g/m*3 2.74 C 0 km/h
3142 25-01-2011 01:00:00 2.66 C 4.76 g/m*3 2.66 C 0 km/h
3143 25-01-2011 02:00:00 1.88 C 4.72 g/m*3 1.88 C 0 km/h
3144 25-01-2011 03:00:00 1.98 C 4.66 g/m*3 1.98 C 0 km/h
3145 25-01-2011 04:00:00 2.64 C 4.43 g/m*3 2.64 C 0 km/h
3146 25-01-2011 05:00:00 3.12 C 4.29 g/m*3 3.12 C 0 km/h
3147 25-01-2011 06:00:00 3.34 C 4.19 g/m*3 3.34 C 0 km/h
3148 25-01-2011 07:00:00 2.98 C 4.18 g/m*3 2.98 C 0 km/h
3149 25-01-2011 08:00:00 2.52 C 4.28 g/m*3 2.52 C 0 km/h
3150 25-01-2011 09:00:00 2.92 C 4.27 g/m*3 2.92 C 0 km/h
Sensor: Nr:Datum:Temp:Abs-Feuchte:Windchill:Wind:
Aussen-T/F 3151 25-01-2011 10:00:00 2.92 C 4.38 g/m*3 2.92 C 0 km/h
3152 25-01-2011 11:00:00 2.96 C 4.58 g/m*3 2.96 C 0 km/h
3153 25-01-2011 12:00:00 3.38 C 4.75 g/m*3 3.38 C 0 km/h
3154 25-01-2011 13:00:00 3.94 C 4.67 g/m*3 3.94 C 0 km/h
3155 25-01-2011 14:00:00 3.98 C 4.72 g/m*3 3.98 C 0 km/h
3156 25-01-2011 15:00:00 2.3 C 4.72 g/m*3 2.3 C 0 km/h
3157 25-01-2011 16:00:00 2.52 C 4.88 g/m*3 2.52 C 0 km/h
3158 25-01-2011 17:00:00 2.42 C 4.77 g/m*3 2.42 C 0 km/h
3159 25-01-2011 18:00:00 2.36 C 4.74 g/m*3 2.36 C 0 km/h
3160 25-01-2011 19:00:00 1.5 C 4.62 g/m*3 1.5 C 0 km/h
3161 25-01-2011 20:00:00 0.84 C 4.46 g/m*3 0.84 C 0 km/h
3162 25-01-2011 21:00:00 1.08 C 4.47 g/m*3 1.08 C 0 km/h
3163 25-01-2011 22:00:00 1.84 C 4.35 g/m*3 1.84 C 0 km/h
3164 25-01-2011 23:00:00 1.14 C 4.32 g/m*3 1.14 C 0 km/h
3165 26-01-2011 00:00:00 0.64 C 4.31 g/m*3 0.64 C 0 km/h
3166 26-01-2011 01:00:00 -0.58 C 4.07 g/m*3 -0.58 C 0 km/h
3167 26-01-2011 02:00:00 -0.62 C 4.13 g/m*3 -0.62 C 0 km/h
3168 26-01-2011 03:00:00 -0.52 C 4.21 g/m*3 -0.52 C 0 km/h
3169 26-01-2011 04:00:00 -0.46 C 4.24 g/m*3 -0.46 C 0 km/h
3170 26-01-2011 05:00:00 -0.2 C 4.35 g/m*3 -0.2 C 0 km/h
3171 26-01-2011 06:00:00 -0.16 C 4.36 g/m*3 -0.16 C 0 km/h
3172 26-01-2011 07:00:00 -0.22 C 4.34 g/m*3 -0.22 C 0 km/h
3173 26-01-2011 08:00:00 0.04 C 4.43 g/m*3 0.04 C 0 km/h
3174 26-01-2011 09:00:00 0.66 C 4.65 g/m*3 0.66 C 0 km/h
3175 26-01-2011 10:00:00 1.6 C 4.81 g/m*3 1.6 C 0 km/h
Sensor: Nr:Datum:Temp:Abs-Feuchte:Windchill:Wind:
Aussen-T/F 3176 26-01-2011 11:00:00 2.48 C 4.55 g/m*3 2.48 C 0 km/h
3177 26-01-2011 12:00:00 3.56 C 4.1 g/m*3 3.56 C 0 km/h
3178 26-01-2011 13:00:00 3.24 C 4 g/m*3 3.24 C 0 km/h
3179 26-01-2011 14:00:00 3.34 C 3.91 g/m*3 3.34 C 0 km/h
3180 26-01-2011 15:00:00 3.32 C 3.84 g/m*3 3.32 C 0 km/h
3181 26-01-2011 16:00:00 2.24 C 4.04 g/m*3 2.24 C 0 km/h
3182 26-01-2011 17:00:00 0.76 C 4.28 g/m*3 0.76 C 0 km/h
3183 26-01-2011 18:00:00 0.64 C 4.29 g/m*3 0.64 C 0 km/h
3184 26-01-2011 19:00:00 0.44 C 4.24 g/m*3 0.44 C 0 km/h
3185 26-01-2011 20:00:00 0.5 C 4.31 g/m*3 0.5 C 0 km/h
3186 26-01-2011 21:00:00 0.52 C 4.26 g/m*3 0.52 C 0 km/h
3187 26-01-2011 22:00:00 -0.16 C 4.01 g/m*3 -0.16 C 0 km/h
3188 26-01-2011 23:00:00 -0.88 C 3.86 g/m*3 -0.88 C 0 km/h
3189 27-01-2011 00:00:00 -1.24 C 3.81 g/m*3 -1.24 C 0 km/h
3190 27-01-2011 01:00:00 -1.76 C 3.69 g/m*3 -1.76 C 0 km/h
3191 27-01-2011 02:00:00 -2.52 C 3.5 g/m*3 -2.52 C 0 km/h
3192 27-01-2011 03:00:00 -3.36 C 3.32 g/m*3 -3.36 C 0 km/h
3193 27-01-2011 04:00:00 -2.2 C 3.68 g/m*3 -2.2 C 0 km/h
3194 27-01-2011 05:00:00 -1.56 C 3.9 g/m*3 -1.56 C 0 km/h
3195 27-01-2011 06:00:00 -1.38 C 3.96 g/m*3 -1.38 C 0 km/h
3196 27-01-2011 07:00:00 -1.32 C 3.98 g/m*3 -1.32 C 0 km/h
3197 27-01-2011 08:00:00 -1.18 C 4.04 g/m*3 -1.18 C 0 km/h
3198 27-01-2011 09:00:00 -0.24 C 4.33 g/m*3 -0.24 C 0 km/h
3199 27-01-2011 10:00:00 0.86 C 4.29 g/m*3 0.86 C 0 km/h
3200 27-01-2011 11:00:00 1.86 C 3.63 g/m*3 1.86 C 0 km/h
Sensor: Nr:Datum:Temp:Abs-Feuchte:Windchill:Wind:
Aussen-T/F 3201 27-01-2011 12:00:00 2.44 C 3.33 g/m*3 2.44 C 0 km/h
3202 27-01-2011 13:00:00 2.64 C 3.1 g/m*3 2.64 C 0 km/h
3203 27-01-2011 14:00:00 2.4 C 2.95 g/m*3 2.4 C 0 km/h
3204 27-01-2011 15:00:00 1.88 C 2.81 g/m*3 1.88 C 0 km/h
3205 27-01-2011 16:00:00 1.18 C 2.74 g/m*3 1.18 C 0 km/h
3206 27-01-2011 17:00:00 0.26 C 2.75 g/m*3 0.26 C 0 km/h
3207 27-01-2011 18:00:00 0 C 2.77 g/m*3 0 C 0 km/h
3208 27-01-2011 19:00:00 -0.16 C 2.82 g/m*3 -0.16 C 0 km/h
3209 27-01-2011 20:00:00 -0.34 C 2.86 g/m*3 -0.34 C 0 km/h
3210 27-01-2011 21:00:00 -0.92 C 2.84 g/m*3 -0.92 C 0 km/h
3211 27-01-2011 22:00:00 -1.2 C 2.84 g/m*3 -1.2 C 0 km/h
3212 27-01-2011 23:00:00 -1 C 2.78 g/m*3 -1 C 0 km/h
3213 28-01-2011 00:00:00 -1.34 C 2.76 g/m*3 -1.34 C 0 km/h
3214 28-01-2011 01:00:00 -1.24 C 2.67 g/m*3 -1.24 C 0 km/h
3215 28-01-2011 02:00:00 -1.42 C 2.69 g/m*3